
Distance (Route):
Temperature : -45.3°C
Humidity : 58.9%
Pressure : 301.0hPa| Receiver | Frames | First received | Last received |
|---|---|---|---|
| KRY50SP | 732 | 2026-09-03 11:42:06 | 2026-09-03 13:02:46 |
| SP4MAZ | 207 | 2026-09-03 11:25:03 | 2026-09-03 13:06:43 |
| SP3WXH-11 | 100 | 2026-09-03 11:43:38 | 2026-09-03 12:42:05 |
| OM5KV | 81 | 2026-09-03 12:38:17 | 2026-09-03 12:48:21 |
| SP3BTT-10 | 10 | 2026-09-03 12:18:22 | 2026-09-03 12:41:28 |
| SQ9EZE-14 | 1 | 2026-09-03 12:13:06 | 2026-09-03 12:13:06 |
| Receiver | Date | Latitude | Longitude | Direction | Speed | Altitude | Climb | Temperature | Humidity | Pressure | Voltage | Killtimer | Uptime | BKT | XDATA |
|---|---|---|---|---|---|---|---|---|---|---|---|---|---|---|---|
| SP4MAZ | 2026-09-03 13:06:43 | 52.21076 | 21.65647 | 0° | 0km/h | 29222m | 0.0m/s | -45.3°C | 58.9% | 301.0hPa | 0V | 00:00:00 | 00:00:00 | 00:00:00 | |
| SP4MAZ | 2026-09-03 13:06:12 | 52.21076 | 21.65647 | 0° | 0km/h | 29222m | 0.0m/s | -49.3°C | 56.6% | 279.1hPa | 0V | 00:00:00 | 00:00:00 | 00:00:00 | |
| SP4MAZ | 2026-09-03 13:05:52 | 52.21076 | 21.65647 | 0° | 0km/h | 29222m | 0.0m/s | -51.7°C | 51.5% | 266.1hPa | 0V | 00:00:00 | 00:00:00 | 00:00:00 | |
| SP4MAZ | 2026-09-03 13:05:30 | 52.21076 | 21.65647 | 0° | 0km/h | 29222m | 0.0m/s | -54.1°C | 27.9% | 251.3hPa | 0V | 00:00:00 | 00:00:00 | 00:00:00 | |
| SP4MAZ | 2026-09-03 13:04:58 | 52.21076 | 21.65647 | 0° | 0km/h | 29222m | 0.0m/s | -56.5°C | 18.9% | 231.5hPa | 0V | 00:00:00 | 00:00:00 | 00:00:00 | |
| SP4MAZ | 2026-09-03 13:04:37 | 52.21076 | 21.65647 | 0° | 0km/h | 29222m | 0.0m/s | -55.0°C | 7.1% | 219.3hPa | 0V | 00:00:00 | 00:00:00 | 00:00:00 | |
| SP4MAZ | 2026-09-03 13:04:14 | 52.21076 | 21.65647 | 0° | 0km/h | 29222m | 0.0m/s | -51.6°C | 3.0% | 206.1hPa | 0V | 00:00:00 | 00:00:00 | 00:00:00 | |
| SP4MAZ | 2026-09-03 13:03:53 | 52.21076 | 21.65647 | 0° | 0km/h | 29222m | 0.0m/s | -51.5°C | 2.4% | 194.4hPa | 0V | 00:00:00 | 00:00:00 | 00:00:00 | |
| SP4MAZ | 2026-09-03 13:03:23 | 52.21076 | 21.65647 | 0° | 0km/h | 29222m | 0.0m/s | -50.0°C | 1.3% | 177.8hPa | 0V | 00:00:00 | 00:00:00 | 00:00:00 | |
| SP4MAZ | 2026-09-03 13:03:01 | 52.21076 | 21.65647 | 0° | 0km/h | 29222m | 0.0m/s | -50.6°C | 1.4% | 165.9hPa | 0V | 00:00:00 | 00:00:00 | 00:00:00 | |
| KRY50SP | 2026-09-03 13:02:46 | 52.21988 | 21.66741 | 29° | 151km/h | 28514m | -55.2m/s | -49.0°C | 1.2% | 158.7hPa | 0V | 00:00:00 | 00:00:00 | 00:00:00 | |
| KRY50SP | 2026-09-03 13:02:41 | 52.21988 | 21.66741 | 29° | 151km/h | 28514m | -55.2m/s | -49.5°C | 1.2% | 156.0hPa | 0V | 00:00:00 | 00:00:00 | 00:00:00 | |
| SP4MAZ | 2026-09-03 13:02:38 | 52.21076 | 21.65647 | 0° | 0km/h | 29222m | 0.0m/s | -49.7°C | 1.2% | 154.4hPa | 0V | 00:00:00 | 00:00:00 | 00:00:00 | |
| KRY50SP | 2026-09-03 13:02:34 | 52.21988 | 21.66741 | 29° | 151km/h | 28514m | -55.2m/s | -49.5°C | 1.2% | 152.5hPa | 0V | 00:00:00 | 00:00:00 | 00:00:00 | |
| SP4MAZ | 2026-09-03 13:02:18 | 52.21076 | 21.65647 | 0° | 0km/h | 29222m | 0.0m/s | -49.8°C | 1.1% | 144.6hPa | 0V | 00:00:00 | 00:00:00 | 00:00:00 | |
| KRY50SP | 2026-09-03 13:02:15 | 52.21988 | 21.66741 | 29° | 151km/h | 28514m | -55.2m/s | -49.7°C | 1.1% | 143.2hPa | 0V | 00:00:00 | 00:00:00 | 00:00:00 | |
| KRY50SP | 2026-09-03 13:02:09 | 52.21988 | 21.66741 | 29° | 151km/h | 28514m | -55.2m/s | -49.6°C | 1.1% | 140.3hPa | 0V | 00:00:00 | 00:00:00 | 00:00:00 | |
| KRY50SP | 2026-09-03 13:02:03 | 52.21988 | 21.66741 | 29° | 151km/h | 28514m | -55.2m/s | -50.4°C | 1.1% | 137.5hPa | 0V | 00:00:00 | 00:00:00 | 00:00:00 | |
| KRY50SP | 2026-09-03 13:01:57 | 52.21988 | 21.66741 | 29° | 151km/h | 28514m | -55.2m/s | -50.8°C | 1.1% | 134.9hPa | 0V | 00:00:00 | 00:00:00 | 00:00:00 | |
| KRY50SP | 2026-09-03 13:01:49 | 52.21988 | 21.66741 | 29° | 151km/h | 28514m | -55.2m/s | -50.4°C | 1.1% | 131.3hPa | 0V | 00:00:00 | 00:00:00 | 00:00:00 | |
| SP4MAZ | 2026-09-03 13:01:48 | 52.21076 | 21.65647 | 0° | 0km/h | 29222m | 0.0m/s | -50.5°C | 1.1% | 130.9hPa | 0V | 00:00:00 | 00:00:00 | 00:00:00 | |
| KRY50SP | 2026-09-03 13:01:43 | 52.21988 | 21.66741 | 29° | 151km/h | 28514m | -55.2m/s | -50.7°C | 1.1% | 128.8hPa | 0V | 00:00:00 | 00:00:00 | 00:00:00 | |
| KRY50SP | 2026-09-03 13:01:37 | 52.21988 | 21.66741 | 29° | 151km/h | 28514m | -55.2m/s | -50.3°C | 1.0% | 126.2hPa | 0V | 00:00:00 | 00:00:00 | 00:00:00 | |
| KRY50SP | 2026-09-03 13:01:32 | 52.21988 | 21.66741 | 29° | 151km/h | 28514m | -55.2m/s | -50.2°C | 1.0% | 124.0hPa | 0V | 00:00:00 | 00:00:00 | 00:00:00 | |
| KRY50SP | 2026-09-03 13:01:27 | 52.21988 | 21.66741 | 29° | 151km/h | 28514m | -55.2m/s | -49.8°C | 1.0% | 121.7hPa | 0V | 00:00:00 | 00:00:00 | 00:00:00 | |
| SP4MAZ | 2026-09-03 13:01:26 | 52.21076 | 21.65647 | 0° | 0km/h | 29222m | 0.0m/s | -49.8°C | 1.0% | 121.3hPa | 0V | 00:00:00 | 00:00:00 | 00:00:00 | |
| KRY50SP | 2026-09-03 13:01:21 | 52.21988 | 21.66741 | 29° | 151km/h | 28514m | -55.2m/s | -50.4°C | 1.0% | 119.4hPa | 0V | 00:00:00 | 00:00:00 | 00:00:00 | |
| KRY50SP | 2026-09-03 13:01:16 | 52.21988 | 21.66741 | 29° | 151km/h | 28514m | -55.2m/s | -50.3°C | 1.0% | 117.3hPa | 0V | 00:00:00 | 00:00:00 | 00:00:00 | |
| KRY50SP | 2026-09-03 13:01:10 | 52.21988 | 21.66741 | 29° | 151km/h | 28514m | -55.2m/s | -50.4°C | 1.0% | 115.0hPa | 0V | 00:00:00 | 00:00:00 | 00:00:00 | |
| SP4MAZ | 2026-09-03 13:01:05 | 52.21076 | 21.65647 | 0° | 0km/h | 29222m | 0.0m/s | -50.7°C | 1.0% | 113.0hPa | 0V | 00:00:00 | 00:00:00 | 00:00:00 | |
| KRY50SP | 2026-09-03 13:00:58 | 52.21988 | 21.66741 | 29° | 151km/h | 28514m | -55.2m/s | -50.9°C | 1.0% | 110.5hPa | 0V | 00:00:00 | 00:00:00 | 00:00:00 | |
| KRY50SP | 2026-09-03 13:00:53 | 52.21988 | 21.66741 | 29° | 151km/h | 28514m | -55.2m/s | -51.0°C | 1.0% | 108.9hPa | 0V | 00:00:00 | 00:00:00 | 00:00:00 | |
| KRY50SP | 2026-09-03 13:00:47 | 52.21988 | 21.66741 | 29° | 151km/h | 28514m | -55.2m/s | -51.2°C | 1.0% | 106.6hPa | 0V | 00:00:00 | 00:00:00 | 00:00:00 | |
| SP4MAZ | 2026-09-03 13:00:44 | 52.21076 | 21.65647 | 0° | 0km/h | 29222m | 0.0m/s | -51.2°C | 1.0% | 105.4hPa | 0V | 00:00:00 | 00:00:00 | 00:00:00 | |
| KRY50SP | 2026-09-03 13:00:41 | 52.21988 | 21.66741 | 29° | 151km/h | 28514m | -55.2m/s | -50.8°C | 1.0% | 104.3hPa | 0V | 00:00:00 | 00:00:00 | 00:00:00 | |
| KRY50SP | 2026-09-03 13:00:36 | 52.21988 | 21.66741 | 29° | 151km/h | 28514m | -55.2m/s | -51.1°C | 1.0% | 102.5hPa | 0V | 00:00:00 | 00:00:00 | 00:00:00 | |
| KRY50SP | 2026-09-03 13:00:30 | 52.21988 | 21.66741 | 29° | 151km/h | 28514m | -55.2m/s | -51.5°C | 1.0% | 100.5hPa | 0V | 00:00:00 | 00:00:00 | 00:00:00 | |
| SP4MAZ | 2026-09-03 13:00:24 | 52.21076 | 21.65647 | 0° | 0km/h | 29222m | 0.0m/s | -52.0°C | 1.1% | 98.3hPa | 0V | 00:00:00 | 00:00:00 | 00:00:00 | |
| KRY50SP | 2026-09-03 13:00:19 | 52.21988 | 21.66741 | 29° | 151km/h | 28514m | -55.2m/s | -51.7°C | 1.0% | 96.6hPa | 0V | 00:00:00 | 00:00:00 | 00:00:00 | |
| KRY50SP | 2026-09-03 13:00:13 | 52.21988 | 21.66741 | 29° | 151km/h | 28514m | -55.2m/s | -50.9°C | 0.9% | 94.4hPa | 0V | 00:00:00 | 00:00:00 | 00:00:00 | |
| KRY50SP | 2026-09-03 13:00:07 | 52.21988 | 21.66741 | 29° | 151km/h | 28514m | -55.2m/s | -50.3°C | 0.9% | 92.2hPa | 0V | 00:00:00 | 00:00:00 | 00:00:00 | |
| KRY50SP | 2026-09-03 12:59:56 | 52.21988 | 21.66741 | 29° | 151km/h | 28514m | -55.2m/s | -50.9°C | 0.9% | 88.3hPa | 0V | 00:00:00 | 00:00:00 | 00:00:00 | |
| KRY50SP | 2026-09-03 12:59:50 | 52.21988 | 21.66741 | 29° | 151km/h | 28514m | -55.2m/s | -51.4°C | 0.9% | 86.3hPa | 0V | 00:00:00 | 00:00:00 | 00:00:00 | |
| KRY50SP | 2026-09-03 12:59:45 | 52.21988 | 21.66741 | 29° | 151km/h | 28514m | -55.2m/s | -51.5°C | 1.0% | 84.5hPa | 0V | 00:00:00 | 00:00:00 | 00:00:00 | |
| KRY50SP | 2026-09-03 12:59:39 | 52.21988 | 21.66741 | 29° | 151km/h | 28514m | -55.2m/s | -51.1°C | 0.9% | 82.6hPa | 0V | 00:00:00 | 00:00:00 | 00:00:00 | |
| SP4MAZ | 2026-09-03 12:59:35 | 52.21076 | 21.65647 | 0° | 0km/h | 29222m | 0.0m/s | -50.8°C | 0.9% | 81.1hPa | 0V | 00:00:00 | 00:00:00 | 00:00:00 | |
| KRY50SP | 2026-09-03 12:59:33 | 52.21988 | 21.66741 | 29° | 151km/h | 28514m | -55.2m/s | -50.7°C | 0.9% | 80.5hPa | 0V | 00:00:00 | 00:00:00 | 00:00:00 | |
| KRY50SP | 2026-09-03 12:59:27 | 52.21988 | 21.66741 | 29° | 151km/h | 28514m | -55.2m/s | -51.4°C | 0.9% | 78.8hPa | 0V | 00:00:00 | 00:00:00 | 00:00:00 | |
| KRY50SP | 2026-09-03 12:59:21 | 52.21988 | 21.66741 | 29° | 151km/h | 28514m | -55.2m/s | -51.7°C | 1.0% | 77.0hPa | 0V | 00:00:00 | 00:00:00 | 00:00:00 | |
| KRY50SP | 2026-09-03 12:59:15 | 52.21988 | 21.66741 | 29° | 151km/h | 28514m | -55.2m/s | -50.8°C | 0.9% | 75.4hPa | 0V | 00:00:00 | 00:00:00 | 00:00:00 | |
| KRY50SP | 2026-09-03 12:59:09 | 52.21988 | 21.66741 | 29° | 151km/h | 28514m | -55.2m/s | -51.6°C | 0.9% | 73.6hPa | 0V | 00:00:00 | 00:00:00 | 00:00:00 | |
| KRY50SP | 2026-09-03 12:59:03 | 52.21988 | 21.66741 | 29° | 151km/h | 28514m | -55.2m/s | -50.9°C | 0.9% | 71.7hPa | 0V | 00:00:00 | 00:00:00 | 00:00:00 | |
| KRY50SP | 2026-09-03 12:58:52 | 52.21988 | 21.66741 | 29° | 151km/h | 28514m | -55.2m/s | -51.0°C | 0.9% | 68.7hPa | 0V | 00:00:00 | 00:00:00 | 00:00:00 | |
| KRY50SP | 2026-09-03 12:58:46 | 52.21988 | 21.66741 | 29° | 151km/h | 28514m | -55.2m/s | -50.5°C | 0.9% | 67.1hPa | 0V | 00:00:00 | 00:00:00 | 00:00:00 | |
| KRY50SP | 2026-09-03 12:58:41 | 52.21988 | 21.66741 | 29° | 151km/h | 28514m | -55.2m/s | -50.8°C | 0.9% | 65.7hPa | 0V | 00:00:00 | 00:00:00 | 00:00:00 | |
| KRY50SP | 2026-09-03 12:58:35 | 52.21988 | 21.66741 | 29° | 151km/h | 28514m | -55.2m/s | -50.6°C | 0.9% | 64.0hPa | 0V | 00:00:00 | 00:00:00 | 00:00:00 | |
| KRY50SP | 2026-09-03 12:58:30 | 52.21988 | 21.66741 | 29° | 151km/h | 28514m | -55.2m/s | -50.5°C | 0.8% | 62.8hPa | 0V | 00:00:00 | 00:00:00 | 00:00:00 | |
| KRY50SP | 2026-09-03 12:58:24 | 52.21988 | 21.66741 | 29° | 151km/h | 28514m | -55.2m/s | -50.2°C | 0.8% | 61.5hPa | 0V | 00:00:00 | 00:00:00 | 00:00:00 | |
| SP4MAZ | 2026-09-03 12:58:20 | 52.21076 | 21.65647 | 0° | 0km/h | 29222m | 0.0m/s | -50.3°C | 0.8% | 60.6hPa | 0V | 00:00:00 | 00:00:00 | 00:00:00 | |
| KRY50SP | 2026-09-03 12:58:19 | 52.21988 | 21.66741 | 29° | 151km/h | 28514m | -55.2m/s | -50.5°C | 0.8% | 60.3hPa | 0V | 00:00:00 | 00:00:00 | 00:00:00 | |
| KRY50SP | 2026-09-03 12:58:13 | 52.21988 | 21.66741 | 29° | 151km/h | 28514m | -55.2m/s | -50.7°C | 0.8% | 58.8hPa | 0V | 00:00:00 | 00:00:00 | 00:00:00 | |
| KRY50SP | 2026-09-03 12:58:07 | 52.21988 | 21.66741 | 29° | 151km/h | 28514m | -55.2m/s | -51.5°C | 0.9% | 57.4hPa | 0V | 00:00:00 | 00:00:00 | 00:00:00 | |
| KRY50SP | 2026-09-03 12:58:01 | 52.21988 | 21.66741 | 29° | 151km/h | 28514m | -55.2m/s | -51.8°C | 0.9% | 56.0hPa | 0V | 00:00:00 | 00:00:00 | 00:00:00 | |
| SP4MAZ | 2026-09-03 12:58:00 | 52.21076 | 21.65647 | 0° | 0km/h | 29222m | 0.0m/s | -51.8°C | 0.9% | 55.7hPa | 0V | 00:00:00 | 00:00:00 | 00:00:00 | |
| KRY50SP | 2026-09-03 12:57:56 | 52.21988 | 21.66741 | 29° | 151km/h | 28514m | -55.2m/s | -51.4°C | 0.9% | 54.8hPa | 0V | 00:00:00 | 00:00:00 | 00:00:00 | |
| KRY50SP | 2026-09-03 12:57:50 | 52.21988 | 21.66741 | 29° | 151km/h | 28514m | -55.2m/s | -51.2°C | 0.9% | 53.3hPa | 0V | 00:00:00 | 00:00:00 | 00:00:00 | |
| KRY50SP | 2026-09-03 12:57:45 | 52.21988 | 21.66741 | 29° | 151km/h | 28514m | -55.2m/s | -51.2°C | 0.9% | 52.1hPa | 0V | 00:00:00 | 00:00:00 | 00:00:00 | |
| KRY50SP | 2026-09-03 12:57:40 | 52.21988 | 21.66741 | 29° | 151km/h | 28514m | -55.2m/s | -51.1°C | 0.8% | 50.9hPa | 0V | 00:00:00 | 00:00:00 | 00:00:00 | |
| SP4MAZ | 2026-09-03 12:57:38 | 52.21076 | 21.65647 | 0° | 0km/h | 29222m | 0.0m/s | -51.2°C | 0.8% | 50.5hPa | 0V | 00:00:00 | 00:00:00 | 00:00:00 | |
| KRY50SP | 2026-09-03 12:57:34 | 52.21988 | 21.66741 | 29° | 151km/h | 28514m | -55.2m/s | -51.3°C | 0.9% | 49.5hPa | 0V | 00:00:00 | 00:00:00 | 00:00:00 | |
| KRY50SP | 2026-09-03 12:57:28 | 52.21988 | 21.66741 | 29° | 151km/h | 28514m | -55.2m/s | -51.0°C | 0.8% | 48.2hPa | 0V | 00:00:00 | 00:00:00 | 00:00:00 | |
| KRY50SP | 2026-09-03 12:57:22 | 52.21988 | 21.66741 | 29° | 151km/h | 28514m | -55.2m/s | -52.0°C | 0.9% | 46.7hPa | 0V | 00:00:00 | 00:00:00 | 00:00:00 | |
| SP4MAZ | 2026-09-03 12:57:18 | 52.21076 | 21.65647 | 0° | 0km/h | 29222m | 0.0m/s | -52.7°C | 0.9% | 46.0hPa | 0V | 00:00:00 | 00:00:00 | 00:00:00 | |
| KRY50SP | 2026-09-03 12:57:17 | 52.21988 | 21.66741 | 29° | 151km/h | 28514m | -55.2m/s | -52.7°C | 0.9% | 45.8hPa | 0V | 00:00:00 | 00:00:00 | 00:00:00 | |
| KRY50SP | 2026-09-03 12:57:07 | 52.21988 | 21.66741 | 29° | 151km/h | 28514m | -55.2m/s | -52.8°C | 1.0% | 43.6hPa | 0V | 00:00:00 | 00:00:00 | 00:00:00 | |
| KRY50SP | 2026-09-03 12:57:01 | 52.21988 | 21.66741 | 29° | 151km/h | 28514m | -55.2m/s | -52.7°C | 1.0% | 42.3hPa | 0V | 00:00:00 | 00:00:00 | 00:00:00 | |
| SP4MAZ | 2026-09-03 12:56:57 | 52.21076 | 21.65647 | 0° | 0km/h | 29222m | 0.0m/s | -52.6°C | 1.0% | 41.5hPa | 0V | 00:00:00 | 00:00:00 | 00:00:00 | |
| KRY50SP | 2026-09-03 12:56:55 | 52.21988 | 21.66741 | 29° | 151km/h | 28514m | -55.2m/s | -52.2°C | 0.9% | 41.0hPa | 0V | 00:00:00 | 00:00:00 | 00:00:00 | |
| KRY50SP | 2026-09-03 12:56:49 | 52.21988 | 21.66741 | 29° | 151km/h | 28514m | -55.2m/s | -51.7°C | 0.9% | 39.6hPa | 0V | 00:00:00 | 00:00:00 | 00:00:00 | |
| KRY50SP | 2026-09-03 12:56:44 | 52.21988 | 21.66741 | 29° | 151km/h | 28514m | -55.2m/s | -51.3°C | 0.9% | 38.6hPa | 0V | 00:00:00 | 00:00:00 | 00:00:00 | |
| KRY50SP | 2026-09-03 12:56:38 | 52.21988 | 21.66741 | 29° | 151km/h | 28514m | -55.2m/s | -51.0°C | 0.8% | 37.4hPa | 0V | 00:00:00 | 00:00:00 | 00:00:00 | |
| SP4MAZ | 2026-09-03 12:56:36 | 52.21076 | 21.65647 | 0° | 0km/h | 29222m | 0.0m/s | -51.1°C | 0.8% | 37.0hPa | 0V | 00:00:00 | 00:00:00 | 00:00:00 | |
| KRY50SP | 2026-09-03 12:56:32 | 52.21988 | 21.66741 | 29° | 151km/h | 28514m | -55.2m/s | -51.0°C | 0.9% | 36.2hPa | 0V | 00:00:00 | 00:00:00 | 00:00:00 | |
| KRY50SP | 2026-09-03 12:56:26 | 52.21988 | 21.66741 | 29° | 151km/h | 28514m | -55.2m/s | -51.1°C | 0.8% | 35.0hPa | 0V | 00:00:00 | 00:00:00 | 00:00:00 | |
| KRY50SP | 2026-09-03 12:56:21 | 52.21988 | 21.66741 | 29° | 151km/h | 28514m | -55.2m/s | -50.1°C | 0.8% | 34.0hPa | 0V | 00:00:00 | 00:00:00 | 00:00:00 | |
| KRY50SP | 2026-09-03 12:56:15 | 52.21988 | 21.66741 | 29° | 151km/h | 28514m | -55.2m/s | -49.9°C | 0.8% | 32.9hPa | 0V | 00:00:00 | 00:00:00 | 00:00:00 | |
| KRY50SP | 2026-09-03 12:56:10 | 52.21988 | 21.66741 | 29° | 151km/h | 28514m | -55.2m/s | -49.6°C | 0.8% | 31.9hPa | 0V | 00:00:00 | 00:00:00 | 00:00:00 | |
| SP4MAZ | 2026-09-03 12:56:08 | 52.21076 | 21.65647 | 0° | 0km/h | 29222m | 0.0m/s | -49.6°C | 0.7% | 31.6hPa | 0V | 00:00:00 | 00:00:00 | 00:00:00 | |
| KRY50SP | 2026-09-03 12:56:04 | 52.21988 | 21.66741 | 29° | 151km/h | 28514m | -55.2m/s | -49.6°C | 0.8% | 31.0hPa | 0V | 00:00:00 | 00:00:00 | 00:00:00 | |
| KRY50SP | 2026-09-03 12:55:58 | 52.21988 | 21.66741 | 29° | 151km/h | 28514m | -55.2m/s | -49.3°C | 0.7% | 30.1hPa | 0V | 00:00:00 | 00:00:00 | 00:00:00 | |
| KRY50SP | 2026-09-03 12:55:52 | 52.21988 | 21.66741 | 29° | 151km/h | 28514m | -55.2m/s | -48.4°C | 0.7% | 29.3hPa | 0V | 00:00:00 | 00:00:00 | 00:00:00 | |
| SP4MAZ | 2026-09-03 12:55:47 | 52.21076 | 21.65647 | 0° | 0km/h | 29222m | 0.0m/s | -48.8°C | 0.7% | 28.5hPa | 0V | 00:00:00 | 00:00:00 | 00:00:00 | |
| KRY50SP | 2026-09-03 12:55:46 | 52.21988 | 21.66741 | 29° | 151km/h | 28514m | -55.2m/s | -48.8°C | 0.7% | 28.4hPa | 0V | 00:00:00 | 00:00:00 | 00:00:00 | |
| KRY50SP | 2026-09-03 12:55:40 | 52.21988 | 21.66741 | 29° | 151km/h | 28514m | -55.2m/s | -49.0°C | 0.7% | 27.4hPa | 0V | 00:00:00 | 00:00:00 | 00:00:00 | |
| KRY50SP | 2026-09-03 12:55:35 | 52.21988 | 21.66741 | 29° | 151km/h | 28514m | -55.2m/s | -49.2°C | 0.7% | 26.7hPa | 0V | 00:00:00 | 00:00:00 | 00:00:00 | |
| KRY50SP | 2026-09-03 12:55:29 | 52.21988 | 21.66741 | 29° | 151km/h | 28514m | -55.2m/s | -49.3°C | 0.7% | 25.8hPa | 0V | 00:00:00 | 00:00:00 | 00:00:00 | |
| SP4MAZ | 2026-09-03 12:55:26 | 52.21076 | 21.65647 | 0° | 0km/h | 29222m | 0.0m/s | -49.4°C | 0.7% | 25.3hPa | 0V | 00:00:00 | 00:00:00 | 00:00:00 | |
| KRY50SP | 2026-09-03 12:55:23 | 52.21988 | 21.66741 | 29° | 151km/h | 28514m | -55.2m/s | -49.3°C | 0.7% | 24.8hPa | 0V | 00:00:00 | 00:00:00 | 00:00:00 | |
| KRY50SP | 2026-09-03 12:55:18 | 52.21988 | 21.66741 | 29° | 151km/h | 28514m | -55.2m/s | -48.6°C | 0.7% | 24.0hPa | 0V | 00:00:00 | 00:00:00 | 00:00:00 | |
| KRY50SP | 2026-09-03 12:55:12 | 52.21988 | 21.66741 | 29° | 151km/h | 28514m | -55.2m/s | -48.8°C | 0.7% | 23.2hPa | 0V | 00:00:00 | 00:00:00 | 00:00:00 | |
| KRY50SP | 2026-09-03 12:55:06 | 52.21988 | 21.66741 | 29° | 151km/h | 28514m | -55.2m/s | -48.3°C | 0.7% | 22.4hPa | 0V | 00:00:00 | 00:00:00 | 00:00:00 | |
| SP4MAZ | 2026-09-03 12:55:05 | 52.21076 | 21.65647 | 0° | 0km/h | 29222m | 0.0m/s | -48.3°C | 0.7% | 22.2hPa | 0V | 00:00:00 | 00:00:00 | 00:00:00 | |
| KRY50SP | 2026-09-03 12:55:01 | 52.21988 | 21.66741 | 29° | 151km/h | 28514m | -55.2m/s | -48.1°C | 0.7% | 21.7hPa | 0V | 00:00:00 | 00:00:00 | 00:00:00 | |
| KRY50SP | 2026-09-03 12:54:55 | 52.21988 | 21.66741 | 29° | 151km/h | 28514m | -55.2m/s | -47.8°C | 0.7% | 20.8hPa | 0V | 00:00:00 | 00:00:00 | 00:00:00 | |
| KRY50SP | 2026-09-03 12:54:50 | 52.21988 | 21.66741 | 29° | 151km/h | 28514m | -55.2m/s | -47.5°C | 0.7% | 20.2hPa | 0V | 00:00:00 | 00:00:00 | 00:00:00 | |
| KRY50SP | 2026-09-03 12:54:44 | 52.21988 | 21.66741 | 29° | 151km/h | 28514m | -55.2m/s | -47.5°C | 0.7% | 19.4hPa | 0V | 00:00:00 | 00:00:00 | 00:00:00 | |
| KRY50SP | 2026-09-03 12:54:38 | 52.21988 | 21.66741 | 29° | 151km/h | 28514m | -55.2m/s | -46.6°C | 0.6% | 18.7hPa | 0V | 00:00:00 | 00:00:00 | 00:00:00 | |
| KRY50SP | 2026-09-03 12:54:33 | 52.21988 | 21.66741 | 29° | 151km/h | 28514m | -55.2m/s | -46.6°C | 0.6% | 18.0hPa | 0V | 00:00:00 | 00:00:00 | 00:00:00 | |
| KRY50SP | 2026-09-03 12:54:27 | 52.21988 | 21.66741 | 29° | 151km/h | 28514m | -55.2m/s | -46.4°C | 0.6% | 17.3hPa | 0V | 00:00:00 | 00:00:00 | 00:00:00 | |
| SP4MAZ | 2026-09-03 12:54:21 | 52.21076 | 21.65647 | 0° | 0km/h | 29222m | 0.0m/s | -44.8°C | 0.6% | 16.6hPa | 0V | 00:00:00 | 00:00:00 | 00:00:00 | |
| KRY50SP | 2026-09-03 12:54:15 | 52.21988 | 21.66741 | 29° | 151km/h | 28514m | -55.2m/s | -45.6°C | 0.6% | 16.0hPa | 0V | 00:00:00 | 00:00:00 | 00:00:00 | |
| KRY50SP | 2026-09-03 12:54:09 | 52.21988 | 21.66741 | 29° | 151km/h | 28514m | -55.2m/s | -44.7°C | 0.6% | 15.3hPa | 0V | 00:00:00 | 00:00:00 | 00:00:00 | |
| KRY50SP | 2026-09-03 12:54:03 | 52.21988 | 21.66741 | 29° | 151km/h | 28514m | -55.2m/s | -43.6°C | 0.5% | 14.7hPa | 0V | 00:00:00 | 00:00:00 | 00:00:00 | |
| KRY50SP | 2026-09-03 12:53:58 | 52.21988 | 21.66741 | 29° | 151km/h | 28514m | -55.2m/s | -43.6°C | 0.5% | 14.1hPa | 0V | 00:00:00 | 00:00:00 | 00:00:00 | |
| KRY50SP | 2026-09-03 12:53:52 | 52.21988 | 21.66741 | 29° | 151km/h | 28514m | -55.2m/s | -43.4°C | 0.5% | 13.5hPa | 0V | 00:00:00 | 00:00:00 | 00:00:00 | |
| KRY50SP | 2026-09-03 12:53:46 | 52.21988 | 21.66741 | 29° | 151km/h | 28514m | -55.2m/s | -43.0°C | 0.5% | 12.9hPa | 0V | 00:00:00 | 00:00:00 | 00:00:00 | |
| KRY50SP | 2026-09-03 12:53:40 | 52.21988 | 21.66741 | 29° | 151km/h | 28514m | -55.2m/s | -41.9°C | 0.5% | 12.2hPa | 0V | 00:00:00 | 00:00:00 | 00:00:00 | |
| SP4MAZ | 2026-09-03 12:53:37 | 52.21076 | 21.65647 | 0° | 0km/h | 29222m | 0.0m/s | -41.2°C | 0.5% | 12.0hPa | 0V | 00:00:00 | 00:00:00 | 00:00:00 | |
| KRY50SP | 2026-09-03 12:53:35 | 52.21988 | 21.66741 | 29° | 151km/h | 28514m | -55.2m/s | -41.0°C | 0.5% | 11.8hPa | 0V | 00:00:00 | 00:00:00 | 00:00:00 | |
| KRY50SP | 2026-09-03 12:53:29 | 52.21988 | 21.66741 | 29° | 151km/h | 28514m | -55.2m/s | -39.7°C | 0.4% | 11.2hPa | 0V | 00:00:00 | 00:00:00 | 00:00:00 | |
| KRY50SP | 2026-09-03 12:53:24 | 52.21988 | 21.66741 | 29° | 151km/h | 28514m | -55.2m/s | -39.1°C | 0.4% | 10.8hPa | 0V | 00:00:00 | 00:00:00 | 00:00:00 | |
| KRY50SP | 2026-09-03 12:53:18 | 52.21988 | 21.66741 | 29° | 151km/h | 28514m | -55.2m/s | -39.5°C | 0.4% | 10.3hPa | 0V | 00:00:00 | 00:00:00 | 00:00:00 | |
| SP4MAZ | 2026-09-03 12:53:14 | 52.21076 | 21.65647 | 0° | 0km/h | 29222m | 0.0m/s | -38.6°C | 0.4% | 9.9hPa | 0V | 00:00:00 | 00:00:00 | 00:00:00 | |
| KRY50SP | 2026-09-03 12:53:12 | 52.21988 | 21.66741 | 29° | 151km/h | 28514m | -55.2m/s | -38.0°C | 0.4% | 9.7hPa | 0V | 00:00:00 | 00:00:00 | 00:00:00 | |
| KRY50SP | 2026-09-03 12:53:00 | 52.21988 | 21.66741 | 29° | 151km/h | 28514m | -55.2m/s | -36.8°C | 0.3% | 8.8hPa | 0V | 00:00:00 | 00:00:00 | 00:00:00 | |
| KRY50SP | 2026-09-03 12:52:54 | 52.21988 | 21.66741 | 29° | 151km/h | 28514m | -55.2m/s | -36.9°C | 0.3% | 8.4hPa | 0V | 00:00:00 | 00:00:00 | 00:00:00 | |
| SP4MAZ | 2026-09-03 12:52:53 | 52.21076 | 21.65647 | 0° | 0km/h | 29222m | 0.0m/s | -36.6°C | 0.3% | 8.3hPa | 0V | 00:00:00 | 00:00:00 | 00:00:00 | |
| KRY50SP | 2026-09-03 12:52:42 | 52.21988 | 21.66741 | 29° | 151km/h | 28514m | -55.2m/s | -36.8°C | 0.3% | 7.8hPa | 0V | 00:00:00 | 00:00:00 | 00:00:00 | |
| KRY50SP | 2026-09-03 12:52:36 | 52.21988 | 21.66741 | 29° | 151km/h | 28514m | -55.2m/s | -36.7°C | 0.3% | 7.9hPa | 0V | 00:00:00 | 00:00:00 | 00:00:00 | |
| KRY50SP | 2026-09-03 12:52:31 | 52.21988 | 21.66741 | 29° | 151km/h | 28514m | -55.2m/s | -36.8°C | 0.3% | 7.9hPa | 0V | 00:00:00 | 00:00:00 | 00:00:00 | |
| KRY50SP | 2026-09-03 12:52:25 | 52.21988 | 21.66741 | 29° | 151km/h | 28514m | -55.2m/s | -37.0°C | 0.3% | 8.0hPa | 0V | 00:00:00 | 00:00:00 | 00:00:00 | |
| SP4MAZ | 2026-09-03 12:52:21 | 52.21076 | 21.65647 | 0° | 0km/h | 29222m | 0.0m/s | -37.1°C | 0.3% | 8.0hPa | 0V | 00:00:00 | 00:00:00 | 00:00:00 | |
| KRY50SP | 2026-09-03 12:52:20 | 52.21988 | 21.66741 | 29° | 151km/h | 28514m | -55.2m/s | -37.1°C | 0.3% | 8.0hPa | 0V | 00:00:00 | 00:00:00 | 00:00:00 | |
| KRY50SP | 2026-09-03 12:52:14 | 52.21988 | 21.66741 | 29° | 151km/h | 28514m | -55.2m/s | -37.3°C | 0.3% | 8.1hPa | 0V | 00:00:00 | 00:00:00 | 00:00:00 | |
| KRY50SP | 2026-09-03 12:52:09 | 52.21988 | 21.66741 | 29° | 151km/h | 28514m | -55.2m/s | -37.6°C | 0.3% | 8.1hPa | 0V | 00:00:00 | 00:00:00 | 00:00:00 | |
| SP4MAZ | 2026-09-03 12:52:00 | 52.21076 | 21.65647 | 0° | 0km/h | 29222m | 0.0m/s | -37.7°C | 0.4% | 8.2hPa | 0V | 00:00:00 | 00:00:00 | 00:00:00 | |
| KRY50SP | 2026-09-03 12:51:58 | 52.21988 | 21.66741 | 29° | 151km/h | 28514m | -55.2m/s | -37.7°C | 0.4% | 8.2hPa | 0V | 00:00:00 | 00:00:00 | 00:00:00 | |
| KRY50SP | 2026-09-03 12:51:52 | 52.21988 | 21.66741 | 29° | 151km/h | 28514m | -55.2m/s | -37.9°C | 0.4% | 8.3hPa | 0V | 00:00:00 | 00:00:00 | 00:00:00 | |
| KRY50SP | 2026-09-03 12:51:47 | 52.21988 | 21.66741 | 29° | 151km/h | 28514m | -55.2m/s | -37.8°C | 0.4% | 8.3hPa | 0V | 00:00:00 | 00:00:00 | 00:00:00 | |
| KRY50SP | 2026-09-03 12:51:42 | 52.21988 | 21.66741 | 29° | 151km/h | 28514m | -55.2m/s | -37.7°C | 0.4% | 8.4hPa | 0V | 00:00:00 | 00:00:00 | 00:00:00 | |
| SP4MAZ | 2026-09-03 12:51:40 | 52.21076 | 21.65647 | 0° | 0km/h | 29222m | 0.0m/s | -37.7°C | 0.4% | 8.4hPa | 0V | 00:00:00 | 00:00:00 | 00:00:00 | |
| KRY50SP | 2026-09-03 12:51:36 | 52.21988 | 21.66741 | 29° | 151km/h | 28514m | -55.2m/s | -37.6°C | 0.4% | 8.4hPa | 0V | 00:00:00 | 00:00:00 | 00:00:00 | |
| KRY50SP | 2026-09-03 12:51:30 | 52.21988 | 21.66741 | 29° | 151km/h | 28514m | -55.2m/s | -37.7°C | 0.4% | 8.5hPa | 0V | 00:00:00 | 00:00:00 | 00:00:00 | |
| KRY50SP | 2026-09-03 12:51:24 | 52.21988 | 21.66741 | 29° | 151km/h | 28514m | -55.2m/s | -37.8°C | 0.4% | 8.5hPa | 0V | 00:00:00 | 00:00:00 | 00:00:00 | |
| KRY50SP | 2026-09-03 12:51:19 | 52.21988 | 21.66741 | 29° | 151km/h | 28514m | -55.2m/s | -37.7°C | 0.3% | 8.6hPa | 0V | 00:00:00 | 00:00:00 | 00:00:00 | |
| KRY50SP | 2026-09-03 12:51:13 | 52.21988 | 21.66741 | 29° | 151km/h | 28514m | -55.2m/s | -37.6°C | 0.4% | 8.6hPa | 0V | 00:00:00 | 00:00:00 | 00:00:00 | |
| SP4MAZ | 2026-09-03 12:51:10 | 52.21076 | 21.65647 | 0° | 0km/h | 29222m | 0.0m/s | -37.6°C | 0.4% | 8.6hPa | 0V | 00:00:00 | 00:00:00 | 00:00:00 | |
| KRY50SP | 2026-09-03 12:51:02 | 52.21988 | 21.66741 | 29° | 151km/h | 28514m | -55.2m/s | -37.7°C | 0.4% | 8.7hPa | 0V | 00:00:00 | 00:00:00 | 00:00:00 | |
| KRY50SP | 2026-09-03 12:50:51 | 52.21988 | 21.66741 | 29° | 151km/h | 28514m | -55.2m/s | -37.7°C | 0.4% | 8.8hPa | 0V | 00:00:00 | 00:00:00 | 00:00:00 | |
| SP4MAZ | 2026-09-03 12:50:50 | 52.21076 | 21.65647 | 0° | 0km/h | 29222m | 0.0m/s | -37.7°C | 0.4% | 8.8hPa | 0V | 00:00:00 | 00:00:00 | 00:00:00 | |
| KRY50SP | 2026-09-03 12:50:40 | 52.21988 | 21.66741 | 29° | 151km/h | 28514m | -55.2m/s | -37.8°C | 0.4% | 8.9hPa | 0V | 00:00:00 | 00:00:00 | 00:00:00 | |
| SP4MAZ | 2026-09-03 12:50:29 | 52.21076 | 21.65647 | 0° | 0km/h | 29222m | 0.0m/s | -37.9°C | 0.4% | 9.0hPa | 0V | 00:00:00 | 00:00:00 | 00:00:00 | |
| KRY50SP | 2026-09-03 12:50:23 | 52.21988 | 21.66741 | 29° | 151km/h | 28514m | -55.2m/s | -38.1°C | 0.4% | 9.1hPa | 0V | 00:00:00 | 00:00:00 | 00:00:00 | |
| KRY50SP | 2026-09-03 12:50:17 | 52.21988 | 21.66741 | 29° | 151km/h | 28514m | -55.2m/s | -38.3°C | 0.4% | 9.1hPa | 0V | 00:00:00 | 00:00:00 | 00:00:00 | |
| KRY50SP | 2026-09-03 12:50:11 | 52.21988 | 21.66741 | 29° | 151km/h | 28514m | -55.2m/s | -38.5°C | 0.4% | 9.2hPa | 0V | 00:00:00 | 00:00:00 | 00:00:00 | |
| SP4MAZ | 2026-09-03 12:50:09 | 52.21076 | 21.65647 | 0° | 0km/h | 29222m | 0.0m/s | -38.5°C | 0.4% | 9.2hPa | 0V | 00:00:00 | 00:00:00 | 00:00:00 | |
| KRY50SP | 2026-09-03 12:50:06 | 52.21988 | 21.66741 | 29° | 151km/h | 28514m | -55.2m/s | -38.6°C | 0.4% | 9.2hPa | 0V | 00:00:00 | 00:00:00 | 00:00:00 | |
| KRY50SP | 2026-09-03 12:50:00 | 52.21988 | 21.66741 | 29° | 151km/h | 28514m | -55.2m/s | -38.8°C | 0.4% | 9.3hPa | 0V | 00:00:00 | 00:00:00 | 00:00:00 | |
| KRY50SP | 2026-09-03 12:49:55 | 52.21988 | 21.66741 | 29° | 151km/h | 28514m | -55.2m/s | -38.9°C | 0.4% | 9.3hPa | 0V | 00:00:00 | 00:00:00 | 00:00:00 | |
| KRY50SP | 2026-09-03 12:49:43 | 52.21988 | 21.66741 | 29° | 151km/h | 28514m | -55.2m/s | -38.9°C | 0.4% | 9.4hPa | 0V | 00:00:00 | 00:00:00 | 00:00:00 | |
| KRY50SP | 2026-09-03 12:49:38 | 52.21988 | 21.66741 | 29° | 151km/h | 28514m | -55.2m/s | -39.2°C | 0.4% | 9.5hPa | 0V | 00:00:00 | 00:00:00 | 00:00:00 | |
| KRY50SP | 2026-09-03 12:49:33 | 52.21988 | 21.66741 | 29° | 151km/h | 28514m | -55.2m/s | -39.5°C | 0.4% | 9.5hPa | 0V | 00:00:00 | 00:00:00 | 00:00:00 | |
| SP4MAZ | 2026-09-03 12:49:23 | 52.21076 | 21.65647 | 0° | 0km/h | 29222m | 0.0m/s | -39.9°C | 0.4% | 9.6hPa | 0V | 00:00:00 | 00:00:00 | 00:00:00 | |
| KRY50SP | 2026-09-03 12:49:22 | 52.21988 | 21.66741 | 29° | 151km/h | 28514m | -55.2m/s | -39.8°C | 0.4% | 9.6hPa | 0V | 00:00:00 | 00:00:00 | 00:00:00 | |
| KRY50SP | 2026-09-03 12:49:17 | 52.21988 | 21.66741 | 29° | 151km/h | 28514m | -55.2m/s | -39.8°C | 0.4% | 9.7hPa | 0V | 00:00:00 | 00:00:00 | 00:00:00 | |
| KRY50SP | 2026-09-03 12:49:12 | 52.21988 | 21.66741 | 29° | 151km/h | 28514m | -55.2m/s | -40.1°C | 0.4% | 9.7hPa | 0V | 00:00:00 | 00:00:00 | 00:00:00 | |
| KRY50SP | 2026-09-03 12:49:06 | 52.21988 | 21.66741 | 29° | 151km/h | 28514m | -55.2m/s | -40.3°C | 0.4% | 9.8hPa | 0V | 00:00:00 | 00:00:00 | 00:00:00 | |
| KRY50SP | 2026-09-03 12:49:00 | 52.21988 | 21.66741 | 29° | 151km/h | 28514m | -55.2m/s | -40.5°C | 0.4% | 9.9hPa | 0V | 00:00:00 | 00:00:00 | 00:00:00 | |
| KRY50SP | 2026-09-03 12:48:54 | 52.21988 | 21.66741 | 29° | 151km/h | 28514m | -55.2m/s | -40.7°C | 0.4% | 9.9hPa | 0V | 00:00:00 | 00:00:00 | 00:00:00 | |
| SP4MAZ | 2026-09-03 12:48:51 | 52.21076 | 21.65647 | 0° | 0km/h | 29222m | 0.0m/s | -40.7°C | 0.4% | 9.9hPa | 0V | 00:00:00 | 00:00:00 | 00:00:00 | |
| KRY50SP | 2026-09-03 12:48:48 | 52.21988 | 21.66741 | 29° | 151km/h | 28514m | -55.2m/s | -40.6°C | 0.5% | 10.0hPa | 0V | 00:00:00 | 00:00:00 | 00:00:00 | |
| KRY50SP | 2026-09-03 12:48:43 | 52.21988 | 21.66741 | 29° | 151km/h | 28514m | -55.2m/s | -40.6°C | 0.4% | 10.0hPa | 0V | 00:00:00 | 00:00:00 | 00:00:00 | |
| KRY50SP | 2026-09-03 12:48:38 | 52.21988 | 21.66741 | 29° | 151km/h | 28514m | -55.2m/s | -40.5°C | 0.4% | 10.1hPa | 0V | 00:00:00 | 00:00:00 | 00:00:00 | |
| KRY50SP | 2026-09-03 12:48:32 | 52.21988 | 21.66741 | 29° | 151km/h | 28514m | -55.2m/s | -40.4°C | 0.4% | 10.1hPa | 0V | 00:00:00 | 00:00:00 | 00:00:00 | |
| SP4MAZ | 2026-09-03 12:48:31 | 52.21076 | 21.65647 | 0° | 0km/h | 29222m | 0.0m/s | -40.4°C | 0.4% | 10.1hPa | 0V | 00:00:00 | 00:00:00 | 00:00:00 | |
| KRY50SP | 2026-09-03 12:48:26 | 52.21988 | 21.66741 | 29° | 151km/h | 28514m | -55.2m/s | -40.4°C | 0.4% | 10.2hPa | 0V | 00:00:00 | 00:00:00 | 00:00:00 | |
| OM5KV | 2026-09-03 12:48:21 | 52.21076 | 21.65647 | 0° | 0km/h | 29222m | 0.0m/s | -40.4°C | 0.4% | 10.2hPa | 0V | 00:00:00 | 00:00:00 | 00:00:00 | |
| KRY50SP | 2026-09-03 12:48:20 | 52.21988 | 21.66741 | 29° | 151km/h | 28514m | -55.2m/s | -40.4°C | 0.4% | 10.3hPa | 0V | 00:00:00 | 00:00:00 | 00:00:00 | |
| KRY50SP | 2026-09-03 12:48:15 | 52.21988 | 21.66741 | 29° | 151km/h | 28514m | -55.2m/s | -40.3°C | 0.4% | 10.3hPa | 0V | 00:00:00 | 00:00:00 | 00:00:00 | |
| SP4MAZ | 2026-09-03 12:48:09 | 52.21076 | 21.65647 | 0° | 0km/h | 29222m | 0.0m/s | -40.2°C | 0.4% | 10.4hPa | 0V | 00:00:00 | 00:00:00 | 00:00:00 | |
| KRY50SP | 2026-09-03 12:48:03 | 52.21988 | 21.66741 | 29° | 151km/h | 28514m | -55.2m/s | -40.1°C | 0.4% | 10.4hPa | 0V | 00:00:00 | 00:00:00 | 00:00:00 | |
| KRY50SP | 2026-09-03 12:47:57 | 52.21988 | 21.66741 | 29° | 151km/h | 28514m | -55.2m/s | -40.0°C | 0.4% | 10.5hPa | 0V | 00:00:00 | 00:00:00 | 00:00:00 | |
| OM5KV | 2026-09-03 12:47:53 | 52.21076 | 21.65647 | 0° | 0km/h | 29222m | 0.0m/s | -40.1°C | 0.4% | 10.6hPa | 0V | 00:00:00 | 00:00:00 | 00:00:00 | |
| KRY50SP | 2026-09-03 12:47:52 | 52.21988 | 21.66741 | 29° | 151km/h | 28514m | -55.2m/s | -40.1°C | 0.4% | 10.6hPa | 0V | 00:00:00 | 00:00:00 | 00:00:00 | |
| KRY50SP | 2026-09-03 12:47:46 | 52.21988 | 21.66741 | 29° | 151km/h | 28514m | -55.2m/s | -40.2°C | 0.4% | 10.6hPa | 0V | 00:00:00 | 00:00:00 | 00:00:00 | |
| OM5KV | 2026-09-03 12:47:42 | 52.21076 | 21.65647 | 0° | 0km/h | 29222m | 0.0m/s | -40.3°C | 0.5% | 10.7hPa | 0V | 00:00:00 | 00:00:00 | 00:00:00 | |
| KRY50SP | 2026-09-03 12:47:40 | 52.21988 | 21.66741 | 29° | 151km/h | 28514m | -55.2m/s | -40.3°C | 0.4% | 10.7hPa | 0V | 00:00:00 | 00:00:00 | 00:00:00 | |
| OM5KV | 2026-09-03 12:47:39 | 52.21076 | 21.65647 | 0° | 0km/h | 29222m | 0.0m/s | -40.4°C | 0.4% | 10.7hPa | 0V | 00:00:00 | 00:00:00 | 00:00:00 | |
| KRY50SP | 2026-09-03 12:47:34 | 52.21988 | 21.66741 | 29° | 151km/h | 28514m | -55.2m/s | -40.4°C | 0.5% | 10.8hPa | 0V | 00:00:00 | 00:00:00 | 00:00:00 | |
| KRY50SP | 2026-09-03 12:47:29 | 52.21988 | 21.66741 | 29° | 151km/h | 28514m | -55.2m/s | -40.4°C | 0.4% | 10.8hPa | 0V | 00:00:00 | 00:00:00 | 00:00:00 | |
| OM5KV | 2026-09-03 12:47:18 | 52.21076 | 21.65647 | 0° | 0km/h | 29222m | 0.0m/s | -40.4°C | 0.4% | 10.9hPa | 0V | 00:00:00 | 00:00:00 | 00:00:00 | |
| OM5KV | 2026-09-03 12:47:17 | 52.21076 | 21.65647 | 0° | 0km/h | 29222m | 0.0m/s | -40.4°C | 0.4% | 10.9hPa | 0V | 00:00:00 | 00:00:00 | 00:00:00 | |
| OM5KV | 2026-09-03 12:47:13 | 52.21076 | 21.65647 | 0° | 0km/h | 29222m | 0.0m/s | -40.4°C | 0.4% | 11.0hPa | 0V | 00:00:00 | 00:00:00 | 00:00:00 | |
| KRY50SP | 2026-09-03 12:47:12 | 52.21988 | 21.66741 | 29° | 151km/h | 28514m | -55.2m/s | -40.4°C | 0.4% | 11.0hPa | 0V | 00:00:00 | 00:00:00 | 00:00:00 | |
| SP4MAZ | 2026-09-03 12:47:08 | 52.21076 | 21.65647 | 0° | 0km/h | 29222m | 0.0m/s | -40.5°C | 0.4% | 11.1hPa | 0V | 00:00:00 | 00:00:00 | 00:00:00 | |
| OM5KV | 2026-09-03 12:47:05 | 52.21076 | 21.65647 | 0° | 0km/h | 29222m | 0.0m/s | -40.5°C | 0.4% | 11.1hPa | 0V | 00:00:00 | 00:00:00 | 00:00:00 | |
| OM5KV | 2026-09-03 12:47:03 | 52.21076 | 21.65647 | 0° | 0km/h | 29222m | 0.0m/s | -40.5°C | 0.4% | 11.1hPa | 0V | 00:00:00 | 00:00:00 | 00:00:00 | |
| KRY50SP | 2026-09-03 12:47:01 | 52.21988 | 21.66741 | 29° | 151km/h | 28514m | -55.2m/s | -40.5°C | 0.4% | 11.1hPa | 0V | 00:00:00 | 00:00:00 | 00:00:00 | |
| OM5KV | 2026-09-03 12:46:57 | 52.21076 | 21.65647 | 0° | 0km/h | 29222m | 0.0m/s | -40.8°C | 0.5% | 11.2hPa | 0V | 00:00:00 | 00:00:00 | 00:00:00 | |
| KRY50SP | 2026-09-03 12:46:56 | 52.21988 | 21.66741 | 29° | 151km/h | 28514m | -55.2m/s | -40.8°C | 0.4% | 11.2hPa | 0V | 00:00:00 | 00:00:00 | 00:00:00 | |
| OM5KV | 2026-09-03 12:46:52 | 52.21076 | 21.65647 | 0° | 0km/h | 29222m | 0.0m/s | -40.9°C | 0.4% | 11.2hPa | 0V | 00:00:00 | 00:00:00 | 00:00:00 | |
| OM5KV | 2026-09-03 12:46:51 | 52.21076 | 21.65647 | 0° | 0km/h | 29222m | 0.0m/s | -41.0°C | 0.4% | 11.3hPa | 0V | 00:00:00 | 00:00:00 | 00:00:00 | |
| KRY50SP | 2026-09-03 12:46:50 | 52.21988 | 21.66741 | 29° | 151km/h | 28514m | -55.2m/s | -41.0°C | 0.5% | 11.3hPa | 0V | 00:00:00 | 00:00:00 | 00:00:00 | |
| OM5KV | 2026-09-03 12:46:47 | 52.21076 | 21.65647 | 0° | 0km/h | 29222m | 0.0m/s | -41.0°C | 0.5% | 11.3hPa | 0V | 00:00:00 | 00:00:00 | 00:00:00 | |
| OM5KV | 2026-09-03 12:46:46 | 52.21076 | 21.65647 | 0° | 0km/h | 29222m | 0.0m/s | -41.1°C | 0.5% | 11.3hPa | 0V | 00:00:00 | 00:00:00 | 00:00:00 | |
| KRY50SP | 2026-09-03 12:46:44 | 52.21988 | 21.66741 | 29° | 151km/h | 28514m | -55.2m/s | -41.1°C | 0.4% | 11.3hPa | 0V | 00:00:00 | 00:00:00 | 00:00:00 | |
| OM5KV | 2026-09-03 12:46:43 | 52.21076 | 21.65647 | 0° | 0km/h | 29222m | 0.0m/s | -41.1°C | 0.4% | 11.4hPa | 0V | 00:00:00 | 00:00:00 | 00:00:00 | |
| OM5KV | 2026-09-03 12:46:41 | 52.21076 | 21.65647 | 0° | 0km/h | 29222m | 0.0m/s | -41.1°C | 0.5% | 11.4hPa | 0V | 00:00:00 | 00:00:00 | 00:00:00 | |
| OM5KV | 2026-09-03 12:46:40 | 52.21076 | 21.65647 | 0° | 0km/h | 29222m | 0.0m/s | -41.1°C | 0.4% | 11.4hPa | 0V | 00:00:00 | 00:00:00 | 00:00:00 | |
| KRY50SP | 2026-09-03 12:46:38 | 52.21988 | 21.66741 | 29° | 151km/h | 28514m | -55.2m/s | -41.2°C | 0.5% | 11.4hPa | 0V | 00:00:00 | 00:00:00 | 00:00:00 | |
| OM5KV | 2026-09-03 12:46:37 | 52.21076 | 21.65647 | 0° | 0km/h | 29222m | 0.0m/s | -41.3°C | 0.5% | 11.4hPa | 0V | 00:00:00 | 00:00:00 | 00:00:00 | |
| SP4MAZ | 2026-09-03 12:46:35 | 52.21076 | 21.65647 | 0° | 0km/h | 29222m | 0.0m/s | -41.3°C | 0.5% | 11.4hPa | 0V | 00:00:00 | 00:00:00 | 00:00:00 | |
| KRY50SP | 2026-09-03 12:46:32 | 52.21988 | 21.66741 | 29° | 151km/h | 28514m | -55.2m/s | -41.3°C | 0.4% | 11.5hPa | 0V | 00:00:00 | 00:00:00 | 00:00:00 | |
| OM5KV | 2026-09-03 12:46:29 | 52.21076 | 21.65647 | 0° | 0km/h | 29222m | 0.0m/s | -41.4°C | 0.4% | 11.5hPa | 0V | 00:00:00 | 00:00:00 | 00:00:00 | |
| OM5KV | 2026-09-03 12:46:28 | 52.21076 | 21.65647 | 0° | 0km/h | 29222m | 0.0m/s | -41.4°C | 0.5% | 11.5hPa | 0V | 00:00:00 | 00:00:00 | 00:00:00 | |
| KRY50SP | 2026-09-03 12:46:26 | 52.21988 | 21.66741 | 29° | 151km/h | 28514m | -55.2m/s | -41.5°C | 0.5% | 11.6hPa | 0V | 00:00:00 | 00:00:00 | 00:00:00 | |
| KRY50SP | 2026-09-03 12:46:21 | 52.21988 | 21.66741 | 29° | 151km/h | 28514m | -55.2m/s | -41.6°C | 0.5% | 11.6hPa | 0V | 00:00:00 | 00:00:00 | 00:00:00 | |
| OM5KV | 2026-09-03 12:46:14 | 52.21076 | 21.65647 | 0° | 0km/h | 29222m | 0.0m/s | -41.6°C | 0.5% | 11.7hPa | 0V | 00:00:00 | 00:00:00 | 00:00:00 | |
| OM5KV | 2026-09-03 12:46:13 | 52.21076 | 21.65647 | 0° | 0km/h | 29222m | 0.0m/s | -41.6°C | 0.5% | 11.7hPa | 0V | 00:00:00 | 00:00:00 | 00:00:00 | |
| SP4MAZ | 2026-09-03 12:46:12 | 52.21076 | 21.65647 | 0° | 0km/h | 29222m | 0.0m/s | -41.6°C | 0.5% | 11.7hPa | 0V | 00:00:00 | 00:00:00 | 00:00:00 | |
| KRY50SP | 2026-09-03 12:46:10 | 52.21988 | 21.66741 | 29° | 151km/h | 28514m | -55.2m/s | -41.6°C | 0.5% | 11.7hPa | 0V | 00:00:00 | 00:00:00 | 00:00:00 | |
| KRY50SP | 2026-09-03 12:46:04 | 52.21988 | 21.66741 | 29° | 151km/h | 28514m | -55.2m/s | -41.7°C | 0.5% | 11.8hPa | 0V | 00:00:00 | 00:00:00 | 00:00:00 | |
| OM5KV | 2026-09-03 12:46:02 | 52.21076 | 21.65647 | 0° | 0km/h | 29222m | 0.0m/s | -41.7°C | 0.5% | 11.9hPa | 0V | 00:00:00 | 00:00:00 | 00:00:00 | |
| OM5KV | 2026-09-03 12:46:01 | 52.21076 | 21.65647 | 0° | 0km/h | 29222m | 0.0m/s | -41.8°C | 0.4% | 11.9hPa | 0V | 00:00:00 | 00:00:00 | 00:00:00 | |
| KRY50SP | 2026-09-03 12:45:58 | 52.21988 | 21.66741 | 29° | 151km/h | 28514m | -55.2m/s | -41.9°C | 0.5% | 11.9hPa | 0V | 00:00:00 | 00:00:00 | 00:00:00 | |
| OM5KV | 2026-09-03 12:45:57 | 52.21076 | 21.65647 | 0° | 0km/h | 29222m | 0.0m/s | -41.9°C | 0.5% | 11.9hPa | 0V | 00:00:00 | 00:00:00 | 00:00:00 | |
| OM5KV | 2026-09-03 12:45:56 | 52.21076 | 21.65647 | 0° | 0km/h | 29222m | 0.0m/s | -41.9°C | 0.5% | 11.9hPa | 0V | 00:00:00 | 00:00:00 | 00:00:00 | |
| KRY50SP | 2026-09-03 12:45:53 | 52.21988 | 21.66741 | 29° | 151km/h | 28514m | -55.2m/s | -42.0°C | 0.5% | 12.0hPa | 0V | 00:00:00 | 00:00:00 | 00:00:00 | |
| OM5KV | 2026-09-03 12:45:52 | 52.21076 | 21.65647 | 0° | 0km/h | 29222m | 0.0m/s | -42.1°C | 0.5% | 12.0hPa | 0V | 00:00:00 | 00:00:00 | 00:00:00 | |
| OM5KV | 2026-09-03 12:45:49 | 52.21076 | 21.65647 | 0° | 0km/h | 29222m | 0.0m/s | -42.3°C | 0.5% | 12.0hPa | 0V | 00:00:00 | 00:00:00 | 00:00:00 | |
| KRY50SP | 2026-09-03 12:45:47 | 52.21988 | 21.66741 | 29° | 151km/h | 28514m | -55.2m/s | -42.4°C | 0.5% | 12.0hPa | 0V | 00:00:00 | 00:00:00 | 00:00:00 | |
| OM5KV | 2026-09-03 12:45:46 | 52.21076 | 21.65647 | 0° | 0km/h | 29222m | 0.0m/s | -42.4°C | 0.5% | 12.1hPa | 0V | 00:00:00 | 00:00:00 | 00:00:00 | |
| OM5KV | 2026-09-03 12:45:44 | 52.21076 | 21.65647 | 0° | 0km/h | 29222m | 0.0m/s | -42.5°C | 0.5% | 12.1hPa | 0V | 00:00:00 | 00:00:00 | 00:00:00 | |
| OM5KV | 2026-09-03 12:45:42 | 52.21076 | 21.65647 | 0° | 0km/h | 29222m | 0.0m/s | -42.6°C | 0.5% | 12.1hPa | 0V | 00:00:00 | 00:00:00 | 00:00:00 | |
| OM5KV | 2026-09-03 12:45:39 | 52.21076 | 21.65647 | 0° | 0km/h | 29222m | 0.0m/s | -42.8°C | 0.5% | 12.1hPa | 0V | 00:00:00 | 00:00:00 | 00:00:00 | |
| KRY50SP | 2026-09-03 12:45:36 | 52.21988 | 21.66741 | 29° | 151km/h | 28514m | -55.2m/s | -42.9°C | 0.5% | 12.2hPa | 0V | 00:00:00 | 00:00:00 | 00:00:00 | |
| OM5KV | 2026-09-03 12:45:35 | 52.21076 | 21.65647 | 0° | 0km/h | 29222m | 0.0m/s | -43.0°C | 0.5% | 12.2hPa | 0V | 00:00:00 | 00:00:00 | 00:00:00 | |
| OM5KV | 2026-09-03 12:45:33 | 52.21076 | 21.65647 | 0° | 0km/h | 29222m | 0.0m/s | -43.0°C | 0.5% | 12.2hPa | 0V | 00:00:00 | 00:00:00 | 00:00:00 | |
| OM5KV | 2026-09-03 12:45:30 | 52.21076 | 21.65647 | 0° | 0km/h | 29222m | 0.0m/s | -43.1°C | 0.5% | 12.3hPa | 0V | 00:00:00 | 00:00:00 | 00:00:00 | |
| OM5KV | 2026-09-03 12:45:25 | 52.21076 | 21.65647 | 0° | 0km/h | 29222m | 0.0m/s | -43.2°C | 0.5% | 12.3hPa | 0V | 00:00:00 | 00:00:00 | 00:00:00 | |
| KRY50SP | 2026-09-03 12:45:24 | 52.21988 | 21.66741 | 29° | 151km/h | 28514m | -55.2m/s | -43.2°C | 0.5% | 12.3hPa | 0V | 00:00:00 | 00:00:00 | 00:00:00 | |
| SP4MAZ | 2026-09-03 12:45:22 | 52.21076 | 21.65647 | 0° | 0km/h | 29222m | 0.0m/s | -43.2°C | 0.5% | 12.3hPa | 0V | 00:00:00 | 00:00:00 | 00:00:00 | |
| KRY50SP | 2026-09-03 12:45:19 | 52.21988 | 21.66741 | 29° | 151km/h | 28514m | -55.2m/s | -43.3°C | 0.5% | 12.4hPa | 0V | 00:00:00 | 00:00:00 | 00:00:00 | |
| OM5KV | 2026-09-03 12:45:18 | 52.21076 | 21.65647 | 0° | 0km/h | 29222m | 0.0m/s | -43.4°C | 0.5% | 12.4hPa | 0V | 00:00:00 | 00:00:00 | 00:00:00 | |
| OM5KV | 2026-09-03 12:45:13 | 52.21076 | 21.65647 | 0° | 0km/h | 29222m | 0.0m/s | -43.5°C | 0.5% | 12.5hPa | 0V | 00:00:00 | 00:00:00 | 00:00:00 | |
| OM5KV | 2026-09-03 12:45:12 | 52.21076 | 21.65647 | 0° | 0km/h | 29222m | 0.0m/s | -43.5°C | 0.5% | 12.5hPa | 0V | 00:00:00 | 00:00:00 | 00:00:00 | |
| KRY50SP | 2026-09-03 12:45:09 | 52.21988 | 21.66741 | 29° | 151km/h | 28514m | -55.2m/s | -43.5°C | 0.5% | 12.5hPa | 0V | 00:00:00 | 00:00:00 | 00:00:00 | |
| OM5KV | 2026-09-03 12:45:07 | 52.21076 | 21.65647 | 0° | 0km/h | 29222m | 0.0m/s | -43.5°C | 0.5% | 12.5hPa | 0V | 00:00:00 | 00:00:00 | 00:00:00 | |
| SP4MAZ | 2026-09-03 12:45:01 | 52.21076 | 21.65647 | 0° | 0km/h | 29222m | 0.0m/s | -43.5°C | 0.5% | 12.6hPa | 0V | 00:00:00 | 00:00:00 | 00:00:00 | |
| OM5KV | 2026-09-03 12:45:00 | 52.21076 | 21.65647 | 0° | 0km/h | 29222m | 0.0m/s | -43.5°C | 0.5% | 12.6hPa | 0V | 00:00:00 | 00:00:00 | 00:00:00 | |
| OM5KV | 2026-09-03 12:44:57 | 52.21076 | 21.65647 | 0° | 0km/h | 29222m | 0.0m/s | -43.4°C | 0.5% | 12.7hPa | 0V | 00:00:00 | 00:00:00 | 00:00:00 | |
| KRY50SP | 2026-09-03 12:44:52 | 52.21988 | 21.66741 | 29° | 151km/h | 28514m | -55.2m/s | -43.5°C | 0.5% | 12.7hPa | 0V | 00:00:00 | 00:00:00 | 00:00:00 | |
| OM5KV | 2026-09-03 12:44:49 | 52.21076 | 21.65647 | 0° | 0km/h | 29222m | 0.0m/s | -43.4°C | 0.5% | 12.8hPa | 0V | 00:00:00 | 00:00:00 | 00:00:00 | |
| KRY50SP | 2026-09-03 12:44:46 | 52.21988 | 21.66741 | 29° | 151km/h | 28514m | -55.2m/s | -43.5°C | 0.5% | 12.8hPa | 0V | 00:00:00 | 00:00:00 | 00:00:00 | |
| OM5KV | 2026-09-03 12:44:40 | 52.21076 | 21.65647 | 0° | 0km/h | 29222m | 0.0m/s | -43.4°C | 0.5% | 12.9hPa | 0V | 00:00:00 | 00:00:00 | 00:00:00 | |
| OM5KV | 2026-09-03 12:44:32 | 52.21076 | 21.65647 | 0° | 0km/h | 29222m | 0.0m/s | -43.5°C | 0.5% | 13.0hPa | 0V | 00:00:00 | 00:00:00 | 00:00:00 | |
| OM5KV | 2026-09-03 12:44:29 | 52.21076 | 21.65647 | 0° | 0km/h | 29222m | 0.0m/s | -43.5°C | 0.5% | 13.0hPa | 0V | 00:00:00 | 00:00:00 | 00:00:00 | |
| OM5KV | 2026-09-03 12:44:25 | 52.21076 | 21.65647 | 0° | 0km/h | 29222m | 0.0m/s | -43.7°C | 0.5% | 13.1hPa | 0V | 00:00:00 | 00:00:00 | 00:00:00 | |
| KRY50SP | 2026-09-03 12:44:23 | 52.21988 | 21.66741 | 29° | 151km/h | 28514m | -55.2m/s | -43.8°C | 0.5% | 13.1hPa | 0V | 00:00:00 | 00:00:00 | 00:00:00 | |
| OM5KV | 2026-09-03 12:44:20 | 52.21076 | 21.65647 | 0° | 0km/h | 29222m | 0.0m/s | -43.9°C | 0.5% | 13.1hPa | 0V | 00:00:00 | 00:00:00 | 00:00:00 | |
| OM5KV | 2026-09-03 12:44:17 | 52.21076 | 21.65647 | 0° | 0km/h | 29222m | 0.0m/s | -43.9°C | 0.5% | 13.2hPa | 0V | 00:00:00 | 00:00:00 | 00:00:00 | |
| SP4MAZ | 2026-09-03 12:44:15 | 52.21076 | 21.65647 | 0° | 0km/h | 29222m | 0.0m/s | -44.0°C | 0.5% | 13.2hPa | 0V | 00:00:00 | 00:00:00 | 00:00:00 | |
| OM5KV | 2026-09-03 12:44:14 | 52.21076 | 21.65647 | 0° | 0km/h | 29222m | 0.0m/s | -44.0°C | 0.5% | 13.2hPa | 0V | 00:00:00 | 00:00:00 | 00:00:00 | |
| OM5KV | 2026-09-03 12:44:12 | 52.21076 | 21.65647 | 0° | 0km/h | 29222m | 0.0m/s | -43.9°C | 0.5% | 13.3hPa | 0V | 00:00:00 | 00:00:00 | 00:00:00 | |
| OM5KV | 2026-09-03 12:44:11 | 52.21076 | 21.65647 | 0° | 0km/h | 29222m | 0.0m/s | -43.9°C | 0.5% | 13.3hPa | 0V | 00:00:00 | 00:00:00 | 00:00:00 | |
| OM5KV | 2026-09-03 12:44:05 | 52.21076 | 21.65647 | 0° | 0km/h | 29222m | 0.0m/s | -43.8°C | 0.5% | 13.4hPa | 0V | 00:00:00 | 00:00:00 | 00:00:00 | |
| OM5KV | 2026-09-03 12:44:01 | 52.21076 | 21.65647 | 0° | 0km/h | 29222m | 0.0m/s | -43.8°C | 0.5% | 13.4hPa | 0V | 00:00:00 | 00:00:00 | 00:00:00 | |
| KRY50SP | 2026-09-03 12:44:00 | 52.21988 | 21.66741 | 29° | 151km/h | 28514m | -55.2m/s | -43.8°C | 0.5% | 13.4hPa | 0V | 00:00:00 | 00:00:00 | 00:00:00 | |
| OM5KV | 2026-09-03 12:43:54 | 52.21076 | 21.65647 | 0° | 0km/h | 29222m | 0.0m/s | -43.7°C | 0.5% | 13.5hPa | 0V | 00:00:00 | 00:00:00 | 00:00:00 | |
| OM5KV | 2026-09-03 12:43:48 | 52.21076 | 21.65647 | 0° | 0km/h | 29222m | 0.0m/s | -43.8°C | 0.5% | 13.6hPa | 0V | 00:00:00 | 00:00:00 | 00:00:00 | |
| OM5KV | 2026-09-03 12:43:44 | 52.21076 | 21.65647 | 0° | 0km/h | 29222m | 0.0m/s | -43.7°C | 0% | 0hPa | 0V | 00:00:00 | 00:00:00 | 00:00:00 | |
| KRY50SP | 2026-09-03 12:43:43 | 52.21988 | 21.66741 | 29° | 151km/h | 28514m | -55.2m/s | -43.7°C | 0.5% | 13.6hPa | 0V | 00:00:00 | 00:00:00 | 00:00:00 | |
| SP4MAZ | 2026-09-03 12:43:40 | 52.21076 | 21.65647 | 0° | 0km/h | 29222m | 0.0m/s | -43.6°C | 0.5% | 13.7hPa | 0V | 00:00:00 | 00:00:00 | 00:00:00 | |
| OM5KV | 2026-09-03 12:43:38 | 52.21076 | 21.65647 | 0° | 0km/h | 29222m | 0.0m/s | -43.6°C | 0.5% | 13.7hPa | 0V | 00:00:00 | 00:00:00 | 00:00:00 | |
| KRY50SP | 2026-09-03 12:43:37 | 52.21988 | 21.66741 | 29° | 151km/h | 28514m | -55.2m/s | -43.6°C | 0.5% | 13.7hPa | 0V | 00:00:00 | 00:00:00 | 00:00:00 | |
| OM5KV | 2026-09-03 12:43:32 | 52.21076 | 21.65647 | 0° | 0km/h | 29222m | 0.0m/s | -43.8°C | 0% | 0hPa | 0V | 00:00:00 | 00:00:00 | 00:00:00 | |
| KRY50SP | 2026-09-03 12:43:31 | 52.21988 | 21.66741 | 29° | 151km/h | 28514m | -55.2m/s | -43.9°C | 0.5% | 13.8hPa | 0V | 00:00:00 | 00:00:00 | 00:00:00 | |
| KRY50SP | 2026-09-03 12:43:26 | 52.21988 | 21.66741 | 29° | 151km/h | 28514m | -55.2m/s | -44.2°C | 0.6% | 13.9hPa | 0V | 00:00:00 | 00:00:00 | 00:00:00 | |
| OM5KV | 2026-09-03 12:43:24 | 52.21076 | 21.65647 | 0° | 0km/h | 29222m | 0.0m/s | -44.2°C | 0% | 0hPa | 0V | 00:00:00 | 00:00:00 | 00:00:00 | |
| OM5KV | 2026-09-03 12:43:16 | 52.21076 | 21.65647 | 0° | 0km/h | 29222m | 0.0m/s | -44.2°C | 0% | 0hPa | 0V | 00:00:00 | 00:00:00 | 00:00:00 | |
| OM5KV | 2026-09-03 12:43:15 | 52.21076 | 21.65647 | 0° | 0km/h | 29222m | 0.0m/s | -44.2°C | 0.5% | 14.0hPa | 0V | 00:00:00 | 00:00:00 | 00:00:00 | |
| KRY50SP | 2026-09-03 12:43:10 | 52.21988 | 21.66741 | 29° | 151km/h | 28514m | -55.2m/s | -44.3°C | 0.6% | 14.1hPa | 0V | 00:00:00 | 00:00:00 | 00:00:00 | |
| OM5KV | 2026-09-03 12:43:04 | 52.18884 | 21.64840 | 0° | 0km/h | 28148m | 0.0m/s | 0°C | 0% | 0hPa | 0V | 00:00:00 | 00:00:00 | 00:00:00 | |
| SP4MAZ | 2026-09-03 12:43:02 | 52.20960 | 21.64989 | 98° | 24km/h | 28495m | 10.7m/s | -44.0°C | 0.5% | 14.2hPa | 0V | 00:00:00 | 00:00:00 | 00:00:00 | |
| KRY50SP | 2026-09-03 12:42:59 | 52.21988 | 21.66741 | 29° | 151km/h | 28514m | -55.2m/s | -44.0°C | 0.6% | 14.3hPa | 0V | 00:00:00 | 00:00:00 | 00:00:00 | |
| OM5KV | 2026-09-03 12:42:56 | 52.21076 | 21.65647 | 0° | 0km/h | 29222m | 0.0m/s | 0°C | 0% | 0hPa | 0V | 00:00:00 | 00:00:00 | 00:00:00 | |
| KRY50SP | 2026-09-03 12:42:53 | 52.21988 | 21.66741 | 29° | 151km/h | 28514m | -55.2m/s | -43.9°C | 0.5% | 14.4hPa | 0V | 00:00:00 | 00:00:00 | 00:00:00 | |
| OM5KV | 2026-09-03 12:42:52 | 52.18884 | 21.64840 | 0° | 0km/h | 28148m | 0.0m/s | 0°C | 0% | 0hPa | 0V | 00:00:00 | 00:00:00 | 00:00:00 | |
| KRY50SP | 2026-09-03 12:42:48 | 52.21988 | 21.66741 | 29° | 151km/h | 28514m | -55.2m/s | -44.1°C | 0.5% | 14.5hPa | 0V | 00:00:00 | 00:00:00 | 00:00:00 | |
| OM5KV | 2026-09-03 12:42:46 | 52.18884 | 21.64840 | 0° | 0km/h | 28148m | 0.0m/s | 0°C | 0% | 0hPa | 0V | 00:00:00 | 00:00:00 | 00:00:00 | |
| OM5KV | 2026-09-03 12:42:45 | 52.18884 | 21.64840 | 242° | 374km/h | 28148m | 352.2m/s | 0°C | 0% | 0hPa | 0V | 00:00:00 | 00:00:00 | 00:00:00 | |
| KRY50SP | 2026-09-03 12:42:42 | 52.21988 | 21.66741 | 29° | 151km/h | 28514m | -55.2m/s | -44.5°C | 0.6% | 14.5hPa | 0V | 00:00:00 | 00:00:00 | 00:00:00 | |
| OM5KV | 2026-09-03 12:42:40 | 52.18884 | 21.64840 | 242° | 374km/h | 28148m | 352.2m/s | 0°C | 0% | 0hPa | 0V | 00:00:00 | 00:00:00 | 00:00:00 | |
| OM5KV | 2026-09-03 12:42:39 | 52.18884 | 21.64840 | 242° | 374km/h | 28148m | 352.2m/s | 0°C | 0% | 0hPa | 0V | 00:00:00 | 00:00:00 | 00:00:00 | |
| SP4MAZ | 2026-09-03 12:42:36 | 52.19290 | 21.64974 | 242° | 374km/h | 28313m | 352.2m/s | -44.7°C | 0.6% | 14.6hPa | 0V | 00:00:00 | 00:00:00 | 00:00:00 | |
| OM5KV | 2026-09-03 12:42:34 | 52.20539 | 21.65436 | 190° | 1146km/h | 28864m | -89.8m/s | 0°C | 0% | 0hPa | 0V | 00:00:00 | 00:00:00 | 00:00:00 | |
| KRY50SP | 2026-09-03 12:42:30 | 52.21988 | 21.66741 | 29° | 151km/h | 28514m | -55.2m/s | -45.0°C | 0.6% | 14.7hPa | 0V | 00:00:00 | 00:00:00 | 00:00:00 | |
| OM5KV | 2026-09-03 12:42:28 | 52.21988 | 21.66741 | 29° | 151km/h | 28514m | -55.2m/s | 0°C | 0% | 0hPa | 0V | 00:00:00 | 00:00:00 | 00:00:00 | |
| KRY50SP | 2026-09-03 12:42:24 | 52.21162 | 21.66273 | 143° | 146km/h | 30555m | 144.1m/s | -45.0°C | 0.6% | 14.8hPa | 0V | 00:00:00 | 00:00:00 | 00:00:00 | |
| OM5KV | 2026-09-03 12:42:23 | 52.21171 | 21.65718 | 271° | 307km/h | 30872m | 72.6m/s | 0°C | 0% | 0hPa | 0V | 00:00:00 | 00:00:00 | 00:00:00 | |
| OM5KV | 2026-09-03 12:42:22 | 52.21172 | 21.65844 | 271° | 307km/h | 30799m | 72.6m/s | 0°C | 0% | 0hPa | 0V | 00:00:00 | 00:00:00 | 00:00:00 | |
| KRY50SP | 2026-09-03 12:42:19 | 52.21162 | 21.66273 | 143° | 146km/h | 30555m | 144.1m/s | -45.1°C | 0.6% | 14.9hPa | 0V | 00:00:00 | 00:00:00 | 00:00:00 | |
| OM5KV | 2026-09-03 12:42:13 | 52.21304 | 21.66008 | 204° | 276km/h | 29920m | 270.2m/s | 0°C | 0% | 0hPa | 0V | 00:00:00 | 00:00:00 | 00:00:00 | |
| OM5KV | 2026-09-03 12:42:11 | 52.21844 | 21.66368 | 14° | 409km/h | 27933m | -119.0m/s | 0°C | 0% | 0hPa | 0V | 00:00:00 | 00:00:00 | 00:00:00 | |
| KRY50SP | 2026-09-03 12:42:08 | 52.21295 | 21.66292 | 23° | 210km/h | 28573m | -94.0m/s | -45.2°C | 0.6% | 15.1hPa | 0V | 00:00:00 | 00:00:00 | 00:00:00 | |
| SP3WXH-11 | 2026-09-03 12:42:05 | 52.21076 | 21.65647 | 10° | 29km/h | 29222m | 25.5m/s | -45.3°C | 0.6% | 15.2hPa | 0V | 00:00:00 | 00:00:00 | 00:00:00 | |
| KRY50SP | 2026-09-03 12:42:02 | 52.21053 | 21.65645 | 58° | 40km/h | 29154m | 16.6m/s | -45.3°C | 0.6% | 15.2hPa | 0V | 00:00:00 | 00:00:00 | 00:00:00 | |
| KRY50SP | 2026-09-03 12:41:56 | 52.21029 | 21.65524 | 96° | 49km/h | 29002m | 19.1m/s | -45.7°C | 0.6% | 15.3hPa | 0V | 00:00:00 | 00:00:00 | 00:00:00 | |
| OM5KV | 2026-09-03 12:41:52 | 52.20996 | 21.65407 | 80° | 40km/h | 28885m | 15.9m/s | 0°C | 0% | 0hPa | 0V | 00:00:00 | 00:00:00 | 00:00:00 | |
| KRY50SP | 2026-09-03 12:41:51 | 52.20997 | 21.65396 | 95° | 33km/h | 28872m | 14.3m/s | -45.9°C | 0.6% | 15.4hPa | 0V | 00:00:00 | 00:00:00 | 00:00:00 | |
| KRY50SP | 2026-09-03 12:41:46 | 52.21001 | 21.65355 | 80° | 47km/h | 28794m | 15.4m/s | -46.0°C | 0.6% | 15.5hPa | 0V | 00:00:00 | 00:00:00 | 00:00:00 | |
| KRY50SP | 2026-09-03 12:41:40 | 52.20987 | 21.65246 | 59° | 51km/h | 28705m | 11.2m/s | -46.2°C | 0.6% | 15.5hPa | 0V | 00:00:00 | 00:00:00 | 00:00:00 | |
| SP4MAZ | 2026-09-03 12:41:39 | 52.20981 | 21.65228 | 78° | 42km/h | 28693m | 14.7m/s | -46.2°C | 0.7% | 15.6hPa | 0V | 00:00:00 | 00:00:00 | 00:00:00 | |
| SP3WXH-11 | 2026-09-03 12:41:34 | 52.20967 | 21.65132 | 86° | 35km/h | 28619m | 12.6m/s | -46.1°C | 0.6% | 15.7hPa | 0V | 00:00:00 | 00:00:00 | 00:00:00 | |
| KRY50SP | 2026-09-03 12:41:29 | 52.20962 | 21.65073 | 104° | 38km/h | 28566m | 9.7m/s | -46.0°C | 0.6% | 15.7hPa | 0V | 00:00:00 | 00:00:00 | 00:00:00 | |
| SP3BTT-10 | 2026-09-03 12:41:28 | 52.20961 | 21.65042 | 91° | 24km/h | 28550m | 8.1m/s | 0°C | 0% | 0hPa | 0V | 00:00:00 | 00:00:00 | 00:00:00 | |
| OM5KV | 2026-09-03 12:41:27 | 52.20960 | 21.65042 | 92° | 33km/h | 28550m | 8.1m/s | 0°C | 0% | 0hPa | 0V | 00:00:00 | 00:00:00 | 00:00:00 | |
| KRY50SP | 2026-09-03 12:41:23 | 52.20957 | 21.64998 | 127° | 27km/h | 28504m | 7.8m/s | -45.8°C | 0.6% | 15.8hPa | 0V | 00:00:00 | 00:00:00 | 00:00:00 | |
| KRY50SP | 2026-09-03 12:41:17 | 52.20959 | 21.64943 | 89° | 27km/h | 28428m | 5.1m/s | -45.5°C | 0.6% | 16.0hPa | 0V | 00:00:00 | 00:00:00 | 00:00:00 | |
| KRY50SP | 2026-09-03 12:41:12 | 52.20956 | 21.64897 | 88° | 22km/h | 28389m | 7.9m/s | -45.4°C | 0.6% | 16.0hPa | 0V | 00:00:00 | 00:00:00 | 00:00:00 | |
| OM5KV | 2026-09-03 12:41:08 | 52.20954 | 21.64857 | 72° | 37km/h | 28348m | 4.0m/s | 0°C | 0% | 0hPa | 0V | 00:00:00 | 00:00:00 | 00:00:00 | |
| KRY50SP | 2026-09-03 12:41:06 | 52.20949 | 21.64842 | 72° | 33km/h | 28338m | 6.6m/s | -45.2°C | 0.6% | 16.1hPa | 0V | 00:00:00 | 00:00:00 | 00:00:00 | |
| SP3WXH-11 | 2026-09-03 12:41:03 | 52.20935 | 21.64814 | 63° | 11km/h | 28314m | 6.2m/s | -45.1°C | 0.6% | 16.2hPa | 0V | 00:00:00 | 00:00:00 | 00:00:00 | |
| KRY50SP | 2026-09-03 12:41:00 | 52.20931 | 21.64806 | 71° | 18km/h | 28303m | 1.7m/s | -45.0°C | 0.6% | 16.2hPa | 0V | 00:00:00 | 00:00:00 | 00:00:00 | |
| KRY50SP | 2026-09-03 12:40:55 | 52.20949 | 21.64782 | 55° | 24km/h | 28302m | 6.5m/s | -45.1°C | 0.6% | 16.3hPa | 0V | 00:00:00 | 00:00:00 | 00:00:00 | |
| KRY50SP | 2026-09-03 12:40:49 | 52.20935 | 21.64738 | 52° | 24km/h | 28269m | 6.1m/s | -45.2°C | 0.6% | 16.4hPa | 0V | 00:00:00 | 00:00:00 | 00:00:00 | |
| KRY50SP | 2026-09-03 12:40:44 | 52.20922 | 21.64697 | 42° | 18km/h | 28232m | 8.6m/s | -45.2°C | 0.6% | 16.5hPa | 0V | 00:00:00 | 00:00:00 | 00:00:00 | |
| SP4MAZ | 2026-09-03 12:40:42 | 52.20915 | 21.64689 | 25° | 22km/h | 28221m | 7.4m/s | -45.3°C | 0.6% | 16.5hPa | 0V | 00:00:00 | 00:00:00 | 00:00:00 | |
| KRY50SP | 2026-09-03 12:40:38 | 52.20912 | 21.64677 | 23° | 22km/h | 28196m | 8.9m/s | -45.5°C | 0.6% | 16.6hPa | 0V | 00:00:00 | 00:00:00 | 00:00:00 | |
| SP3WXH-11 | 2026-09-03 12:40:32 | 52.20882 | 21.64643 | 9° | 11km/h | 28132m | 5.8m/s | -46.1°C | 0.6% | 16.7hPa | 0V | 00:00:00 | 00:00:00 | 00:00:00 | |
| SP3BTT-10 | 2026-09-03 12:40:28 | 52.20885 | 21.64642 | 204° | 20km/h | 28086m | 6.0m/s | 0°C | 0% | 0hPa | 0V | 00:00:00 | 00:00:00 | 08:30:00 | |
| KRY50SP | 2026-09-03 12:40:27 | 52.20885 | 21.64642 | 204° | 31km/h | 28086m | 6.0m/s | -46.3°C | 0.6% | 16.8hPa | 0V | 00:00:00 | 00:00:00 | 00:00:00 | |
| KRY50SP | 2026-09-03 12:40:21 | 52.20877 | 21.64633 | 103° | 13km/h | 28066m | 7.6m/s | -46.3°C | 0.6% | 16.9hPa | 0V | 00:00:00 | 00:00:00 | 00:00:00 | |
| SP4MAZ | 2026-09-03 12:40:19 | 52.20876 | 21.64621 | 88° | 16km/h | 28053m | 4.3m/s | -46.3°C | 0.6% | 16.9hPa | 0V | 00:00:00 | 00:00:00 | 00:00:00 | |
| KRY50SP | 2026-09-03 12:40:15 | 52.20865 | 21.64597 | 67° | 24km/h | 28027m | 6.0m/s | -46.5°C | 0.7% | 17.0hPa | 0V | 00:00:00 | 00:00:00 | 00:00:00 | |
| KRY50SP | 2026-09-03 12:40:10 | 52.20864 | 21.64567 | 66° | 7km/h | 27996m | 5.7m/s | -46.7°C | 0.6% | 17.1hPa | 0V | 00:00:00 | 00:00:00 | 00:00:00 | |
| KRY50SP | 2026-09-03 12:40:05 | 52.20858 | 21.64536 | 102° | 18km/h | 27967m | 7.5m/s | -46.8°C | 0.6% | 17.2hPa | 0V | 00:00:00 | 00:00:00 | 00:00:00 | |
| SP3WXH-11 | 2026-09-03 12:40:01 | 52.20868 | 21.64522 | 89° | 13km/h | 27925m | 6.8m/s | -46.8°C | 0.6% | 17.3hPa | 0V | 00:00:00 | 00:00:00 | 00:00:00 | |
| KRY50SP | 2026-09-03 12:39:59 | 52.20870 | 21.64518 | 143° | 15km/h | 27920m | 4.6m/s | -46.8°C | 0.7% | 17.3hPa | 0V | 00:00:00 | 00:00:00 | 00:00:00 | |
| KRY50SP | 2026-09-03 12:39:53 | 52.20875 | 21.64492 | 95° | 22km/h | 27880m | 5.0m/s | -46.8°C | 0.7% | 17.4hPa | 0V | 00:00:00 | 00:00:00 | 00:00:00 | |
| SP4MAZ | 2026-09-03 12:39:47 | 52.20872 | 21.64439 | 82° | 16km/h | 27840m | 5.8m/s | -46.8°C | 0.6% | 17.5hPa | 0V | 00:00:00 | 00:00:00 | 00:00:00 | |
| SP3BTT-10 | 2026-09-03 12:39:43 | 52.20867 | 21.64421 | 62° | 18km/h | 27805m | 6.7m/s | 0°C | 0% | 0hPa | 0V | 00:00:00 | 00:00:00 | 00:00:00 | |
| KRY50SP | 2026-09-03 12:39:42 | 52.20867 | 21.64421 | 63° | 15km/h | 27805m | 6.8m/s | -46.7°C | 0.6% | 17.6hPa | 0V | 00:00:00 | 00:00:00 | 00:00:00 | |
| KRY50SP | 2026-09-03 12:39:36 | 52.20869 | 21.64379 | 114° | 29km/h | 27767m | 7.0m/s | -46.7°C | 0.6% | 17.7hPa | 0V | 00:00:00 | 00:00:00 | 00:00:00 | |
| SP3WXH-11 | 2026-09-03 12:39:30 | 52.20875 | 21.64328 | 71° | 13km/h | 27722m | 7.5m/s | -47.1°C | 0.7% | 17.8hPa | 0V | 00:00:00 | 00:00:00 | 00:00:00 | |
| SP4MAZ | 2026-09-03 12:39:26 | 52.20872 | 21.64305 | 72° | 20km/h | 27699m | 7.2m/s | -47.2°C | 0.7% | 17.9hPa | 0V | 00:00:00 | 00:00:00 | 00:00:00 | |
| KRY50SP | 2026-09-03 12:39:24 | 52.20872 | 21.64288 | 109° | 22km/h | 27685m | 6.0m/s | -47.2°C | 0.7% | 17.9hPa | 0V | 00:00:00 | 00:00:00 | 00:00:00 | |
| KRY50SP | 2026-09-03 12:39:19 | 52.20886 | 21.64236 | 110° | 20km/h | 27655m | 7.4m/s | -47.3°C | 0.7% | 18.0hPa | 0V | 00:00:00 | 00:00:00 | 00:00:00 | |
| KRY50SP | 2026-09-03 12:39:13 | 52.20886 | 21.64198 | 57° | 26km/h | 27623m | 6.2m/s | -47.2°C | 0.7% | 18.1hPa | 0V | 00:00:00 | 00:00:00 | 00:00:00 | |
| KRY50SP | 2026-09-03 12:39:07 | 52.20868 | 21.64124 | 115° | 29km/h | 27593m | 5.8m/s | -47.0°C | 0.7% | 18.2hPa | 0V | 00:00:00 | 00:00:00 | 00:00:00 | |
| SP4MAZ | 2026-09-03 12:39:04 | 52.20869 | 21.64094 | 115° | 15km/h | 27580m | 6.9m/s | -46.9°C | 0.6% | 18.3hPa | 0V | 00:00:00 | 00:00:00 | 00:00:00 | |
| KRY50SP | 2026-09-03 12:39:03 | 52.20870 | 21.64085 | 147° | 11km/h | 27571m | 7.8m/s | -46.9°C | 0.7% | 18.3hPa | 0V | 00:00:00 | 00:00:00 | 00:00:00 | |
| SP3WXH-11 | 2026-09-03 12:38:59 | 52.20877 | 21.64072 | 96° | 11km/h | 27545m | 8.0m/s | -46.9°C | 0.7% | 18.4hPa | 0V | 00:00:00 | 00:00:00 | 00:00:00 | |
| KRY50SP | 2026-09-03 12:38:56 | 52.20877 | 21.64060 | 87° | 11km/h | 27529m | 7.4m/s | -46.9°C | 0.7% | 18.4hPa | 0V | 00:00:00 | 00:00:00 | 00:00:00 | |
| KRY50SP | 2026-09-03 12:38:52 | 52.20873 | 21.64017 | 96° | 22km/h | 27490m | 5.0m/s | -47.0°C | 0.6% | 18.5hPa | 0V | 00:00:00 | 00:00:00 | 00:00:00 | |
| KRY50SP | 2026-09-03 12:38:45 | 52.20889 | 21.63980 | 135° | 24km/h | 27443m | 7.6m/s | -47.2°C | 0.6% | 18.6hPa | 0V | 00:00:00 | 00:00:00 | 00:00:00 | |
| SP4MAZ | 2026-09-03 12:38:44 | 52.20891 | 21.63974 | 124° | 18km/h | 27436m | 5.7m/s | -47.3°C | 0.7% | 18.6hPa | 0V | 00:00:00 | 00:00:00 | 00:00:00 | |
| SP3BTT-10 | 2026-09-03 12:38:42 | 52.20895 | 21.63952 | 120° | 11km/h | 27411m | 7.1m/s | 0°C | 0% | 0hPa | 0V | 00:00:00 | 00:00:00 | 00:00:00 | |
| KRY50SP | 2026-09-03 12:38:40 | 52.20900 | 21.63941 | 124° | 31km/h | 27403m | 6.2m/s | -47.5°C | 0.7% | 18.7hPa | 0V | 00:00:00 | 00:00:00 | 00:00:00 | |
| KRY50SP | 2026-09-03 12:38:34 | 52.20912 | 21.63910 | 138° | 9km/h | 27348m | 6.5m/s | -47.8°C | 0.7% | 18.8hPa | 0V | 00:00:00 | 00:00:00 | 00:00:00 | |
| SP3WXH-11 | 2026-09-03 12:38:28 | 52.20919 | 21.63881 | 96° | 15km/h | 27300m | 4.7m/s | -47.8°C | 0.7% | 19.0hPa | 0V | 00:00:00 | 00:00:00 | 00:00:00 | |
| OM5KV | 2026-09-03 12:38:25 | 52.20919 | 21.63869 | 79° | 16km/h | 27289m | 7.5m/s | 0°C | 0% | 0hPa | 0V | 00:00:00 | 00:00:00 | 00:00:00 | |
| KRY50SP | 2026-09-03 12:38:23 | 52.20916 | 21.63853 | 72° | 22km/h | 27275m | 5.5m/s | -47.9°C | 0.7% | 19.0hPa | 0V | 00:00:00 | 00:00:00 | 00:00:00 | |
| OM5KV | 2026-09-03 12:38:18 | 52.20916 | 21.63814 | 83° | 11km/h | 27242m | 7.0m/s | 0°C | 0% | 0hPa | 0V | 00:00:00 | 00:00:00 | 00:00:00 | |
| OM5KV | 2026-09-03 12:38:17 | 52.20914 | 21.63810 | 56° | 11km/h | 27235m | 6.1m/s | 0°C | 0% | 0hPa | 0V | 00:00:00 | 00:00:00 | 00:00:00 | |
| KRY50SP | 2026-09-03 12:38:12 | 52.20912 | 21.63790 | 89° | 7km/h | 27200m | 7.3m/s | -47.8°C | 0.7% | 19.3hPa | 0V | 00:00:00 | 00:00:00 | 00:00:00 | |
| KRY50SP | 2026-09-03 12:38:07 | 52.20912 | 21.63773 | 93° | 9km/h | 27166m | 5.6m/s | -47.9°C | 0.7% | 19.3hPa | 0V | 00:00:00 | 00:00:00 | 00:00:00 | |
| KRY50SP | 2026-09-03 12:38:01 | 52.20916 | 21.63773 | 194° | 7km/h | 27124m | 6.1m/s | -48.0°C | 0.7% | 19.5hPa | 0V | 00:00:00 | 00:00:00 | 00:00:00 | |
| SP3BTT-10 | 2026-09-03 12:37:57 | 52.20920 | 21.63768 | 104° | 22km/h | 27089m | 7.2m/s | 0°C | 0% | 0hPa | 0V | 00:00:00 | 00:00:00 | 00:00:00 | |
| SP4MAZ | 2026-09-03 12:37:55 | 52.20921 | 21.63763 | 96° | 11km/h | 27082m | 6.2m/s | -48.0°C | 0.7% | 19.6hPa | 0V | 00:00:00 | 00:00:00 | 00:00:00 | |
| KRY50SP | 2026-09-03 12:37:50 | 52.20923 | 21.63765 | 218° | 13km/h | 27051m | 7.7m/s | -48.0°C | 0.7% | 19.7hPa | 0V | 00:00:00 | 00:00:00 | 00:00:00 | |
| KRY50SP | 2026-09-03 12:37:44 | 52.20943 | 21.63773 | 155° | 9km/h | 27010m | 7.2m/s | -47.9°C | 0.7% | 19.8hPa | 0V | 00:00:00 | 00:00:00 | 00:00:00 | |
| KRY50SP | 2026-09-03 12:37:39 | 52.20954 | 21.63762 | 186° | 7km/h | 26977m | 5.7m/s | -47.8°C | 0.7% | 19.9hPa | 0V | 00:00:00 | 00:00:00 | 00:00:00 | |
| KRY50SP | 2026-09-03 12:37:34 | 52.20978 | 21.63770 | 187° | 24km/h | 26945m | 7.6m/s | -47.7°C | 0.7% | 20.0hPa | 0V | 00:00:00 | 00:00:00 | 00:00:00 | |
| KRY50SP | 2026-09-03 12:37:29 | 52.21002 | 21.63756 | 145° | 22km/h | 26909m | 5.7m/s | -47.6°C | 0.7% | 20.1hPa | 0V | 00:00:00 | 00:00:00 | 00:00:00 | |
| SP3WXH-11 | 2026-09-03 12:37:26 | 52.21022 | 21.63741 | 169° | 24km/h | 26876m | 7.6m/s | -47.6°C | 0.7% | 20.2hPa | 0V | 00:00:00 | 00:00:00 | 00:00:00 | |
| KRY50SP | 2026-09-03 12:37:23 | 52.21029 | 21.63739 | 175° | 29km/h | 26870m | 5.3m/s | -47.6°C | 0.7% | 20.2hPa | 0V | 00:00:00 | 00:00:00 | 00:00:00 | |
| KRY50SP | 2026-09-03 12:37:17 | 52.21073 | 21.63733 | 163° | 33km/h | 26835m | 7.0m/s | -47.5°C | 0.7% | 20.3hPa | 0V | 00:00:00 | 00:00:00 | 00:00:00 | |
| KRY50SP | 2026-09-03 12:37:12 | 52.21106 | 21.63708 | 150° | 26km/h | 26803m | 6.9m/s | -47.5°C | 0.7% | 20.4hPa | 0V | 00:00:00 | 00:00:00 | 00:00:00 | |
| KRY50SP | 2026-09-03 12:37:07 | 52.21140 | 21.63680 | 160° | 27km/h | 26762m | 6.3m/s | -47.7°C | 0.7% | 20.6hPa | 0V | 00:00:00 | 00:00:00 | 00:00:00 | |
| KRY50SP | 2026-09-03 12:37:01 | 52.21180 | 21.63644 | 145° | 33km/h | 26729m | 6.8m/s | -47.7°C | 0.6% | 20.7hPa | 0V | 00:00:00 | 00:00:00 | 00:00:00 | |
| SP3WXH-11 | 2026-09-03 12:36:55 | 52.21234 | 21.63597 | 133° | 22km/h | 26674m | 6.1m/s | -47.7°C | 0.7% | 20.8hPa | 0V | 00:00:00 | 00:00:00 | 00:00:00 | |
| KRY50SP | 2026-09-03 12:36:49 | 52.21255 | 21.63560 | 134° | 38km/h | 26647m | 4.8m/s | -47.8°C | 0.7% | 20.9hPa | 0V | 00:00:00 | 00:00:00 | 00:00:00 | |
| KRY50SP | 2026-09-03 12:36:43 | 52.21284 | 21.63496 | 139° | 22km/h | 26604m | 6.0m/s | -48.0°C | 0.7% | 21.0hPa | 0V | 00:00:00 | 00:00:00 | 00:00:00 | |
| KRY50SP | 2026-09-03 12:36:37 | 52.21303 | 21.63471 | 139° | 20km/h | 26566m | 5.5m/s | -48.2°C | 0.7% | 21.2hPa | 0V | 00:00:00 | 00:00:00 | 00:00:00 | |
| KRY50SP | 2026-09-03 12:36:31 | 52.21322 | 21.63423 | 116° | 24km/h | 26526m | 5.5m/s | -48.2°C | 0.7% | 21.3hPa | 0V | 00:00:00 | 00:00:00 | 00:00:00 | |
| SP3BTT-10 | 2026-09-03 12:36:27 | 52.21326 | 21.63388 | 98° | 9km/h | 26493m | 7.8m/s | 0°C | 0% | 0hPa | 0V | 00:00:00 | 00:00:00 | 00:00:00 | |
| KRY50SP | 2026-09-03 12:36:25 | 52.21326 | 21.63384 | 115° | 9km/h | 26485m | 6.8m/s | -48.2°C | 0.7% | 21.4hPa | 0V | 00:00:00 | 00:00:00 | 00:00:00 | |
| SP3WXH-11 | 2026-09-03 12:36:24 | 52.21329 | 21.63375 | 98° | 9km/h | 26466m | 6.7m/s | -48.2°C | 0.7% | 21.5hPa | 0V | 00:00:00 | 00:00:00 | 00:00:00 | |
| SP4MAZ | 2026-09-03 12:36:21 | 52.21330 | 21.63371 | 106° | 13km/h | 26461m | 5.3m/s | -48.3°C | 0.7% | 21.5hPa | 0V | 00:00:00 | 00:00:00 | 00:00:00 | |
| KRY50SP | 2026-09-03 12:36:19 | 52.21333 | 21.63359 | 124° | 20km/h | 26447m | 7.2m/s | -48.3°C | 0.7% | 21.5hPa | 0V | 00:00:00 | 00:00:00 | 00:00:00 | |
| KRY50SP | 2026-09-03 12:36:14 | 52.21347 | 21.63295 | 126° | 26km/h | 26412m | 7.3m/s | -48.5°C | 0.7% | 21.7hPa | 0V | 00:00:00 | 00:00:00 | 00:00:00 | |
| KRY50SP | 2026-09-03 12:36:07 | 52.21362 | 21.63257 | 98° | 20km/h | 26375m | 5.7m/s | -48.6°C | 0.7% | 21.8hPa | 0V | 00:00:00 | 00:00:00 | 00:00:00 | |
| KRY50SP | 2026-09-03 12:36:02 | 52.21369 | 21.63212 | 93° | 26km/h | 26345m | 7.0m/s | -48.6°C | 0.7% | 21.9hPa | 0V | 00:00:00 | 00:00:00 | 00:00:00 | |
| SP4MAZ | 2026-09-03 12:36:01 | 52.21369 | 21.63202 | 91° | 26km/h | 26339m | 5.4m/s | -48.7°C | 0.7% | 21.9hPa | 0V | 00:00:00 | 00:00:00 | 00:00:00 | |
| SP3WXH-11 | 2026-09-03 12:35:53 | 52.21371 | 21.63128 | 67° | 13km/h | 26277m | 5.6m/s | -49.0°C | 0.8% | 22.1hPa | 0V | 00:00:00 | 00:00:00 | 00:00:00 | |
| KRY50SP | 2026-09-03 12:35:49 | 52.21366 | 21.63115 | 62° | 24km/h | 26266m | 7.7m/s | -49.1°C | 0.7% | 22.2hPa | 0V | 00:00:00 | 00:00:00 | 00:00:00 | |
| KRY50SP | 2026-09-03 12:35:43 | 52.21350 | 21.63053 | 53° | 20km/h | 26231m | 4.7m/s | -48.9°C | 0.7% | 22.3hPa | 0V | 00:00:00 | 00:00:00 | 00:00:00 | |
| SP4MAZ | 2026-09-03 12:35:39 | 52.21332 | 21.63040 | 6° | 18km/h | 26205m | 7.9m/s | -48.9°C | 0.7% | 22.4hPa | 0V | 00:00:00 | 00:00:00 | 00:00:00 | |
| KRY50SP | 2026-09-03 12:35:38 | 52.21327 | 21.63040 | 4° | 13km/h | 26198m | 6.6m/s | -48.9°C | 0.7% | 22.4hPa | 0V | 00:00:00 | 00:00:00 | 00:00:00 | |
| KRY50SP | 2026-09-03 12:35:32 | 52.21310 | 21.63024 | 55° | 16km/h | 26161m | 7.0m/s | -48.9°C | 0.7% | 22.5hPa | 0V | 00:00:00 | 00:00:00 | 00:00:00 | |
| KRY50SP | 2026-09-03 12:35:26 | 52.21290 | 21.62996 | 7° | 13km/h | 26126m | 6.8m/s | -49.2°C | 0.7% | 22.7hPa | 0V | 00:00:00 | 00:00:00 | 00:00:00 | |
| SP3WXH-11 | 2026-09-03 12:35:22 | 52.21276 | 21.63016 | 317° | 11km/h | 26086m | 6.0m/s | -49.2°C | 0.7% | 22.8hPa | 0V | 00:00:00 | 00:00:00 | 00:00:00 | |
| KRY50SP | 2026-09-03 12:35:20 | 52.21276 | 21.63016 | 319° | 13km/h | 26087m | 6.0m/s | -49.2°C | 0.7% | 22.8hPa | 0V | 00:00:00 | 00:00:00 | 00:00:00 | |
| SP4MAZ | 2026-09-03 12:35:19 | 52.21274 | 21.63018 | 324° | 9km/h | 26079m | 7.7m/s | -49.2°C | 0.8% | 22.8hPa | 0V | 00:00:00 | 00:00:00 | 00:00:00 | |
| KRY50SP | 2026-09-03 12:35:15 | 52.21266 | 21.63022 | 359° | 11km/h | 26053m | 5.3m/s | -49.2°C | 0.8% | 22.9hPa | 0V | 00:00:00 | 00:00:00 | 00:00:00 | |
| KRY50SP | 2026-09-03 12:35:09 | 52.21259 | 21.63022 | 315° | 9km/h | 26018m | 7.1m/s | -49.2°C | 0.7% | 23.0hPa | 0V | 00:00:00 | 00:00:00 | 00:00:00 | |
| KRY50SP | 2026-09-03 12:35:04 | 52.21249 | 21.63035 | 344° | 7km/h | 25987m | 5.8m/s | -49.2°C | 0.8% | 23.2hPa | 0V | 00:00:00 | 00:00:00 | 00:00:00 | |
| SP3WXH-11 | 2026-09-03 12:34:51 | 52.21235 | 21.63022 | 306° | 7km/h | 25891m | 5.4m/s | -49.5°C | 0.7% | 23.5hPa | 0V | 00:00:00 | 00:00:00 | 00:00:00 | |
| SP4MAZ | 2026-09-03 12:34:50 | 52.21237 | 21.63020 | 313° | 7km/h | 25898m | 7.8m/s | -49.5°C | 0.7% | 23.4hPa | 0V | 00:00:00 | 00:00:00 | 00:00:00 | |
| KRY50SP | 2026-09-03 12:34:47 | 52.21234 | 21.63027 | 225° | 5km/h | 25880m | 7.9m/s | -49.5°C | 0.7% | 23.5hPa | 0V | 00:00:00 | 00:00:00 | 00:00:00 | |
| KRY50SP | 2026-09-03 12:34:41 | 52.21242 | 21.63027 | 185° | 7km/h | 25841m | 7.8m/s | -49.7°C | 0.7% | 23.7hPa | 0V | 00:00:00 | 00:00:00 | 00:00:00 | |
| KRY50SP | 2026-09-03 12:34:35 | 52.21247 | 21.63039 | 223° | 5km/h | 25801m | 8.0m/s | -50.3°C | 0.8% | 23.8hPa | 0V | 00:00:00 | 00:00:00 | 00:00:00 | |
| KRY50SP | 2026-09-03 12:34:30 | 52.21253 | 21.63031 | 116° | 7km/h | 25767m | 6.0m/s | -50.6°C | 0.8% | 23.9hPa | 0V | 00:00:00 | 00:00:00 | 00:00:00 | |
| SP4MAZ | 2026-09-03 12:34:26 | 52.21260 | 21.63022 | 158° | 7km/h | 25739m | 7.2m/s | -50.7°C | 0.8% | 24.0hPa | 0V | 00:00:00 | 00:00:00 | 00:00:00 | |
| KRY50SP | 2026-09-03 12:34:24 | 52.21264 | 21.63023 | 204° | 5km/h | 25725m | 4.8m/s | -50.7°C | 0.8% | 24.1hPa | 0V | 00:00:00 | 00:00:00 | 00:00:00 | |
| SP3WXH-11 | 2026-09-03 12:34:20 | 52.21273 | 21.63025 | 147° | 7km/h | 25683m | 5.5m/s | -50.7°C | 0.8% | 24.2hPa | 0V | 00:00:00 | 00:00:00 | 00:00:00 | |
| KRY50SP | 2026-09-03 12:34:18 | 52.21273 | 21.63025 | 148° | 7km/h | 25683m | 5.5m/s | -50.7°C | 0.8% | 24.2hPa | 0V | 00:00:00 | 00:00:00 | 00:00:00 | |
| SP3BTT-10 | 2026-09-03 12:34:12 | 52.21283 | 21.62998 | 117° | 16km/h | 25630m | 7.7m/s | 0°C | 0% | 0hPa | 0V | 00:00:00 | 00:00:00 | 00:00:00 | |
| KRY50SP | 2026-09-03 12:34:06 | 52.21288 | 21.62973 | 95° | 15km/h | 25594m | 4.4m/s | -50.9°C | 0.9% | 24.5hPa | 0V | 00:00:00 | 00:00:00 | 00:00:00 | |
| SP4MAZ | 2026-09-03 12:34:03 | 52.21293 | 21.62950 | 119° | 24km/h | 25581m | 4.3m/s | -50.9°C | 0.8% | 24.6hPa | 0V | 00:00:00 | 00:00:00 | 00:00:00 | |
| KRY50SP | 2026-09-03 12:34:01 | 52.21298 | 21.62931 | 108° | 24km/h | 25575m | 6.4m/s | -50.9°C | 0.8% | 24.6hPa | 0V | 00:00:00 | 00:00:00 | 00:00:00 | |
| SP3WXH-11 | 2026-09-03 12:33:49 | 52.21298 | 21.62802 | 73° | 16km/h | 25496m | 7.3m/s | -50.8°C | 0.8% | 24.9hPa | 0V | 00:00:00 | 00:00:00 | 00:00:00 | |
| SP4MAZ | 2026-09-03 12:33:43 | 52.21295 | 21.62781 | 104° | 16km/h | 25472m | 7.3m/s | -50.7°C | 0.9% | 25.0hPa | 0V | 00:00:00 | 00:00:00 | 00:00:00 | |
| KRY50SP | 2026-09-03 12:33:37 | 52.21293 | 21.62722 | 88° | 24km/h | 25433m | 6.6m/s | -50.7°C | 0.8% | 25.2hPa | 0V | 00:00:00 | 00:00:00 | 00:00:00 | |
| KRY50SP | 2026-09-03 12:33:32 | 52.21280 | 21.62705 | 350° | 9km/h | 25397m | 5.1m/s | -50.8°C | 0.8% | 25.3hPa | 0V | 00:00:00 | 00:00:00 | 00:00:00 | |
| KRY50SP | 2026-09-03 12:33:25 | 52.21282 | 21.62667 | 78° | 29km/h | 25359m | 6.1m/s | -50.8°C | 0.9% | 25.5hPa | 0V | 00:00:00 | 00:00:00 | 00:00:00 | |
| SP4MAZ | 2026-09-03 12:33:20 | 52.21270 | 21.62616 | 63° | 18km/h | 25327m | 5.3m/s | -50.6°C | 0.9% | 25.6hPa | 0V | 00:00:00 | 00:00:00 | 00:00:00 | |
| KRY50SP | 2026-09-03 12:33:19 | 52.21268 | 21.62610 | 55° | 18km/h | 25320m | 7.5m/s | -50.6°C | 0.8% | 25.6hPa | 0V | 00:00:00 | 00:00:00 | 00:00:00 | |
| SP3WXH-11 | 2026-09-03 12:33:18 | 52.21257 | 21.62599 | 30° | 13km/h | 25299m | 6.9m/s | -50.5°C | 0.8% | 25.7hPa | 0V | 00:00:00 | 00:00:00 | 00:00:00 | |
| KRY50SP | 2026-09-03 12:33:14 | 52.21253 | 21.62592 | 49° | 13km/h | 25287m | 4.6m/s | -50.4°C | 0.9% | 25.7hPa | 0V | 00:00:00 | 00:00:00 | 00:00:00 | |
| SP3BTT-10 | 2026-09-03 12:33:10 | 52.21236 | 21.62561 | 57° | 20km/h | 25255m | 6.4m/s | 0°C | 0% | 0hPa | 0V | 00:00:00 | 00:00:00 | 00:00:00 | |
| KRY50SP | 2026-09-03 12:33:08 | 52.21233 | 21.62553 | 48° | 26km/h | 25249m | 4.5m/s | -50.2°C | 0.8% | 25.9hPa | 0V | 00:00:00 | 00:00:00 | 00:00:00 | |
| KRY50SP | 2026-09-03 12:33:03 | 52.21206 | 21.62533 | 25° | 18km/h | 25221m | 7.2m/s | -50.1°C | 0.8% | 26.0hPa | 0V | 00:00:00 | 00:00:00 | 00:00:00 | |
| SP3WXH-11 | 2026-09-03 12:32:46 | 52.21122 | 21.62443 | 27° | 26km/h | 25105m | 6.4m/s | -49.6°C | 0.8% | 26.5hPa | 0V | 00:00:00 | 00:00:00 | 00:00:00 | |
| KRY50SP | 2026-09-03 12:32:45 | 52.21122 | 21.62442 | 28° | 27km/h | 25105m | 6.4m/s | -49.6°C | 0.8% | 26.5hPa | 0V | 00:00:00 | 00:00:00 | 00:00:00 | |
| KRY50SP | 2026-09-03 12:32:39 | 52.21095 | 21.62416 | 22° | 18km/h | 25066m | 6.1m/s | -49.6°C | 0.8% | 26.6hPa | 0V | 00:00:00 | 00:00:00 | 00:00:00 | |
| KRY50SP | 2026-09-03 12:32:34 | 52.21075 | 21.62401 | 21° | 22km/h | 25031m | 5.5m/s | -49.5°C | 0.8% | 26.8hPa | 0V | 00:00:00 | 00:00:00 | 00:00:00 | |
| KRY50SP | 2026-09-03 12:32:29 | 52.21052 | 21.62375 | 33° | 18km/h | 25000m | 7.0m/s | -49.4°C | 0.8% | 26.9hPa | 0V | 00:00:00 | 00:00:00 | 00:00:00 | |
| SP3BTT-10 | 2026-09-03 12:32:25 | 52.21036 | 21.62370 | 49° | 11km/h | 24968m | 5.6m/s | 0°C | 0% | 0hPa | 0V | 00:00:00 | 00:00:00 | 00:00:00 | |
| KRY50SP | 2026-09-03 12:32:23 | 52.21035 | 21.62369 | 36° | 7km/h | 24962m | 5.6m/s | -49.4°C | 0.8% | 27.1hPa | 0V | 00:00:00 | 00:00:00 | 00:00:00 | |
| SP4MAZ | 2026-09-03 12:32:21 | 52.21029 | 21.62366 | 16° | 13km/h | 24944m | 5.6m/s | -49.3°C | 0.8% | 27.2hPa | 0V | 00:00:00 | 00:00:00 | 00:00:00 | |
| KRY50SP | 2026-09-03 12:32:17 | 52.21019 | 21.62359 | 22° | 13km/h | 24924m | 6.0m/s | -49.4°C | 0.8% | 27.2hPa | 0V | 00:00:00 | 00:00:00 | 00:00:00 | |
| SP3WXH-11 | 2026-09-03 12:32:16 | 52.21011 | 21.62360 | 328° | 7km/h | 24906m | 5.0m/s | -49.5°C | 0.8% | 27.3hPa | 0V | 00:00:00 | 00:00:00 | 00:00:00 | |
| KRY50SP | 2026-09-03 12:32:11 | 52.21009 | 21.62362 | 209° | 2km/h | 24887m | 5.9m/s | -49.4°C | 0.8% | 27.4hPa | 0V | 00:00:00 | 00:00:00 | 00:00:00 | |
| KRY50SP | 2026-09-03 12:32:05 | 52.21009 | 21.62367 | 0° | 0km/h | 24849m | 5.3m/s | -49.3°C | 0.8% | 27.5hPa | 0V | 00:00:00 | 00:00:00 | 00:00:00 | |
| SP3WXH-11 | 2026-09-03 12:31:44 | 52.20988 | 21.62372 | 29° | 7km/h | 24712m | 7.3m/s | -49.1°C | 0.8% | 28.1hPa | 0V | 00:00:00 | 00:00:00 | 00:00:00 | |
| KRY50SP | 2026-09-03 12:31:43 | 52.20988 | 21.62372 | 30° | 7km/h | 24712m | 7.3m/s | -49.1°C | 0.8% | 28.1hPa | 0V | 00:00:00 | 00:00:00 | 00:00:00 | |
| SP4MAZ | 2026-09-03 12:31:39 | 52.20984 | 21.62362 | 127° | 2km/h | 24686m | 7.1m/s | -49.0°C | 0.8% | 28.3hPa | 0V | 00:00:00 | 00:00:00 | 00:00:00 | |
| KRY50SP | 2026-09-03 12:31:37 | 52.20985 | 21.62362 | 0° | 0km/h | 24674m | 6.0m/s | -48.9°C | 0.8% | 28.3hPa | 0V | 00:00:00 | 00:00:00 | 00:00:00 | |
| KRY50SP | 2026-09-03 12:31:32 | 52.20978 | 21.62362 | 358° | 11km/h | 24637m | 6.2m/s | -48.7°C | 0.8% | 28.5hPa | 0V | 00:00:00 | 00:00:00 | 00:00:00 | |
| KRY50SP | 2026-09-03 12:31:25 | 52.20968 | 21.62358 | 0° | 0km/h | 24600m | 6.1m/s | -48.5°C | 0.7% | 28.6hPa | 0V | 00:00:00 | 00:00:00 | 00:00:00 | |
| KRY50SP | 2026-09-03 12:31:21 | 52.20967 | 21.62355 | 318° | 7km/h | 24568m | 6.0m/s | -48.4°C | 0.7% | 28.8hPa | 0V | 00:00:00 | 00:00:00 | 00:00:00 | |
| SP4MAZ | 2026-09-03 12:31:17 | 52.20957 | 21.62356 | 21° | 18km/h | 24548m | 5.2m/s | -48.5°C | 0.8% | 28.9hPa | 0V | 00:00:00 | 00:00:00 | 00:00:00 | |
| KRY50SP | 2026-09-03 12:31:15 | 52.20947 | 21.62351 | 4° | 11km/h | 24530m | 5.8m/s | -48.7°C | 0.8% | 28.9hPa | 0V | 00:00:00 | 00:00:00 | 00:00:00 | |
| SP3WXH-11 | 2026-09-03 12:31:13 | 52.20943 | 21.62350 | 47° | 4km/h | 24518m | 6.7m/s | -48.8°C | 0.7% | 29.0hPa | 0V | 00:00:00 | 00:00:00 | 00:00:00 | |
| KRY50SP | 2026-09-03 12:31:08 | 52.20945 | 21.62342 | 0° | 0km/h | 24493m | 6.4m/s | -49.0°C | 0.8% | 29.1hPa | 0V | 00:00:00 | 00:00:00 | 00:00:00 | |
| KRY50SP | 2026-09-03 12:31:03 | 52.20940 | 21.62336 | 339° | 4km/h | 24463m | 8.0m/s | -49.2°C | 0.8% | 29.2hPa | 0V | 00:00:00 | 00:00:00 | 00:00:00 | |
| KRY50SP | 2026-09-03 12:30:57 | 52.20942 | 21.62332 | 144° | 7km/h | 24428m | 6.1m/s | -49.4°C | 0.8% | 29.4hPa | 0V | 00:00:00 | 00:00:00 | 00:00:00 | |
| SP4MAZ | 2026-09-03 12:30:54 | 52.20951 | 21.62328 | 155° | 11km/h | 24404m | 5.4m/s | -49.4°C | 0.8% | 29.5hPa | 0V | 00:00:00 | 00:00:00 | 00:00:00 | |
| KRY50SP | 2026-09-03 12:30:51 | 52.20953 | 21.62326 | 0° | 0km/h | 24394m | 6.7m/s | -49.5°C | 0.8% | 29.5hPa | 0V | 00:00:00 | 00:00:00 | 00:00:00 | |
| KRY50SP | 2026-09-03 12:30:46 | 52.20934 | 21.62330 | 360° | 15km/h | 24357m | 7.8m/s | -49.6°C | 0.8% | 29.7hPa | 0V | 00:00:00 | 00:00:00 | 00:00:00 | |
| SP3WXH-11 | 2026-09-03 12:30:42 | 52.20927 | 21.62329 | 99° | 5km/h | 24329m | 6.8m/s | -49.8°C | 0.8% | 29.9hPa | 0V | 00:00:00 | 00:00:00 | 00:00:00 | |
| KRY50SP | 2026-09-03 12:30:40 | 52.20929 | 21.62327 | 134° | 9km/h | 24323m | 5.0m/s | -49.8°C | 0.8% | 29.9hPa | 0V | 00:00:00 | 00:00:00 | 00:00:00 | |
| KRY50SP | 2026-09-03 12:30:34 | 52.20917 | 21.62329 | 354° | 24km/h | 24287m | 5.6m/s | -50.1°C | 0.8% | 30.0hPa | 0V | 00:00:00 | 00:00:00 | 00:00:00 | |
| SP4MAZ | 2026-09-03 12:30:32 | 52.20905 | 21.62336 | 333° | 26km/h | 24274m | 6.6m/s | -50.1°C | 0.8% | 30.1hPa | 0V | 00:00:00 | 00:00:00 | 00:00:00 | |
| KRY50SP | 2026-09-03 12:30:28 | 52.20895 | 21.62354 | 254° | 5km/h | 24248m | 4.8m/s | -49.9°C | 0.8% | 30.2hPa | 0V | 00:00:00 | 00:00:00 | 00:00:00 | |
| KRY50SP | 2026-09-03 12:30:23 | 52.20894 | 21.62364 | 346° | 7km/h | 24218m | 6.1m/s | -50.0°C | 0.8% | 30.3hPa | 0V | 00:00:00 | 00:00:00 | 00:00:00 | |
| KRY50SP | 2026-09-03 12:30:18 | 52.20871 | 21.62384 | 328° | 11km/h | 24183m | 6.3m/s | -50.1°C | 0.8% | 30.5hPa | 0V | 00:00:00 | 00:00:00 | 00:00:00 | |
| KRY50SP | 2026-09-03 12:30:12 | 52.20871 | 21.62382 | 221° | 7km/h | 24151m | 5.7m/s | -50.0°C | 0.8% | 30.6hPa | 0V | 00:00:00 | 00:00:00 | 00:00:00 | |
| SP3WXH-11 | 2026-09-03 12:30:11 | 52.20873 | 21.62386 | 238° | 2km/h | 24139m | 7.1m/s | -50.0°C | 0.8% | 30.7hPa | 0V | 00:00:00 | 00:00:00 | 00:00:00 | |
| SP4MAZ | 2026-09-03 12:30:10 | 52.20873 | 21.62386 | 240° | 4km/h | 24140m | 7.1m/s | -50.0°C | 0.8% | 30.7hPa | 0V | 00:00:00 | 00:00:00 | 00:00:00 | |
| KRY50SP | 2026-09-03 12:30:07 | 52.20871 | 21.62387 | 328° | 5km/h | 24121m | 6.5m/s | -50.1°C | 0.8% | 30.8hPa | 0V | 00:00:00 | 00:00:00 | 00:00:00 | |
| KRY50SP | 2026-09-03 12:30:01 | 52.20871 | 21.62386 | 126° | 11km/h | 24085m | 4.4m/s | -50.2°C | 0.8% | 31.0hPa | 0V | 00:00:00 | 00:00:00 | 00:00:00 | |
| KRY50SP | 2026-09-03 12:29:56 | 52.20876 | 21.62375 | 74° | 7km/h | 24054m | 7.4m/s | -50.3°C | 0.8% | 31.1hPa | 0V | 00:00:00 | 00:00:00 | 00:00:00 | |
| KRY50SP | 2026-09-03 12:29:50 | 52.20867 | 21.62367 | 83° | 4km/h | 24019m | 6.8m/s | -50.5°C | 0.8% | 31.3hPa | 0V | 00:00:00 | 00:00:00 | 00:00:00 | |
| SP4MAZ | 2026-09-03 12:29:45 | 52.20877 | 21.62353 | 165° | 9km/h | 23989m | 5.9m/s | -50.4°C | 0.8% | 31.4hPa | 0V | 00:00:00 | 00:00:00 | 00:00:00 | |
| KRY50SP | 2026-09-03 12:29:44 | 52.20879 | 21.62353 | 201° | 4km/h | 23983m | 5.6m/s | -50.4°C | 0.8% | 31.4hPa | 0V | 00:00:00 | 00:00:00 | 00:00:00 | |
| SP3WXH-11 | 2026-09-03 12:29:40 | 52.20879 | 21.62348 | 244° | 0km/h | 23950m | 6.7m/s | -50.5°C | 0.8% | 31.6hPa | 0V | 00:00:00 | 00:00:00 | 00:00:00 | |
| KRY50SP | 2026-09-03 12:29:39 | 52.20879 | 21.62348 | 0° | 0km/h | 23950m | 6.7m/s | -50.5°C | 0.8% | 31.6hPa | 0V | 00:00:00 | 00:00:00 | 00:00:00 | |
| KRY50SP | 2026-09-03 12:29:33 | 52.20888 | 21.62359 | 218° | 18km/h | 23911m | 5.1m/s | -50.6°C | 0.9% | 31.8hPa | 0V | 00:00:00 | 00:00:00 | 00:00:00 | |
| KRY50SP | 2026-09-03 12:29:27 | 52.20904 | 21.62366 | 222° | 11km/h | 23873m | 6.6m/s | -50.7°C | 0.8% | 32.0hPa | 0V | 00:00:00 | 00:00:00 | 00:00:00 | |
| SP4MAZ | 2026-09-03 12:29:24 | 52.20911 | 21.62375 | 207° | 13km/h | 23854m | 7.3m/s | -50.8°C | 0.8% | 32.1hPa | 0V | 00:00:00 | 00:00:00 | 00:00:00 | |
| KRY50SP | 2026-09-03 12:29:21 | 52.20921 | 21.62384 | 216° | 18km/h | 23834m | 6.3m/s | -50.8°C | 0.9% | 32.2hPa | 0V | 00:00:00 | 00:00:00 | 00:00:00 | |
| KRY50SP | 2026-09-03 12:29:15 | 52.20944 | 21.62397 | 199° | 11km/h | 23796m | 6.3m/s | -50.8°C | 0.8% | 32.4hPa | 0V | 00:00:00 | 00:00:00 | 00:00:00 | |
| KRY50SP | 2026-09-03 12:29:10 | 52.20955 | 21.62398 | 213° | 7km/h | 23757m | 4.7m/s | -51.0°C | 0.9% | 32.6hPa | 0V | 00:00:00 | 00:00:00 | 00:00:00 | |
| SP3WXH-11 | 2026-09-03 12:29:09 | 52.20957 | 21.62399 | 183° | 11km/h | 23752m | 6.0m/s | -51.0°C | 0.9% | 32.6hPa | 0V | 00:00:00 | 00:00:00 | 00:00:00 | |
| KRY50SP | 2026-09-03 12:29:04 | 52.20972 | 21.62392 | 157° | 9km/h | 23720m | 5.6m/s | -50.8°C | 0.9% | 32.8hPa | 0V | 00:00:00 | 00:00:00 | 00:00:00 | |
| SP4MAZ | 2026-09-03 12:29:03 | 52.20972 | 21.62392 | 157° | 9km/h | 23720m | 5.6m/s | -50.8°C | 0.9% | 32.8hPa | 0V | 00:00:00 | 00:00:00 | 00:00:00 | |
| KRY50SP | 2026-09-03 12:28:59 | 52.20977 | 21.62379 | 75° | 7km/h | 23690m | 7.7m/s | -50.9°C | 0.9% | 32.9hPa | 0V | 00:00:00 | 00:00:00 | 00:00:00 | |
| KRY50SP | 2026-09-03 12:28:52 | 52.20984 | 21.62374 | 175° | 13km/h | 23652m | 7.0m/s | -50.9°C | 0.8% | 33.1hPa | 0V | 00:00:00 | 00:00:00 | 00:00:00 | |
| KRY50SP | 2026-09-03 12:28:46 | 52.20996 | 21.62358 | 84° | 4km/h | 23618m | 7.3m/s | -51.0°C | 0.9% | 33.3hPa | 0V | 00:00:00 | 00:00:00 | 00:00:00 | |
| KRY50SP | 2026-09-03 12:28:41 | 52.20989 | 21.62359 | 354° | 5km/h | 23584m | 6.5m/s | -50.9°C | 0.8% | 33.5hPa | 0V | 00:00:00 | 00:00:00 | 00:00:00 | |
| SP3WXH-11 | 2026-09-03 12:28:38 | 52.20984 | 21.62358 | 71° | 7km/h | 23558m | 7.5m/s | -50.9°C | 0.9% | 33.6hPa | 0V | 00:00:00 | 00:00:00 | 00:00:00 | |
| KRY50SP | 2026-09-03 12:28:35 | 52.20984 | 21.62349 | 86° | 11km/h | 23547m | 5.5m/s | -50.9°C | 0.9% | 33.7hPa | 0V | 00:00:00 | 00:00:00 | 00:00:00 | |
| SP4MAZ | 2026-09-03 12:28:30 | 52.20982 | 21.62348 | 290° | 4km/h | 23513m | 6.8m/s | -51.0°C | 0.9% | 33.8hPa | 0V | 00:00:00 | 00:00:00 | 00:00:00 | |
| KRY50SP | 2026-09-03 12:28:24 | 52.20977 | 21.62352 | 96° | 7km/h | 23474m | 6.0m/s | -51.1°C | 0.9% | 34.0hPa | 0V | 00:00:00 | 00:00:00 | 00:00:00 | |
| KRY50SP | 2026-09-03 12:28:19 | 52.20974 | 21.62338 | 85° | 7km/h | 23443m | 6.8m/s | -51.3°C | 0.9% | 34.2hPa | 0V | 00:00:00 | 00:00:00 | 00:00:00 | |
| KRY50SP | 2026-09-03 12:28:13 | 52.20970 | 21.62333 | 228° | 4km/h | 23405m | 7.2m/s | -51.4°C | 0.9% | 34.4hPa | 0V | 00:00:00 | 00:00:00 | 00:00:00 | |
| SP3WXH-11 | 2026-09-03 12:28:07 | 52.20983 | 21.62337 | 148° | 9km/h | 23359m | 6.3m/s | -51.4°C | 0.9% | 34.6hPa | 0V | 00:00:00 | 00:00:00 | 00:00:00 | |
| KRY50SP | 2026-09-03 12:28:02 | 52.20985 | 21.62329 | 88° | 4km/h | 23333m | 6.2m/s | -51.4°C | 0.9% | 34.8hPa | 0V | 00:00:00 | 00:00:00 | 00:00:00 | |
| KRY50SP | 2026-09-03 12:27:57 | 52.20985 | 21.62325 | 184° | 4km/h | 23299m | 5.7m/s | -51.4°C | 0.9% | 34.9hPa | 0V | 00:00:00 | 00:00:00 | 00:00:00 | |
| SP4MAZ | 2026-09-03 12:27:46 | 52.21009 | 21.62304 | 134° | 9km/h | 23223m | 5.6m/s | -51.4°C | 0.9% | 35.3hPa | 0V | 00:00:00 | 00:00:00 | 00:00:00 | |
| KRY50SP | 2026-09-03 12:27:45 | 52.21010 | 21.62303 | 164° | 9km/h | 23216m | 5.9m/s | -51.4°C | 0.9% | 35.3hPa | 0V | 00:00:00 | 00:00:00 | 00:00:00 | |
| KRY50SP | 2026-09-03 12:27:39 | 52.21022 | 21.62291 | 103° | 11km/h | 23187m | 6.4m/s | -51.3°C | 0.9% | 35.5hPa | 0V | 00:00:00 | 00:00:00 | 00:00:00 | |
| SP3WXH-11 | 2026-09-03 12:27:36 | 52.21024 | 21.62264 | 71° | 18km/h | 23165m | 6.8m/s | -51.4°C | 0.9% | 35.7hPa | 0V | 00:00:00 | 00:00:00 | 00:00:00 | |
| KRY50SP | 2026-09-03 12:27:34 | 52.21023 | 21.62256 | 72° | 15km/h | 23160m | 5.3m/s | -51.3°C | 0.9% | 35.7hPa | 0V | 00:00:00 | 00:00:00 | 00:00:00 | |
| KRY50SP | 2026-09-03 12:27:28 | 52.21023 | 21.62235 | 78° | 7km/h | 23124m | 6.4m/s | -51.1°C | 0.9% | 35.9hPa | 0V | 00:00:00 | 00:00:00 | 00:00:00 | |
| SP4MAZ | 2026-09-03 12:27:24 | 52.21021 | 21.62222 | 94° | 13km/h | 23100m | 5.8m/s | -51.0°C | 0.9% | 36.0hPa | 0V | 00:00:00 | 00:00:00 | 00:00:00 | |
| KRY50SP | 2026-09-03 12:27:22 | 52.21021 | 21.62210 | 78° | 18km/h | 23086m | 5.3m/s | -51.0°C | 0.9% | 36.1hPa | 0V | 00:00:00 | 00:00:00 | 00:00:00 | |
| KRY50SP | 2026-09-03 12:27:17 | 52.21017 | 21.62186 | 32° | 9km/h | 23057m | 7.0m/s | -51.1°C | 0.9% | 36.3hPa | 0V | 00:00:00 | 00:00:00 | 00:00:00 | |
| KRY50SP | 2026-09-03 12:27:06 | 52.20992 | 21.62170 | 55° | 11km/h | 22990m | 5.9m/s | -51.0°C | 0.9% | 36.7hPa | 0V | 00:00:00 | 00:00:00 | 00:00:00 | |
| SP3WXH-11 | 2026-09-03 12:27:05 | 52.20989 | 21.62165 | 37° | 9km/h | 22977m | 7.5m/s | -50.9°C | 0.9% | 36.8hPa | 0V | 00:00:00 | 00:00:00 | 00:00:00 | |
| KRY50SP | 2026-09-03 12:27:01 | 52.20977 | 21.62166 | 323° | 11km/h | 22951m | 5.1m/s | -50.7°C | 0.9% | 36.9hPa | 0V | 00:00:00 | 00:00:00 | 00:00:00 | |
| KRY50SP | 2026-09-03 12:26:54 | 52.20969 | 21.62162 | 103° | 13km/h | 22915m | 4.6m/s | -50.7°C | 0.9% | 37.1hPa | 0V | 00:00:00 | 00:00:00 | 00:00:00 | |
| KRY50SP | 2026-09-03 12:26:49 | 52.20967 | 21.62145 | 179° | 4km/h | 22887m | 6.7m/s | -50.8°C | 0.9% | 37.3hPa | 0V | 00:00:00 | 00:00:00 | 00:00:00 | |
| KRY50SP | 2026-09-03 12:26:43 | 52.20967 | 21.62145 | 0° | 0km/h | 22851m | 6.8m/s | -50.9°C | 0.9% | 37.4hPa | 0V | 00:00:00 | 00:00:00 | 00:00:00 | |
| KRY50SP | 2026-09-03 12:26:37 | 52.20965 | 21.62128 | 121° | 4km/h | 22815m | 6.7m/s | -50.8°C | 0.9% | 37.7hPa | 0V | 00:00:00 | 00:00:00 | 00:00:00 | |
| SP3WXH-11 | 2026-09-03 12:26:35 | 52.20964 | 21.62132 | 310° | 7km/h | 22791m | 5.4m/s | -50.9°C | 0.9% | 37.8hPa | 0V | 00:00:00 | 00:00:00 | 00:00:00 | |
| KRY50SP | 2026-09-03 12:26:32 | 52.20963 | 21.62135 | 299° | 9km/h | 22786m | 5.9m/s | -50.9°C | 0.9% | 37.9hPa | 0V | 00:00:00 | 00:00:00 | 00:00:00 | |
| SP4MAZ | 2026-09-03 12:26:26 | 52.20962 | 21.62138 | 107° | 4km/h | 22749m | 6.3m/s | -50.9°C | 0.9% | 38.1hPa | 0V | 00:00:00 | 00:00:00 | 00:00:00 | |
| KRY50SP | 2026-09-03 12:26:16 | 52.20967 | 21.62116 | 175° | 9km/h | 22685m | 6.8m/s | -51.3°C | 0.9% | 38.4hPa | 0V | 00:00:00 | 00:00:00 | 00:00:00 | |
| KRY50SP | 2026-09-03 12:26:09 | 52.20981 | 21.62097 | 129° | 15km/h | 22648m | 6.6m/s | -51.5°C | 0.9% | 38.7hPa | 0V | 00:00:00 | 00:00:00 | 00:00:00 | |
| SP4MAZ | 2026-09-03 12:26:06 | 52.20985 | 21.62079 | 106° | 18km/h | 22629m | 6.1m/s | -51.6°C | 0.9% | 38.8hPa | 0V | 00:00:00 | 00:00:00 | 00:00:00 | |
| SP3WXH-11 | 2026-09-03 12:26:03 | 52.20994 | 21.62054 | 139° | 18km/h | 22605m | 4.8m/s | -51.6°C | 0.9% | 38.9hPa | 0V | 00:00:00 | 00:00:00 | 00:00:00 | |
| KRY50SP | 2026-09-03 12:25:57 | 52.21004 | 21.62027 | 129° | 18km/h | 22575m | 6.1m/s | -51.8°C | 0.9% | 39.1hPa | 0V | 00:00:00 | 00:00:00 | 00:00:00 | |
| KRY50SP | 2026-09-03 12:25:45 | 52.21046 | 21.61947 | 108° | 24km/h | 22509m | 5.3m/s | -51.4°C | 0.9% | 39.5hPa | 0V | 00:00:00 | 00:00:00 | 00:00:00 | |
| SP4MAZ | 2026-09-03 12:25:44 | 52.21048 | 21.61937 | 116° | 26km/h | 22503m | 7.1m/s | -51.4°C | 0.9% | 39.5hPa | 0V | 00:00:00 | 00:00:00 | 00:00:00 | |
| KRY50SP | 2026-09-03 12:25:40 | 52.21060 | 21.61901 | 110° | 24km/h | 22480m | 6.8m/s | -51.4°C | 0.9% | 39.7hPa | 0V | 00:00:00 | 00:00:00 | 00:00:00 | |
| KRY50SP | 2026-09-03 12:25:34 | 52.21075 | 21.61842 | 113° | 20km/h | 22442m | 7.3m/s | -51.8°C | 0.9% | 39.9hPa | 0V | 00:00:00 | 00:00:00 | 00:00:00 | |
| SP3WXH-11 | 2026-09-03 12:25:32 | 52.21079 | 21.61821 | 106° | 16km/h | 22424m | 7.5m/s | -51.9°C | 0.9% | 40.0hPa | 0V | 00:00:00 | 00:00:00 | 00:00:00 | |
| KRY50SP | 2026-09-03 12:25:28 | 52.21082 | 21.61797 | 92° | 22km/h | 22406m | 7.3m/s | -52.1°C | 0.9% | 40.1hPa | 0V | 00:00:00 | 00:00:00 | 00:00:00 | |
| KRY50SP | 2026-09-03 12:25:23 | 52.21076 | 21.61727 | 81° | 33km/h | 22369m | 7.2m/s | -52.3°C | 0.9% | 40.3hPa | 0V | 00:00:00 | 00:00:00 | 00:00:00 | |
| KRY50SP | 2026-09-03 12:25:17 | 52.21070 | 21.61659 | 90° | 29km/h | 22339m | 5.2m/s | -52.6°C | 1.0% | 40.5hPa | 0V | 00:00:00 | 00:00:00 | 00:00:00 | |
| KRY50SP | 2026-09-03 12:25:11 | 52.21060 | 21.61594 | 79° | 26km/h | 22302m | 5.3m/s | -52.7°C | 1.0% | 40.8hPa | 0V | 00:00:00 | 00:00:00 | 00:00:00 | |
| KRY50SP | 2026-09-03 12:25:05 | 52.21052 | 21.61523 | 90° | 29km/h | 22265m | 5.7m/s | -52.9°C | 1.0% | 41.0hPa | 0V | 00:00:00 | 00:00:00 | 00:00:00 | |
| SP4MAZ | 2026-09-03 12:25:03 | 52.21050 | 21.61501 | 79° | 26km/h | 22252m | 5.9m/s | -52.9°C | 1.0% | 41.1hPa | 0V | 00:00:00 | 00:00:00 | 00:00:00 | |
| SP3WXH-11 | 2026-09-03 12:25:01 | 52.21045 | 21.61477 | 75° | 15km/h | 22235m | 6.6m/s | -52.8°C | 1.0% | 41.2hPa | 0V | 00:00:00 | 00:00:00 | 00:00:00 | |
| KRY50SP | 2026-09-03 12:24:59 | 52.21044 | 21.61471 | 65° | 15km/h | 22230m | 4.3m/s | -52.8°C | 1.0% | 41.2hPa | 0V | 00:00:00 | 00:00:00 | 00:00:00 | |
| KRY50SP | 2026-09-03 12:24:54 | 52.21032 | 21.61434 | 81° | 24km/h | 22200m | 7.6m/s | -52.9°C | 1.0% | 41.4hPa | 0V | 00:00:00 | 00:00:00 | 00:00:00 | |
| KRY50SP | 2026-09-03 12:24:48 | 52.21030 | 21.61379 | 91° | 18km/h | 22162m | 7.1m/s | -52.8°C | 1.0% | 41.7hPa | 0V | 00:00:00 | 00:00:00 | 00:00:00 | |
| KRY50SP | 2026-09-03 12:24:42 | 52.21021 | 21.61333 | 78° | 22km/h | 22124m | 6.0m/s | -52.9°C | 1.0% | 41.9hPa | 0V | 00:00:00 | 00:00:00 | 00:00:00 | |
| SP4MAZ | 2026-09-03 12:24:39 | 52.21018 | 21.61304 | 79° | 27km/h | 22109m | 6.5m/s | -52.8°C | 1.0% | 42.0hPa | 0V | 00:00:00 | 00:00:00 | 00:00:00 | |
| KRY50SP | 2026-09-03 12:24:38 | 52.21016 | 21.61282 | 85° | 27km/h | 22097m | 7.0m/s | -52.8°C | 1.0% | 42.1hPa | 0V | 00:00:00 | 00:00:00 | 00:00:00 | |
| KRY50SP | 2026-09-03 12:24:32 | 52.21007 | 21.61230 | 50° | 13km/h | 22061m | 6.9m/s | -52.9°C | 1.0% | 42.3hPa | 0V | 00:00:00 | 00:00:00 | 00:00:00 | |
| SP3WXH-11 | 2026-09-03 12:24:30 | 52.21003 | 21.61224 | 53° | 7km/h | 22048m | 5.7m/s | -52.9°C | 1.0% | 42.4hPa | 0V | 00:00:00 | 00:00:00 | 00:00:00 | |
| KRY50SP | 2026-09-03 12:24:26 | 52.20999 | 21.61211 | 66° | 15km/h | 22030m | 5.3m/s | -52.8°C | 1.0% | 42.6hPa | 0V | 00:00:00 | 00:00:00 | 00:00:00 | |
| KRY50SP | 2026-09-03 12:24:20 | 52.20997 | 21.61173 | 85° | 15km/h | 21992m | 4.5m/s | -52.8°C | 1.0% | 42.8hPa | 0V | 00:00:00 | 00:00:00 | 00:00:00 | |
| SP4MAZ | 2026-09-03 12:24:19 | 52.20997 | 21.61167 | 89° | 13km/h | 21986m | 6.9m/s | -52.8°C | 1.0% | 42.8hPa | 0V | 00:00:00 | 00:00:00 | 00:00:00 | |
| KRY50SP | 2026-09-03 12:24:14 | 52.20998 | 21.61147 | 101° | 9km/h | 21954m | 5.8m/s | -52.8°C | 1.0% | 43.1hPa | 0V | 00:00:00 | 00:00:00 | 00:00:00 | |
| KRY50SP | 2026-09-03 12:24:08 | 52.21003 | 21.61120 | 106° | 20km/h | 21918m | 4.9m/s | -52.7°C | 1.0% | 43.3hPa | 0V | 00:00:00 | 00:00:00 | 00:00:00 | |
| KRY50SP | 2026-09-03 12:24:03 | 52.21009 | 21.61088 | 93° | 9km/h | 21888m | 5.9m/s | -52.6°C | 1.0% | 43.5hPa | 0V | 00:00:00 | 00:00:00 | 00:00:00 | |
| SP3WXH-11 | 2026-09-03 12:23:59 | 52.21012 | 21.61082 | 104° | 4km/h | 21857m | 6.0m/s | -52.7°C | 1.0% | 43.7hPa | 0V | 00:00:00 | 00:00:00 | 00:00:00 | |
| SP4MAZ | 2026-09-03 12:23:58 | 52.21012 | 21.61082 | 106° | 5km/h | 21857m | 6.0m/s | -52.7°C | 1.0% | 43.7hPa | 0V | 00:00:00 | 00:00:00 | 00:00:00 | |
| KRY50SP | 2026-09-03 12:23:57 | 52.21012 | 21.61080 | 141° | 9km/h | 21851m | 4.3m/s | -52.8°C | 1.0% | 43.7hPa | 0V | 00:00:00 | 00:00:00 | 00:00:00 | |
| KRY50SP | 2026-09-03 12:23:52 | 52.21030 | 21.61057 | 129° | 20km/h | 21819m | 6.4m/s | -52.7°C | 1.0% | 43.9hPa | 0V | 00:00:00 | 00:00:00 | 00:00:00 | |
| KRY50SP | 2026-09-03 12:23:46 | 52.21045 | 21.61039 | 157° | 11km/h | 21783m | 6.3m/s | -52.7°C | 1.0% | 44.2hPa | 0V | 00:00:00 | 00:00:00 | 00:00:00 | |
| KRY50SP | 2026-09-03 12:23:41 | 52.21059 | 21.61007 | 112° | 24km/h | 21750m | 6.6m/s | -52.6°C | 1.0% | 44.4hPa | 0V | 00:00:00 | 00:00:00 | 00:00:00 | |
| KRY50SP | 2026-09-03 12:23:36 | 52.21069 | 21.60967 | 100° | 7km/h | 21716m | 6.7m/s | -52.4°C | 1.0% | 44.7hPa | 0V | 00:00:00 | 00:00:00 | 00:00:00 | |
| KRY50SP | 2026-09-03 12:23:29 | 52.21070 | 21.60943 | 104° | 16km/h | 21679m | 7.0m/s | -52.2°C | 1.0% | 44.9hPa | 0V | 00:00:00 | 00:00:00 | 00:00:00 | |
| SP3WXH-11 | 2026-09-03 12:23:28 | 52.21072 | 21.60923 | 100° | 18km/h | 21660m | 5.8m/s | -52.2°C | 1.0% | 45.0hPa | 0V | 00:00:00 | 00:00:00 | 00:00:00 | |
| KRY50SP | 2026-09-03 12:23:24 | 52.21076 | 21.60908 | 113° | 18km/h | 21648m | 5.1m/s | -52.2°C | 1.0% | 45.1hPa | 0V | 00:00:00 | 00:00:00 | 00:00:00 | |
| KRY50SP | 2026-09-03 12:23:18 | 52.21073 | 21.60876 | 65° | 16km/h | 21608m | 4.7m/s | -51.9°C | 1.0% | 45.4hPa | 0V | 00:00:00 | 00:00:00 | 00:00:00 | |
| KRY50SP | 2026-09-03 12:23:13 | 52.21066 | 21.60845 | 106° | 18km/h | 21579m | 6.2m/s | -52.0°C | 0.9% | 45.6hPa | 0V | 00:00:00 | 00:00:00 | 00:00:00 | |
| SP4MAZ | 2026-09-03 12:23:08 | 52.21066 | 21.60808 | 68° | 16km/h | 21550m | 6.8m/s | -52.0°C | 1.0% | 45.8hPa | 0V | 00:00:00 | 00:00:00 | 00:00:00 | |
| KRY50SP | 2026-09-03 12:23:07 | 52.21063 | 21.60802 | 50° | 18km/h | 21544m | 6.0m/s | -52.1°C | 1.0% | 45.9hPa | 0V | 00:00:00 | 00:00:00 | 00:00:00 | |
| KRY50SP | 2026-09-03 12:23:01 | 52.21033 | 21.60772 | 33° | 22km/h | 21507m | 5.0m/s | -52.1°C | 1.0% | 46.1hPa | 0V | 00:00:00 | 00:00:00 | 00:00:00 | |
| KRY50SP | 2026-09-03 12:22:56 | 52.21016 | 21.60742 | 74° | 13km/h | 21476m | 7.5m/s | -51.9°C | 1.0% | 46.4hPa | 0V | 00:00:00 | 00:00:00 | 00:00:00 | |
| KRY50SP | 2026-09-03 12:22:50 | 52.21000 | 21.60709 | 53° | 22km/h | 21442m | 5.6m/s | -51.7°C | 1.0% | 46.6hPa | 0V | 00:00:00 | 00:00:00 | 00:00:00 | |
| KRY50SP | 2026-09-03 12:22:45 | 52.20994 | 21.60667 | 93° | 13km/h | 21406m | 5.1m/s | -51.3°C | 1.0% | 46.8hPa | 0V | 00:00:00 | 00:00:00 | 00:00:00 | |
| KRY50SP | 2026-09-03 12:22:39 | 52.20996 | 21.60645 | 96° | 13km/h | 21369m | 7.7m/s | -51.0°C | 0.9% | 47.1hPa | 0V | 00:00:00 | 00:00:00 | 00:00:00 | |
| KRY50SP | 2026-09-03 12:22:34 | 52.20996 | 21.60610 | 89° | 18km/h | 21338m | 3.9m/s | -50.7°C | 0.9% | 47.4hPa | 0V | 00:00:00 | 00:00:00 | 00:00:00 | |
| KRY50SP | 2026-09-03 12:22:27 | 52.21003 | 21.60586 | 133° | 9km/h | 21300m | 5.6m/s | -50.5°C | 0.9% | 47.6hPa | 0V | 00:00:00 | 00:00:00 | 00:00:00 | |
| SP3WXH-11 | 2026-09-03 12:22:26 | 52.21010 | 21.60576 | 131° | 11km/h | 21282m | 5.0m/s | -50.4°C | 0.9% | 47.8hPa | 0V | 00:00:00 | 00:00:00 | 00:00:00 | |
| KRY50SP | 2026-09-03 12:22:22 | 52.21014 | 21.60565 | 125° | 11km/h | 21264m | 5.5m/s | -50.5°C | 0.9% | 47.9hPa | 0V | 00:00:00 | 00:00:00 | 00:00:00 | |
| SP4MAZ | 2026-09-03 12:22:21 | 52.21014 | 21.60565 | 125° | 11km/h | 21264m | 5.5m/s | -50.5°C | 0.9% | 47.9hPa | 0V | 00:00:00 | 00:00:00 | 00:00:00 | |
| KRY50SP | 2026-09-03 12:22:17 | 52.21023 | 21.60544 | 108° | 16km/h | 21234m | 5.2m/s | -50.4°C | 0.9% | 48.1hPa | 0V | 00:00:00 | 00:00:00 | 00:00:00 | |
| KRY50SP | 2026-09-03 12:22:11 | 52.21039 | 21.60503 | 119° | 16km/h | 21197m | 5.2m/s | -50.3°C | 0.9% | 48.4hPa | 0V | 00:00:00 | 00:00:00 | 00:00:00 | |
| KRY50SP | 2026-09-03 12:22:04 | 52.21056 | 21.60481 | 160° | 13km/h | 21161m | 5.0m/s | -50.3°C | 0.9% | 48.6hPa | 0V | 00:00:00 | 00:00:00 | 00:00:00 | |
| SP3WXH-11 | 2026-09-03 12:21:55 | 52.21076 | 21.60409 | 95° | 16km/h | 21098m | 6.7m/s | -50.1°C | 0.9% | 49.1hPa | 0V | 00:00:00 | 00:00:00 | 00:00:00 | |
| KRY50SP | 2026-09-03 12:21:54 | 52.21075 | 21.60409 | 97° | 16km/h | 21098m | 6.7m/s | -50.1°C | 0.9% | 49.1hPa | 0V | 00:00:00 | 00:00:00 | 00:00:00 | |
| SP4MAZ | 2026-09-03 12:21:51 | 52.21077 | 21.60398 | 133° | 5km/h | 21079m | 5.9m/s | -50.1°C | 0.9% | 49.3hPa | 0V | 00:00:00 | 00:00:00 | 00:00:00 | |
| KRY50SP | 2026-09-03 12:21:48 | 52.21079 | 21.60396 | 0° | 0km/h | 21068m | 6.7m/s | -50.2°C | 0.9% | 49.3hPa | 0V | 00:00:00 | 00:00:00 | 00:00:00 | |
| KRY50SP | 2026-09-03 12:21:43 | 52.21079 | 21.60377 | 112° | 20km/h | 21033m | 5.2m/s | -50.4°C | 0.9% | 49.6hPa | 0V | 00:00:00 | 00:00:00 | 00:00:00 | |
| KRY50SP | 2026-09-03 12:21:36 | 52.21080 | 21.60341 | 56° | 9km/h | 20997m | 7.2m/s | -50.5°C | 0.9% | 49.9hPa | 0V | 00:00:00 | 00:00:00 | 00:00:00 | |
| KRY50SP | 2026-09-03 12:21:31 | 52.21071 | 21.60323 | 57° | 13km/h | 20962m | 5.4m/s | -50.3°C | 0.9% | 50.1hPa | 0V | 00:00:00 | 00:00:00 | 00:00:00 | |
| SP4MAZ | 2026-09-03 12:21:30 | 52.21071 | 21.60323 | 57° | 13km/h | 20962m | 5.4m/s | -50.3°C | 0.9% | 50.1hPa | 0V | 00:00:00 | 00:00:00 | 00:00:00 | |
| KRY50SP | 2026-09-03 12:21:25 | 52.21065 | 21.60300 | 65° | 11km/h | 20932m | 6.3m/s | -50.5°C | 0.9% | 50.3hPa | 0V | 00:00:00 | 00:00:00 | 00:00:00 | |
| SP3WXH-11 | 2026-09-03 12:21:24 | 52.21063 | 21.60294 | 91° | 0km/h | 20915m | 6.8m/s | -50.7°C | 0.9% | 50.5hPa | 0V | 00:00:00 | 00:00:00 | 00:00:00 | |
| KRY50SP | 2026-09-03 12:21:19 | 52.21063 | 21.60289 | 78° | 9km/h | 20897m | 6.7m/s | -50.6°C | 0.9% | 50.6hPa | 0V | 00:00:00 | 00:00:00 | 00:00:00 | |
| KRY50SP | 2026-09-03 12:21:15 | 52.21061 | 21.60247 | 84° | 29km/h | 20866m | 6.7m/s | -50.5°C | 0.9% | 50.8hPa | 0V | 00:00:00 | 00:00:00 | 00:00:00 | |
| SP4MAZ | 2026-09-03 12:21:08 | 52.21066 | 21.60179 | 97° | 15km/h | 20827m | 4.9m/s | -50.6°C | 0.9% | 51.2hPa | 0V | 00:00:00 | 00:00:00 | 00:00:00 | |
| KRY50SP | 2026-09-03 12:21:03 | 52.21067 | 21.60157 | 79° | 18km/h | 20803m | 5.5m/s | -50.6°C | 0.9% | 51.3hPa | 0V | 00:00:00 | 00:00:00 | 00:00:00 | |
| SP3WXH-11 | 2026-09-03 12:20:53 | 52.21075 | 21.60067 | 90° | 15km/h | 20737m | 5.3m/s | -50.9°C | 0.9% | 51.9hPa | 0V | 00:00:00 | 00:00:00 | 00:00:00 | |
| KRY50SP | 2026-09-03 12:20:51 | 52.21075 | 21.60067 | 92° | 15km/h | 20737m | 5.3m/s | -50.9°C | 0.9% | 51.9hPa | 0V | 00:00:00 | 00:00:00 | 00:00:00 | |
| KRY50SP | 2026-09-03 12:20:47 | 52.21080 | 21.60025 | 97° | 24km/h | 20708m | 5.6m/s | -50.8°C | 0.9% | 52.1hPa | 0V | 00:00:00 | 00:00:00 | 00:00:00 | |
| KRY50SP | 2026-09-03 12:20:41 | 52.21090 | 21.59990 | 125° | 15km/h | 20681m | 5.9m/s | -50.9°C | 0.9% | 52.3hPa | 0V | 00:00:00 | 00:00:00 | 00:00:00 | |
| KRY50SP | 2026-09-03 12:20:37 | 52.21098 | 21.59959 | 105° | 20km/h | 20654m | 4.5m/s | -51.1°C | 0.9% | 52.6hPa | 0V | 00:00:00 | 00:00:00 | 00:00:00 | |
| KRY50SP | 2026-09-03 12:20:30 | 52.21113 | 21.59898 | 124° | 29km/h | 20622m | 4.6m/s | -51.0°C | 1.0% | 52.8hPa | 0V | 00:00:00 | 00:00:00 | 00:00:00 | |
| SP3WXH-11 | 2026-09-03 12:20:22 | 52.21129 | 21.59816 | 114° | 15km/h | 20565m | 4.8m/s | -51.1°C | 0.9% | 53.3hPa | 0V | 00:00:00 | 00:00:00 | 00:00:00 | |
| KRY50SP | 2026-09-03 12:20:20 | 52.21132 | 21.59810 | 129° | 18km/h | 20560m | 6.5m/s | -51.1°C | 0.9% | 53.3hPa | 0V | 00:00:00 | 00:00:00 | 00:00:00 | |
| KRY50SP | 2026-09-03 12:20:15 | 52.21151 | 21.59779 | 129° | 18km/h | 20533m | 4.1m/s | -51.2°C | 1.0% | 53.5hPa | 0V | 00:00:00 | 00:00:00 | 00:00:00 | |
| KRY50SP | 2026-09-03 12:20:10 | 52.21160 | 21.59741 | 109° | 22km/h | 20504m | 5.1m/s | -51.2°C | 0.9% | 53.7hPa | 0V | 00:00:00 | 00:00:00 | 00:00:00 | |
| KRY50SP | 2026-09-03 12:20:04 | 52.21172 | 21.59676 | 111° | 26km/h | 20469m | 4.4m/s | -51.5°C | 1.0% | 54.1hPa | 0V | 00:00:00 | 00:00:00 | 00:00:00 | |
| SP3WXH-11 | 2026-09-03 12:19:51 | 52.21201 | 21.59542 | 91° | 29km/h | 20389m | 6.8m/s | -51.9°C | 1.0% | 54.7hPa | 0V | 00:00:00 | 00:00:00 | 00:00:00 | |
| KRY50SP | 2026-09-03 12:19:45 | 52.21201 | 21.59495 | 100° | 29km/h | 20366m | 5.2m/s | -51.8°C | 1.0% | 54.9hPa | 0V | 00:00:00 | 00:00:00 | 00:00:00 | |
| KRY50SP | 2026-09-03 12:19:40 | 52.21203 | 21.59442 | 95° | 27km/h | 20337m | 5.5m/s | -51.9°C | 1.0% | 55.1hPa | 0V | 00:00:00 | 00:00:00 | 00:00:00 | |
| SP4MAZ | 2026-09-03 12:19:37 | 52.21204 | 21.59390 | 82° | 31km/h | 20313m | 5.7m/s | -52.0°C | 1.0% | 55.4hPa | 0V | 00:00:00 | 00:00:00 | 00:00:00 | |
| KRY50SP | 2026-09-03 12:19:34 | 52.21202 | 21.59365 | 85° | 31km/h | 20302m | 6.1m/s | -52.0°C | 1.0% | 55.4hPa | 0V | 00:00:00 | 00:00:00 | 00:00:00 | |
| KRY50SP | 2026-09-03 12:19:29 | 52.21197 | 21.59313 | 67° | 18km/h | 20274m | 4.8m/s | -51.9°C | 1.0% | 55.7hPa | 0V | 00:00:00 | 00:00:00 | 00:00:00 | |
| KRY50SP | 2026-09-03 12:19:24 | 52.21195 | 21.59277 | 99° | 15km/h | 20245m | 5.8m/s | -51.7°C | 1.0% | 55.9hPa | 0V | 00:00:00 | 00:00:00 | 00:00:00 | |
| SP3WXH-11 | 2026-09-03 12:19:20 | 52.21200 | 21.59241 | 108° | 15km/h | 20209m | 6.7m/s | -51.9°C | 1.0% | 56.2hPa | 0V | 00:00:00 | 00:00:00 | 00:00:00 | |
| KRY50SP | 2026-09-03 12:19:18 | 52.21200 | 21.59241 | 109° | 16km/h | 20209m | 6.7m/s | -51.9°C | 1.0% | 56.3hPa | 0V | 00:00:00 | 00:00:00 | 00:00:00 | |
| KRY50SP | 2026-09-03 12:19:13 | 52.21199 | 21.59205 | 107° | 15km/h | 20177m | 6.6m/s | -52.0°C | 1.0% | 56.5hPa | 0V | 00:00:00 | 00:00:00 | 00:00:00 | |
| KRY50SP | 2026-09-03 12:19:06 | 52.21212 | 21.59182 | 136° | 16km/h | 20142m | 6.3m/s | -51.8°C | 1.0% | 56.8hPa | 0V | 00:00:00 | 00:00:00 | 00:00:00 | |
| KRY50SP | 2026-09-03 12:19:02 | 52.21221 | 21.59159 | 112° | 15km/h | 20114m | 7.2m/s | -51.6°C | 1.0% | 57.1hPa | 0V | 00:00:00 | 00:00:00 | 00:00:00 | |
| SP3WXH-11 | 2026-09-03 12:18:49 | 52.21237 | 21.59079 | 114° | 15km/h | 20036m | 5.9m/s | -51.3°C | 0.9% | 57.8hPa | 0V | 00:00:00 | 00:00:00 | 00:00:00 | |
| KRY50SP | 2026-09-03 12:18:44 | 52.21242 | 21.59065 | 119° | 15km/h | 20019m | 6.8m/s | -51.3°C | 1.0% | 57.9hPa | 0V | 00:00:00 | 00:00:00 | 00:00:00 | |
| KRY50SP | 2026-09-03 12:18:38 | 52.21242 | 21.59017 | 88° | 24km/h | 19984m | 6.3m/s | -51.3°C | 1.0% | 58.2hPa | 0V | 00:00:00 | 00:00:00 | 00:00:00 | |
| KRY50SP | 2026-09-03 12:18:33 | 52.21247 | 21.58975 | 114° | 20km/h | 19956m | 6.5m/s | -51.2°C | 1.0% | 58.5hPa | 0V | 00:00:00 | 00:00:00 | 00:00:00 | |
| SP4MAZ | 2026-09-03 12:18:31 | 52.21251 | 21.58957 | 106° | 20km/h | 19946m | 5.0m/s | -51.2°C | 1.0% | 58.6hPa | 0V | 00:00:00 | 00:00:00 | 00:00:00 | |
| KRY50SP | 2026-09-03 12:18:28 | 52.21254 | 21.58923 | 99° | 24km/h | 19924m | 5.9m/s | -51.1°C | 0.9% | 58.8hPa | 0V | 00:00:00 | 00:00:00 | 00:00:00 | |
| SP3BTT-10 | 2026-09-03 12:18:22 | 52.21264 | 21.58869 | 119° | 22km/h | 19891m | 4.0m/s | 0°C | 0% | 0hPa | 0V | 00:00:00 | 00:00:00 | 00:00:00 | |
| KRY50SP | 2026-09-03 12:18:21 | 52.21264 | 21.58869 | 120° | 26km/h | 19891m | 4.1m/s | -51.0°C | 1.0% | 59.1hPa | 0V | 00:00:00 | 00:00:00 | 00:00:00 | |
| SP3WXH-11 | 2026-09-03 12:18:18 | 52.21272 | 21.58827 | 96° | 24km/h | 19863m | 5.9m/s | -51.1°C | 1.0% | 59.3hPa | 0V | 00:00:00 | 00:00:00 | 00:00:00 | |
| KRY50SP | 2026-09-03 12:18:15 | 52.21273 | 21.58816 | 97° | 29km/h | 19857m | 5.5m/s | -51.1°C | 1.0% | 59.4hPa | 0V | 00:00:00 | 00:00:00 | 00:00:00 | |
| SP4MAZ | 2026-09-03 12:18:10 | 52.21279 | 21.58748 | 103° | 27km/h | 19824m | 5.4m/s | -51.0°C | 1.0% | 59.7hPa | 0V | 00:00:00 | 00:00:00 | 00:00:00 | |
| KRY50SP | 2026-09-03 12:18:09 | 52.21279 | 21.58748 | 103° | 27km/h | 19824m | 5.4m/s | -51.0°C | 1.0% | 59.7hPa | 0V | 00:00:00 | 00:00:00 | 00:00:00 | |
| KRY50SP | 2026-09-03 12:18:04 | 52.21284 | 21.58678 | 105° | 29km/h | 19791m | 4.4m/s | -50.8°C | 0.9% | 60.0hPa | 0V | 00:00:00 | 00:00:00 | 00:00:00 | |
| KRY50SP | 2026-09-03 12:17:59 | 52.21289 | 21.58625 | 106° | 29km/h | 19763m | 5.0m/s | -50.9°C | 0.9% | 60.3hPa | 0V | 00:00:00 | 00:00:00 | 00:00:00 | |
| KRY50SP | 2026-09-03 12:17:52 | 52.21304 | 21.58557 | 116° | 33km/h | 19729m | 4.7m/s | -51.0°C | 1.0% | 60.6hPa | 0V | 00:00:00 | 00:00:00 | 00:00:00 | |
| KRY50SP | 2026-09-03 12:17:47 | 52.21331 | 21.58494 | 121° | 27km/h | 19693m | 6.5m/s | -51.1°C | 0.9% | 60.9hPa | 0V | 00:00:00 | 00:00:00 | 00:00:00 | |
| KRY50SP | 2026-09-03 12:17:41 | 52.21340 | 21.58443 | 101° | 24km/h | 19664m | 6.8m/s | -51.2°C | 0.9% | 61.2hPa | 0V | 00:00:00 | 00:00:00 | 00:00:00 | |
| SP4MAZ | 2026-09-03 12:17:40 | 52.21341 | 21.58434 | 102° | 20km/h | 19658m | 5.3m/s | -51.2°C | 0.9% | 61.2hPa | 0V | 00:00:00 | 00:00:00 | 00:00:00 | |
| KRY50SP | 2026-09-03 12:17:35 | 52.21353 | 21.58394 | 138° | 18km/h | 19629m | 5.2m/s | -51.3°C | 1.0% | 61.5hPa | 0V | 00:00:00 | 00:00:00 | 00:00:00 | |
| KRY50SP | 2026-09-03 12:17:30 | 52.21361 | 21.58356 | 92° | 16km/h | 19598m | 4.3m/s | -51.3°C | 1.0% | 61.8hPa | 0V | 00:00:00 | 00:00:00 | 00:00:00 | |
| KRY50SP | 2026-09-03 12:17:24 | 52.21367 | 21.58306 | 118° | 22km/h | 19566m | 5.1m/s | -51.7°C | 1.0% | 62.1hPa | 0V | 00:00:00 | 00:00:00 | 00:00:00 | |
| SP4MAZ | 2026-09-03 12:17:17 | 52.21380 | 21.58253 | 98° | 22km/h | 19533m | 5.2m/s | -51.9°C | 1.0% | 62.4hPa | 0V | 00:00:00 | 00:00:00 | 00:00:00 | |
| SP3WXH-11 | 2026-09-03 12:17:16 | 52.21382 | 21.58221 | 96° | 27km/h | 19517m | 5.6m/s | -51.9°C | 1.0% | 62.6hPa | 0V | 00:00:00 | 00:00:00 | 00:00:00 | |
| KRY50SP | 2026-09-03 12:17:11 | 52.21386 | 21.58190 | 107° | 26km/h | 19501m | 5.0m/s | -52.0°C | 1.0% | 62.7hPa | 0V | 00:00:00 | 00:00:00 | 00:00:00 | |
| KRY50SP | 2026-09-03 12:17:06 | 52.21390 | 21.58132 | 70° | 18km/h | 19468m | 6.1m/s | -52.0°C | 1.0% | 63.0hPa | 0V | 00:00:00 | 00:00:00 | 00:00:00 | |
| KRY50SP | 2026-09-03 12:16:59 | 52.21378 | 21.58088 | 75° | 22km/h | 19433m | 5.4m/s | -51.9°C | 1.0% | 63.4hPa | 0V | 00:00:00 | 00:00:00 | 00:00:00 | |
| KRY50SP | 2026-09-03 12:16:54 | 52.21375 | 21.58050 | 82° | 18km/h | 19406m | 5.7m/s | -51.8°C | 1.0% | 63.7hPa | 0V | 00:00:00 | 00:00:00 | 00:00:00 | |
| KRY50SP | 2026-09-03 12:16:49 | 52.21366 | 21.58019 | 57° | 16km/h | 19373m | 5.1m/s | -51.6°C | 1.0% | 64.0hPa | 0V | 00:00:00 | 00:00:00 | 00:00:00 | |
| SP4MAZ | 2026-09-03 12:16:47 | 52.21364 | 21.58012 | 73° | 18km/h | 19368m | 3.8m/s | -51.6°C | 1.0% | 64.1hPa | 0V | 00:00:00 | 00:00:00 | 00:00:00 | |
| SP3WXH-11 | 2026-09-03 12:16:45 | 52.21363 | 21.57983 | 89° | 20km/h | 19347m | 6.5m/s | -51.7°C | 1.0% | 64.3hPa | 0V | 00:00:00 | 00:00:00 | 00:00:00 | |
| KRY50SP | 2026-09-03 12:16:43 | 52.21363 | 21.57974 | 92° | 24km/h | 19342m | 4.4m/s | -51.8°C | 1.0% | 64.3hPa | 0V | 00:00:00 | 00:00:00 | 00:00:00 | |
| KRY50SP | 2026-09-03 12:16:38 | 52.21368 | 21.57923 | 92° | 26km/h | 19314m | 5.3m/s | -51.7°C | 1.0% | 64.6hPa | 0V | 00:00:00 | 00:00:00 | 00:00:00 | |
| SP4MAZ | 2026-09-03 12:16:27 | 52.21363 | 21.57830 | 84° | 24km/h | 19260m | 5.2m/s | -51.7°C | 1.0% | 65.1hPa | 0V | 00:00:00 | 00:00:00 | 00:00:00 | |
| KRY50SP | 2026-09-03 12:16:25 | 52.21362 | 21.57812 | 75° | 20km/h | 19249m | 5.3m/s | -51.6°C | 1.0% | 65.3hPa | 0V | 00:00:00 | 00:00:00 | 00:00:00 | |
| KRY50SP | 2026-09-03 12:16:19 | 52.21355 | 21.57763 | 89° | 22km/h | 19214m | 6.0m/s | -51.4°C | 1.0% | 65.6hPa | 0V | 00:00:00 | 00:00:00 | 00:00:00 | |
| KRY50SP | 2026-09-03 12:16:14 | 52.21355 | 21.57717 | 86° | 24km/h | 19186m | 5.7m/s | -51.2°C | 1.0% | 65.9hPa | 0V | 00:00:00 | 00:00:00 | 00:00:00 | |
| SP3WXH-11 | 2026-09-03 12:16:13 | 52.21356 | 21.57698 | 99° | 22km/h | 19173m | 4.9m/s | -51.2°C | 1.0% | 66.0hPa | 0V | 00:00:00 | 00:00:00 | 00:00:00 | |
| KRY50SP | 2026-09-03 12:16:09 | 52.21355 | 21.57669 | 81° | 16km/h | 19149m | 6.3m/s | -51.2°C | 1.0% | 66.3hPa | 0V | 00:00:00 | 00:00:00 | 00:00:00 | |
| SP4MAZ | 2026-09-03 12:16:06 | 52.21352 | 21.57656 | 63° | 20km/h | 19137m | 6.8m/s | -51.3°C | 1.0% | 66.4hPa | 0V | 00:00:00 | 00:00:00 | 00:00:00 | |
| KRY50SP | 2026-09-03 12:16:04 | 52.21345 | 21.57629 | 83° | 27km/h | 19120m | 6.1m/s | -51.3°C | 1.0% | 66.5hPa | 0V | 00:00:00 | 00:00:00 | 00:00:00 | |
| KRY50SP | 2026-09-03 12:15:57 | 52.21342 | 21.57562 | 99° | 26km/h | 19085m | 5.8m/s | -51.3°C | 1.0% | 66.9hPa | 0V | 00:00:00 | 00:00:00 | 00:00:00 | |
| KRY50SP | 2026-09-03 12:15:51 | 52.21343 | 21.57506 | 86° | 29km/h | 19051m | 4.2m/s | -51.2°C | 1.0% | 67.2hPa | 0V | 00:00:00 | 00:00:00 | 00:00:00 | |
| KRY50SP | 2026-09-03 12:15:45 | 52.21333 | 21.57429 | 83° | 31km/h | 19018m | 4.7m/s | -51.2°C | 1.0% | 67.6hPa | 0V | 00:00:00 | 00:00:00 | 00:00:00 | |
| SP4MAZ | 2026-09-03 12:15:44 | 52.21331 | 21.57417 | 78° | 29km/h | 19013m | 6.0m/s | -51.2°C | 1.0% | 67.6hPa | 0V | 00:00:00 | 00:00:00 | 00:00:00 | |
| KRY50SP | 2026-09-03 12:15:41 | 52.21326 | 21.57379 | 88° | 24km/h | 18990m | 4.3m/s | -51.2°C | 1.0% | 67.9hPa | 0V | 00:00:00 | 00:00:00 | 00:00:00 | |
| KRY50SP | 2026-09-03 12:15:36 | 52.21313 | 21.57329 | 70° | 31km/h | 18962m | 5.6m/s | -51.3°C | 1.0% | 68.2hPa | 0V | 00:00:00 | 00:00:00 | 00:00:00 | |
| KRY50SP | 2026-09-03 12:15:29 | 52.21298 | 21.57260 | 73° | 22km/h | 18929m | 5.2m/s | -51.1°C | 1.0% | 68.5hPa | 0V | 00:00:00 | 00:00:00 | 00:00:00 | |
| KRY50SP | 2026-09-03 12:15:24 | 52.21289 | 21.57217 | 79° | 26km/h | 18895m | 3.5m/s | -50.9°C | 1.0% | 68.9hPa | 0V | 00:00:00 | 00:00:00 | 00:00:00 | |
| KRY50SP | 2026-09-03 12:15:18 | 52.21278 | 21.57153 | 80° | 18km/h | 18863m | 5.2m/s | -50.8°C | 1.0% | 69.2hPa | 0V | 00:00:00 | 00:00:00 | 00:00:00 | |
| KRY50SP | 2026-09-03 12:15:12 | 52.21271 | 21.57106 | 96° | 24km/h | 18830m | 5.9m/s | -50.9°C | 1.0% | 69.5hPa | 0V | 00:00:00 | 00:00:00 | 00:00:00 | |
| SP3WXH-11 | 2026-09-03 12:15:11 | 52.21272 | 21.57097 | 97° | 24km/h | 18824m | 4.6m/s | -50.9°C | 1.0% | 69.6hPa | 0V | 00:00:00 | 00:00:00 | 00:00:00 | |
| KRY50SP | 2026-09-03 12:15:05 | 52.21277 | 21.57045 | 95° | 26km/h | 18798m | 4.1m/s | -50.8°C | 1.0% | 69.9hPa | 0V | 00:00:00 | 00:00:00 | 00:00:00 | |
| SP4MAZ | 2026-09-03 12:15:04 | 52.21277 | 21.57034 | 90° | 26km/h | 18793m | 5.8m/s | -50.8°C | 1.0% | 69.9hPa | 0V | 00:00:00 | 00:00:00 | 00:00:00 | |
| KRY50SP | 2026-09-03 12:15:01 | 52.21273 | 21.56999 | 89° | 18km/h | 18772m | 6.0m/s | -50.8°C | 1.0% | 70.2hPa | 0V | 00:00:00 | 00:00:00 | 00:00:00 | |
| KRY50SP | 2026-09-03 12:14:54 | 52.21280 | 21.56947 | 106° | 26km/h | 18740m | 5.0m/s | -51.0°C | 1.0% | 70.5hPa | 0V | 00:00:00 | 00:00:00 | 00:00:00 | |
| KRY50SP | 2026-09-03 12:14:49 | 52.21284 | 21.56890 | 106° | 20km/h | 18707m | 4.8m/s | -51.1°C | 1.0% | 70.9hPa | 0V | 00:00:00 | 00:00:00 | 00:00:00 | |
| KRY50SP | 2026-09-03 12:14:44 | 52.21293 | 21.56857 | 123° | 15km/h | 18680m | 4.4m/s | -51.2°C | 1.0% | 71.2hPa | 0V | 00:00:00 | 00:00:00 | 00:00:00 | |
| SP3WXH-11 | 2026-09-03 12:14:40 | 52.21298 | 21.56831 | 90° | 18km/h | 18658m | 5.5m/s | -51.5°C | 1.0% | 71.4hPa | 0V | 00:00:00 | 00:00:00 | 00:00:00 | |
| KRY50SP | 2026-09-03 12:14:38 | 52.21298 | 21.56812 | 87° | 27km/h | 18648m | 5.4m/s | -51.5°C | 1.0% | 71.5hPa | 0V | 00:00:00 | 00:00:00 | 00:00:00 | |
| KRY50SP | 2026-09-03 12:14:32 | 52.21297 | 21.56749 | 107° | 33km/h | 18621m | 4.6m/s | -51.7°C | 1.0% | 71.8hPa | 0V | 00:00:00 | 00:00:00 | 00:00:00 | |
| KRY50SP | 2026-09-03 12:14:27 | 52.21309 | 21.56680 | 117° | 26km/h | 18589m | 4.0m/s | -52.1°C | 1.1% | 72.2hPa | 0V | 00:00:00 | 00:00:00 | 00:00:00 | |
| KRY50SP | 2026-09-03 12:14:21 | 52.21313 | 21.56623 | 94° | 31km/h | 18563m | 5.8m/s | -52.1°C | 1.0% | 72.5hPa | 0V | 00:00:00 | 00:00:00 | 00:00:00 | |
| KRY50SP | 2026-09-03 12:14:16 | 52.21312 | 21.56568 | 90° | 24km/h | 18535m | 6.5m/s | -52.0°C | 1.1% | 72.8hPa | 0V | 00:00:00 | 00:00:00 | 00:00:00 | |
| KRY50SP | 2026-09-03 12:14:11 | 52.21313 | 21.56525 | 97° | 13km/h | 18503m | 6.2m/s | -51.8°C | 1.1% | 73.1hPa | 0V | 00:00:00 | 00:00:00 | 00:00:00 | |
| SP4MAZ | 2026-09-03 12:14:10 | 52.21313 | 21.56525 | 97° | 13km/h | 18503m | 6.2m/s | -51.8°C | 1.1% | 73.1hPa | 0V | 00:00:00 | 00:00:00 | 00:00:00 | |
| SP3WXH-11 | 2026-09-03 12:14:09 | 52.21314 | 21.56513 | 92° | 15km/h | 18492m | 4.6m/s | -51.7°C | 1.1% | 73.2hPa | 0V | 00:00:00 | 00:00:00 | 00:00:00 | |
| KRY50SP | 2026-09-03 12:14:05 | 52.21314 | 21.56491 | 98° | 22km/h | 18475m | 5.7m/s | -51.5°C | 1.0% | 73.4hPa | 0V | 00:00:00 | 00:00:00 | 00:00:00 | |
| KRY50SP | 2026-09-03 12:14:00 | 52.21319 | 21.56436 | 114° | 15km/h | 18445m | 6.3m/s | -51.3°C | 1.0% | 73.8hPa | 0V | 00:00:00 | 00:00:00 | 00:00:00 | |
| KRY50SP | 2026-09-03 12:13:53 | 52.21326 | 21.56413 | 116° | 15km/h | 18414m | 4.8m/s | -51.1°C | 1.0% | 74.2hPa | 0V | 00:00:00 | 00:00:00 | 00:00:00 | |
| SP4MAZ | 2026-09-03 12:13:50 | 52.21332 | 21.56387 | 111° | 20km/h | 18395m | 5.9m/s | -51.2°C | 1.0% | 74.4hPa | 0V | 00:00:00 | 00:00:00 | 00:00:00 | |
| KRY50SP | 2026-09-03 12:13:48 | 52.21336 | 21.56370 | 112° | 24km/h | 18384m | 5.0m/s | -51.1°C | 1.0% | 74.5hPa | 0V | 00:00:00 | 00:00:00 | 00:00:00 | |
| KRY50SP | 2026-09-03 12:13:42 | 52.21350 | 21.56327 | 127° | 15km/h | 18351m | 5.9m/s | -51.0°C | 1.1% | 74.9hPa | 0V | 00:00:00 | 00:00:00 | 00:00:00 | |
| SP3WXH-11 | 2026-09-03 12:13:38 | 52.21361 | 21.56307 | 133° | 20km/h | 18330m | 4.5m/s | -51.0°C | 1.0% | 75.1hPa | 0V | 00:00:00 | 00:00:00 | 00:00:00 | |
| KRY50SP | 2026-09-03 12:13:37 | 52.21364 | 21.56301 | 129° | 22km/h | 18325m | 6.1m/s | -51.0°C | 1.0% | 75.2hPa | 0V | 00:00:00 | 00:00:00 | 00:00:00 | |
| KRY50SP | 2026-09-03 12:13:31 | 52.21388 | 21.56258 | 128° | 22km/h | 18293m | 5.0m/s | -51.1°C | 1.0% | 75.6hPa | 0V | 00:00:00 | 00:00:00 | 00:00:00 | |
| SP4MAZ | 2026-09-03 12:13:28 | 52.21396 | 21.56244 | 141° | 26km/h | 18283m | 6.5m/s | -51.1°C | 1.0% | 75.7hPa | 0V | 00:00:00 | 00:00:00 | 00:00:00 | |
| KRY50SP | 2026-09-03 12:13:26 | 52.21412 | 21.56225 | 145° | 27km/h | 18267m | 4.2m/s | -51.0°C | 1.0% | 75.9hPa | 0V | 00:00:00 | 00:00:00 | 00:00:00 | |
| KRY50SP | 2026-09-03 12:13:19 | 52.21445 | 21.56186 | 139° | 26km/h | 18237m | 4.6m/s | -51.2°C | 1.0% | 76.2hPa | 0V | 00:00:00 | 00:00:00 | 00:00:00 | |
| KRY50SP | 2026-09-03 12:13:13 | 52.21474 | 21.56136 | 129° | 35km/h | 18204m | 4.6m/s | -51.2°C | 1.0% | 76.6hPa | 0V | 00:00:00 | 00:00:00 | 00:00:00 | |
| KRY50SP | 2026-09-03 12:13:08 | 52.21507 | 21.56077 | 129° | 42km/h | 18179m | 4.7m/s | -51.3°C | 1.0% | 76.9hPa | 0V | 00:00:00 | 00:00:00 | 00:00:00 | |
| SP3WXH-11 | 2026-09-03 12:13:07 | 52.21520 | 21.56051 | 128° | 38km/h | 18171m | 6.3m/s | -51.2°C | 1.0% | 77.0hPa | 0V | 00:00:00 | 00:00:00 | 00:00:00 | |
| SQ9EZE-14 | 2026-09-03 12:13:06 | 52.21520 | 21.56051 | 129° | 38km/h | 18171m | 6.3m/s | 0°C | 0% | 0hPa | 0V | 00:00:00 | 00:00:00 | 00:00:00 | |
| KRY50SP | 2026-09-03 12:13:02 | 52.21541 | 21.56000 | 118° | 37km/h | 18150m | 5.7m/s | -51.1°C | 1.0% | 77.3hPa | 0V | 00:00:00 | 00:00:00 | 00:00:00 | |
| SP4MAZ | 2026-09-03 12:12:58 | 52.21557 | 21.55949 | 112° | 37km/h | 18128m | 6.7m/s | -51.0°C | 1.0% | 77.5hPa | 0V | 00:00:00 | 00:00:00 | 00:00:00 | |
| KRY50SP | 2026-09-03 12:12:51 | 52.21586 | 21.55834 | 117° | 38km/h | 18085m | 4.5m/s | -51.0°C | 1.0% | 78.0hPa | 0V | 00:00:00 | 00:00:00 | 00:00:00 | |
| KRY50SP | 2026-09-03 12:12:44 | 52.21610 | 21.55741 | 111° | 46km/h | 18054m | 6.1m/s | -51.1°C | 1.0% | 78.4hPa | 0V | 00:00:00 | 00:00:00 | 00:00:00 | |
| KRY50SP | 2026-09-03 12:12:39 | 52.21630 | 21.55638 | 102° | 40km/h | 18025m | 6.0m/s | -51.0°C | 1.0% | 78.8hPa | 0V | 00:00:00 | 00:00:00 | 00:00:00 | |
| SP4MAZ | 2026-09-03 12:12:36 | 52.21636 | 21.55592 | 100° | 37km/h | 18009m | 5.1m/s | -50.9°C | 1.0% | 79.0hPa | 0V | 00:00:00 | 00:00:00 | 00:00:00 | |
| KRY50SP | 2026-09-03 12:12:32 | 52.21640 | 21.55544 | 96° | 44km/h | 17992m | 4.3m/s | -50.8°C | 1.0% | 79.2hPa | 0V | 00:00:00 | 00:00:00 | 00:00:00 | |
| KRY50SP | 2026-09-03 12:12:26 | 52.21649 | 21.55439 | 98° | 38km/h | 17962m | 6.1m/s | -50.7°C | 1.0% | 79.6hPa | 0V | 00:00:00 | 00:00:00 | 00:00:00 | |
| KRY50SP | 2026-09-03 12:12:21 | 52.21650 | 21.55367 | 83° | 37km/h | 17936m | 3.8m/s | -50.5°C | 1.0% | 79.9hPa | 0V | 00:00:00 | 00:00:00 | 00:00:00 | |
| KRY50SP | 2026-09-03 12:12:15 | 52.21648 | 21.55278 | 92° | 42km/h | 17905m | 4.5m/s | -50.2°C | 1.0% | 80.3hPa | 0V | 00:00:00 | 00:00:00 | 00:00:00 | |
| KRY50SP | 2026-09-03 12:12:10 | 52.21651 | 21.55182 | 95° | 35km/h | 17874m | 6.4m/s | -50.0°C | 1.0% | 80.7hPa | 0V | 00:00:00 | 00:00:00 | 00:00:00 | |
| SP3WXH-11 | 2026-09-03 12:12:05 | 52.21656 | 21.55110 | 95° | 37km/h | 17849m | 5.3m/s | -49.9°C | 1.0% | 81.0hPa | 0V | 00:00:00 | 00:00:00 | 00:00:00 | |
| KRY50SP | 2026-09-03 12:12:04 | 52.21656 | 21.55110 | 96° | 37km/h | 17849m | 5.3m/s | -49.9°C | 1.0% | 81.0hPa | 0V | 00:00:00 | 00:00:00 | 00:00:00 | |
| KRY50SP | 2026-09-03 12:11:59 | 52.21662 | 21.55022 | 101° | 35km/h | 17816m | 6.7m/s | -49.9°C | 0.9% | 81.4hPa | 0V | 00:00:00 | 00:00:00 | 00:00:00 | |
| KRY50SP | 2026-09-03 12:11:54 | 52.21670 | 21.54951 | 106° | 37km/h | 17789m | 6.5m/s | -50.1°C | 1.0% | 81.8hPa | 0V | 00:00:00 | 00:00:00 | 00:00:00 | |
| SP4MAZ | 2026-09-03 12:11:48 | 52.21684 | 21.54865 | 108° | 37km/h | 17755m | 4.2m/s | -50.3°C | 1.0% | 82.2hPa | 0V | 00:00:00 | 00:00:00 | 00:00:00 | |
| KRY50SP | 2026-09-03 12:11:47 | 52.21684 | 21.54865 | 108° | 37km/h | 17755m | 4.2m/s | -50.3°C | 1.0% | 82.2hPa | 0V | 00:00:00 | 00:00:00 | 00:00:00 | |
| KRY50SP | 2026-09-03 12:11:42 | 52.21697 | 21.54783 | 113° | 44km/h | 17727m | 4.6m/s | -50.6°C | 1.0% | 82.5hPa | 0V | 00:00:00 | 00:00:00 | 00:00:00 | |
| KRY50SP | 2026-09-03 12:11:36 | 52.21720 | 21.54673 | 105° | 49km/h | 17695m | 4.2m/s | -50.8°C | 1.0% | 82.9hPa | 0V | 00:00:00 | 00:00:00 | 00:00:00 | |
| SP3WXH-11 | 2026-09-03 12:11:34 | 52.21727 | 21.54609 | 98° | 53km/h | 17679m | 4.9m/s | -50.8°C | 1.0% | 83.1hPa | 0V | 00:00:00 | 00:00:00 | 00:00:00 | |
| KRY50SP | 2026-09-03 12:11:31 | 52.21732 | 21.54566 | 103° | 51km/h | 17668m | 4.7m/s | -50.7°C | 1.0% | 83.2hPa | 0V | 00:00:00 | 00:00:00 | 00:00:00 | |
| SP4MAZ | 2026-09-03 12:11:28 | 52.21741 | 21.54485 | 99° | 46km/h | 17647m | 5.1m/s | -50.8°C | 1.0% | 83.5hPa | 0V | 00:00:00 | 00:00:00 | 00:00:00 | |
| KRY50SP | 2026-09-03 12:11:25 | 52.21744 | 21.54449 | 99° | 42km/h | 17636m | 4.7m/s | -50.9°C | 1.0% | 83.6hPa | 0V | 00:00:00 | 00:00:00 | 00:00:00 | |
| KRY50SP | 2026-09-03 12:11:19 | 52.21757 | 21.54345 | 112° | 44km/h | 17605m | 4.3m/s | -51.6°C | 1.1% | 84.0hPa | 0V | 00:00:00 | 00:00:00 | 00:00:00 | |
| KRY50SP | 2026-09-03 12:11:13 | 52.21770 | 21.54230 | 97° | 44km/h | 17574m | 4.9m/s | -51.4°C | 1.0% | 84.4hPa | 0V | 00:00:00 | 00:00:00 | 00:00:00 | |
| SP4MAZ | 2026-09-03 12:11:07 | 52.21772 | 21.54119 | 99° | 42km/h | 17543m | 4.2m/s | -51.4°C | 1.1% | 84.8hPa | 0V | 00:00:00 | 00:00:00 | 00:00:00 | |
| SP3WXH-11 | 2026-09-03 12:11:03 | 52.21779 | 21.54037 | 103° | 38km/h | 17516m | 5.6m/s | -51.2°C | 1.0% | 85.2hPa | 0V | 00:00:00 | 00:00:00 | 00:00:00 | |
| KRY50SP | 2026-09-03 12:11:01 | 52.21781 | 21.54021 | 102° | 40km/h | 17511m | 4.1m/s | -51.2°C | 1.1% | 85.2hPa | 0V | 00:00:00 | 00:00:00 | 00:00:00 | |
| KRY50SP | 2026-09-03 12:10:56 | 52.21790 | 21.53936 | 106° | 40km/h | 17485m | 5.1m/s | -51.1°C | 1.0% | 85.6hPa | 0V | 00:00:00 | 00:00:00 | 00:00:00 | |
| KRY50SP | 2026-09-03 12:10:50 | 52.21802 | 21.53853 | 112° | 37km/h | 17453m | 4.8m/s | -51.4°C | 1.1% | 86.0hPa | 0V | 00:00:00 | 00:00:00 | 00:00:00 | |
| KRY50SP | 2026-09-03 12:10:45 | 52.21820 | 21.53771 | 116° | 49km/h | 17422m | 4.7m/s | -51.3°C | 1.1% | 86.4hPa | 0V | 00:00:00 | 00:00:00 | 00:00:00 | |
| SP4MAZ | 2026-09-03 12:10:44 | 52.21825 | 21.53752 | 110° | 49km/h | 17417m | 5.0m/s | -51.3°C | 1.1% | 86.5hPa | 0V | 00:00:00 | 00:00:00 | 00:00:00 | |
| KRY50SP | 2026-09-03 12:10:39 | 52.21839 | 21.53656 | 99° | 44km/h | 17390m | 4.6m/s | -51.2°C | 1.0% | 86.8hPa | 0V | 00:00:00 | 00:00:00 | 00:00:00 | |
| KRY50SP | 2026-09-03 12:10:33 | 52.21846 | 21.53564 | 107° | 40km/h | 17358m | 4.2m/s | -51.1°C | 1.0% | 87.2hPa | 0V | 00:00:00 | 00:00:00 | 00:00:00 | |
| SP3WXH-11 | 2026-09-03 12:10:32 | 52.21852 | 21.53530 | 105° | 44km/h | 17347m | 5.8m/s | -51.0°C | 1.0% | 87.4hPa | 0V | 00:00:00 | 00:00:00 | 00:00:00 | |
| KRY50SP | 2026-09-03 12:10:28 | 52.21860 | 21.53479 | 101° | 42km/h | 17331m | 4.7m/s | -51.0°C | 1.0% | 87.7hPa | 0V | 00:00:00 | 00:00:00 | 00:00:00 | |
| KRY50SP | 2026-09-03 12:10:23 | 52.21857 | 21.53384 | 87° | 37km/h | 17300m | 5.2m/s | -51.1°C | 1.0% | 88.1hPa | 0V | 00:00:00 | 00:00:00 | 00:00:00 | |
| SP4MAZ | 2026-09-03 12:10:18 | 52.21860 | 21.53318 | 101° | 40km/h | 17280m | 5.5m/s | -51.3°C | 1.0% | 88.3hPa | 0V | 00:00:00 | 00:00:00 | 00:00:00 | |
| KRY50SP | 2026-09-03 12:10:16 | 52.21862 | 21.53285 | 93° | 42km/h | 17270m | 4.6m/s | -51.5°C | 1.1% | 88.5hPa | 0V | 00:00:00 | 00:00:00 | 00:00:00 | |
| KRY50SP | 2026-09-03 12:10:10 | 52.21858 | 21.53180 | 82° | 38km/h | 17238m | 6.2m/s | -51.4°C | 1.1% | 88.9hPa | 0V | 00:00:00 | 00:00:00 | 00:00:00 | |
| KRY50SP | 2026-09-03 12:10:05 | 52.21852 | 21.53104 | 82° | 38km/h | 17211m | 6.7m/s | -51.3°C | 1.1% | 89.2hPa | 0V | 00:00:00 | 00:00:00 | 00:00:00 | |
| SP3WXH-11 | 2026-09-03 12:10:01 | 52.21844 | 21.53023 | 80° | 40km/h | 17182m | 6.2m/s | -51.1°C | 1.1% | 89.7hPa | 0V | 00:00:00 | 00:00:00 | 00:00:00 | |
| KRY50SP | 2026-09-03 12:09:59 | 52.21842 | 21.53007 | 82° | 40km/h | 17178m | 3.8m/s | -51.1°C | 1.1% | 89.7hPa | 0V | 00:00:00 | 00:00:00 | 00:00:00 | |
| SP4MAZ | 2026-09-03 12:09:58 | 52.21841 | 21.52991 | 85° | 37km/h | 17172m | 6.2m/s | -51.1°C | 1.1% | 89.8hPa | 0V | 00:00:00 | 00:00:00 | 00:00:00 | |
| KRY50SP | 2026-09-03 12:09:53 | 52.21833 | 21.52923 | 75° | 33km/h | 17147m | 4.9m/s | -50.9°C | 1.1% | 90.1hPa | 0V | 00:00:00 | 00:00:00 | 00:00:00 | |
| KRY50SP | 2026-09-03 12:09:48 | 52.21821 | 21.52849 | 82° | 29km/h | 17117m | 5.7m/s | -50.9°C | 1.1% | 90.6hPa | 0V | 00:00:00 | 00:00:00 | 00:00:00 | |
| KRY50SP | 2026-09-03 12:09:41 | 52.21814 | 21.52776 | 87° | 27km/h | 17087m | 4.1m/s | -50.7°C | 1.1% | 91.0hPa | 0V | 00:00:00 | 00:00:00 | 00:00:00 | |
| KRY50SP | 2026-09-03 12:09:36 | 52.21813 | 21.52714 | 98° | 33km/h | 17062m | 5.2m/s | -50.6°C | 1.0% | 91.3hPa | 0V | 00:00:00 | 00:00:00 | 00:00:00 | |
| KRY50SP | 2026-09-03 12:09:31 | 52.21815 | 21.52640 | 97° | 31km/h | 17030m | 3.9m/s | -50.8°C | 1.0% | 91.7hPa | 0V | 00:00:00 | 00:00:00 | 00:00:00 | |
| SP3WXH-11 | 2026-09-03 12:09:30 | 52.21816 | 21.52627 | 92° | 29km/h | 17025m | 6.1m/s | -50.9°C | 1.0% | 91.8hPa | 0V | 00:00:00 | 00:00:00 | 00:00:00 | |
| SP4MAZ | 2026-09-03 12:09:29 | 52.21816 | 21.52627 | 94° | 29km/h | 17026m | 6.1m/s | -50.9°C | 1.0% | 91.8hPa | 0V | 00:00:00 | 00:00:00 | 00:00:00 | |
| KRY50SP | 2026-09-03 12:09:26 | 52.21821 | 21.52575 | 104° | 35km/h | 17004m | 5.3m/s | -51.0°C | 1.1% | 92.1hPa | 0V | 00:00:00 | 00:00:00 | 00:00:00 | |
| KRY50SP | 2026-09-03 12:09:19 | 52.21840 | 21.52486 | 110° | 38km/h | 16970m | 5.2m/s | -51.0°C | 1.1% | 92.6hPa | 0V | 00:00:00 | 00:00:00 | 00:00:00 | |
| KRY50SP | 2026-09-03 12:09:13 | 52.21856 | 21.52403 | 104° | 37km/h | 16938m | 4.7m/s | -51.2°C | 1.1% | 93.1hPa | 0V | 00:00:00 | 00:00:00 | 00:00:00 | |
| KRY50SP | 2026-09-03 12:09:08 | 52.21871 | 21.52307 | 109° | 47km/h | 16904m | 5.8m/s | -51.4°C | 1.1% | 93.6hPa | 0V | 00:00:00 | 00:00:00 | 00:00:00 | |
| SP4MAZ | 2026-09-03 12:09:07 | 52.21874 | 21.52288 | 109° | 49km/h | 16898m | 4.7m/s | -51.5°C | 1.1% | 93.6hPa | 0V | 00:00:00 | 00:00:00 | 00:00:00 | |
| KRY50SP | 2026-09-03 12:09:02 | 52.21888 | 21.52208 | 105° | 49km/h | 16877m | 5.9m/s | -51.5°C | 1.1% | 94.0hPa | 0V | 00:00:00 | 00:00:00 | 00:00:00 | |
| SP3WXH-11 | 2026-09-03 12:08:59 | 52.21898 | 21.52111 | 98° | 46km/h | 16850m | 5.2m/s | -51.7°C | 1.1% | 94.3hPa | 0V | 00:00:00 | 00:00:00 | 00:00:00 | |
| KRY50SP | 2026-09-03 12:08:56 | 52.21899 | 21.52091 | 100° | 47km/h | 16845m | 4.6m/s | -51.7°C | 1.1% | 94.4hPa | 0V | 00:00:00 | 00:00:00 | 00:00:00 | |
| KRY50SP | 2026-09-03 12:08:51 | 52.21908 | 21.51993 | 100° | 47km/h | 16818m | 5.3m/s | -51.8°C | 1.1% | 94.8hPa | 0V | 00:00:00 | 00:00:00 | 00:00:00 | |
| KRY50SP | 2026-09-03 12:08:46 | 52.21914 | 21.51895 | 95° | 40km/h | 16784m | 5.5m/s | -52.0°C | 1.2% | 95.3hPa | 0V | 00:00:00 | 00:00:00 | 00:00:00 | |
| KRY50SP | 2026-09-03 12:08:40 | 52.21926 | 21.51801 | 100° | 38km/h | 16754m | 5.7m/s | -51.9°C | 1.1% | 95.7hPa | 0V | 00:00:00 | 00:00:00 | 00:00:00 | |
| KRY50SP | 2026-09-03 12:08:33 | 52.21935 | 21.51723 | 108° | 31km/h | 16721m | 5.6m/s | -51.9°C | 1.2% | 96.2hPa | 0V | 00:00:00 | 00:00:00 | 00:00:00 | |
| KRY50SP | 2026-09-03 12:08:29 | 52.21951 | 21.51656 | 111° | 37km/h | 16692m | 6.3m/s | -52.0°C | 1.2% | 96.6hPa | 0V | 00:00:00 | 00:00:00 | 00:00:00 | |
| SP3WXH-11 | 2026-09-03 12:08:28 | 52.21957 | 21.51628 | 108° | 35km/h | 16682m | 4.7m/s | -52.0°C | 1.2% | 96.8hPa | 0V | 00:00:00 | 00:00:00 | 00:00:00 | |
| SP4MAZ | 2026-09-03 12:08:25 | 52.21959 | 21.51615 | 108° | 33km/h | 16676m | 6.0m/s | -52.0°C | 1.2% | 96.9hPa | 0V | 00:00:00 | 00:00:00 | 00:00:00 | |
| KRY50SP | 2026-09-03 12:08:23 | 52.21964 | 21.51575 | 97° | 35km/h | 16660m | 5.1m/s | -51.9°C | 1.2% | 97.1hPa | 0V | 00:00:00 | 00:00:00 | 00:00:00 | |
| KRY50SP | 2026-09-03 12:08:17 | 52.21976 | 21.51486 | 105° | 42km/h | 16630m | 5.3m/s | -52.0°C | 1.2% | 97.5hPa | 0V | 00:00:00 | 00:00:00 | 00:00:00 | |
| KRY50SP | 2026-09-03 12:08:11 | 52.21985 | 21.51400 | 96° | 46km/h | 16603m | 5.9m/s | -52.0°C | 1.2% | 98.0hPa | 0V | 00:00:00 | 00:00:00 | 00:00:00 | |
| KRY50SP | 2026-09-03 12:08:05 | 52.21982 | 21.51301 | 94° | 38km/h | 16572m | 4.0m/s | -51.9°C | 1.2% | 98.4hPa | 0V | 00:00:00 | 00:00:00 | 00:00:00 | |
| SP3WXH-11 | 2026-09-03 12:07:57 | 52.21989 | 21.51144 | 96° | 33km/h | 16520m | 5.2m/s | -51.8°C | 1.2% | 99.2hPa | 0V | 00:00:00 | 00:00:00 | 00:00:00 | |
| SP4MAZ | 2026-09-03 12:07:56 | 52.21989 | 21.51143 | 97° | 33km/h | 16520m | 5.2m/s | -51.8°C | 1.2% | 99.2hPa | 0V | 00:00:00 | 00:00:00 | 00:00:00 | |
| KRY50SP | 2026-09-03 12:07:54 | 52.21990 | 21.51130 | 101° | 37km/h | 16515m | 4.6m/s | -51.8°C | 1.2% | 99.3hPa | 0V | 00:00:00 | 00:00:00 | 00:00:00 | |
| KRY50SP | 2026-09-03 12:07:50 | 52.21999 | 21.51052 | 105° | 38km/h | 16487m | 5.7m/s | -51.8°C | 1.2% | 99.7hPa | 0V | 00:00:00 | 00:00:00 | 00:00:00 | |
| KRY50SP | 2026-09-03 12:07:44 | 52.22011 | 21.50981 | 111° | 35km/h | 16460m | 5.2m/s | -51.7°C | 1.2% | 100.2hPa | 0V | 00:00:00 | 00:00:00 | 00:00:00 | |
| KRY50SP | 2026-09-03 12:07:38 | 52.22029 | 21.50893 | 107° | 38km/h | 16429m | 5.6m/s | -51.7°C | 1.2% | 100.6hPa | 0V | 00:00:00 | 00:00:00 | 00:00:00 | |
| SP4MAZ | 2026-09-03 12:07:34 | 52.22045 | 21.50832 | 116° | 42km/h | 16409m | 4.9m/s | -51.8°C | 1.2% | 100.9hPa | 0V | 00:00:00 | 00:00:00 | 00:00:00 | |
| KRY50SP | 2026-09-03 12:07:33 | 52.22053 | 21.50801 | 112° | 44km/h | 16398m | 4.7m/s | -51.8°C | 1.2% | 101.1hPa | 0V | 00:00:00 | 00:00:00 | 00:00:00 | |
| SP3WXH-11 | 2026-09-03 12:07:26 | 52.22085 | 21.50651 | 108° | 49km/h | 16355m | 5.3m/s | -51.6°C | 1.2% | 101.8hPa | 0V | 00:00:00 | 00:00:00 | 00:00:00 | |
| KRY50SP | 2026-09-03 12:07:22 | 52.22095 | 21.50592 | 110° | 46km/h | 16340m | 5.8m/s | -51.5°C | 1.2% | 102.0hPa | 0V | 00:00:00 | 00:00:00 | 00:00:00 | |
| KRY50SP | 2026-09-03 12:07:15 | 52.22117 | 21.50484 | 112° | 51km/h | 16308m | 4.0m/s | -51.4°C | 1.2% | 102.5hPa | 0V | 00:00:00 | 00:00:00 | 00:00:00 | |
| SP4MAZ | 2026-09-03 12:07:13 | 52.22125 | 21.50442 | 108° | 53km/h | 16298m | 4.8m/s | -51.4°C | 1.2% | 102.7hPa | 0V | 00:00:00 | 00:00:00 | 00:00:00 | |
| KRY50SP | 2026-09-03 12:07:10 | 52.22138 | 21.50380 | 112° | 51km/h | 16283m | 4.0m/s | -51.4°C | 1.2% | 102.9hPa | 0V | 00:00:00 | 00:00:00 | 00:00:00 | |
| KRY50SP | 2026-09-03 12:07:04 | 52.22164 | 21.50275 | 109° | 42km/h | 16252m | 6.1m/s | -51.6°C | 1.2% | 103.4hPa | 0V | 00:00:00 | 00:00:00 | 00:00:00 | |
| SP3WXH-11 | 2026-09-03 12:06:55 | 52.22204 | 21.50068 | 105° | 47km/h | 16196m | 4.5m/s | -52.0°C | 1.2% | 104.3hPa | 0V | 00:00:00 | 00:00:00 | 00:00:00 | |
| KRY50SP | 2026-09-03 12:06:53 | 52.22204 | 21.50068 | 107° | 49km/h | 16196m | 4.5m/s | -52.0°C | 1.2% | 104.3hPa | 0V | 00:00:00 | 00:00:00 | 00:00:00 | |
| KRY50SP | 2026-09-03 12:06:48 | 52.22229 | 21.49951 | 110° | 51km/h | 16168m | 4.8m/s | -52.1°C | 1.2% | 104.8hPa | 0V | 00:00:00 | 00:00:00 | 00:00:00 | |
| KRY50SP | 2026-09-03 12:06:42 | 52.22247 | 21.49834 | 104° | 44km/h | 16137m | 4.1m/s | -52.0°C | 1.2% | 105.3hPa | 0V | 00:00:00 | 00:00:00 | 00:00:00 | |
| SP4MAZ | 2026-09-03 12:06:39 | 52.22253 | 21.49782 | 101° | 42km/h | 16123m | 4.6m/s | -51.9°C | 1.2% | 105.5hPa | 0V | 00:00:00 | 00:00:00 | 00:00:00 | |
| KRY50SP | 2026-09-03 12:06:36 | 52.22260 | 21.49734 | 107° | 40km/h | 16109m | 3.5m/s | -51.8°C | 1.2% | 105.7hPa | 0V | 00:00:00 | 00:00:00 | 00:00:00 | |
| KRY50SP | 2026-09-03 12:06:30 | 52.22271 | 21.49638 | 103° | 38km/h | 16081m | 4.1m/s | -52.1°C | 1.2% | 106.2hPa | 0V | 00:00:00 | 00:00:00 | 00:00:00 | |
| KRY50SP | 2026-09-03 12:06:25 | 52.22282 | 21.49556 | 109° | 38km/h | 16057m | 3.8m/s | -52.1°C | 1.2% | 106.6hPa | 0V | 00:00:00 | 00:00:00 | 00:00:00 | |
| SP3WXH-11 | 2026-09-03 12:06:24 | 52.22288 | 21.49526 | 103° | 38km/h | 16049m | 5.0m/s | -52.2°C | 1.2% | 106.7hPa | 0V | 00:00:00 | 00:00:00 | 00:00:00 | |
| KRY50SP | 2026-09-03 12:06:18 | 52.22299 | 21.49462 | 103° | 37km/h | 16031m | 4.9m/s | -52.1°C | 1.2% | 107.1hPa | 0V | 00:00:00 | 00:00:00 | 00:00:00 | |
| SP4MAZ | 2026-09-03 12:06:15 | 52.22302 | 21.49417 | 95° | 40km/h | 16018m | 4.1m/s | -52.1°C | 1.2% | 107.3hPa | 0V | 00:00:00 | 00:00:00 | 00:00:00 | |
| KRY50SP | 2026-09-03 12:06:13 | 52.22306 | 21.49368 | 101° | 40km/h | 16003m | 4.3m/s | -52.0°C | 1.2% | 107.5hPa | 0V | 00:00:00 | 00:00:00 | 00:00:00 | |
| KRY50SP | 2026-09-03 12:06:07 | 52.22311 | 21.49289 | 97° | 37km/h | 15977m | 4.3m/s | -51.9°C | 1.2% | 107.9hPa | 0V | 00:00:00 | 00:00:00 | 00:00:00 | |
| KRY50SP | 2026-09-03 12:06:02 | 52.22314 | 21.49224 | 95° | 29km/h | 15952m | 4.2m/s | -51.7°C | 1.2% | 108.3hPa | 0V | 00:00:00 | 00:00:00 | 00:00:00 | |
| SP3WXH-11 | 2026-09-03 12:05:53 | 52.22320 | 21.49063 | 97° | 35km/h | 15899m | 4.8m/s | -51.4°C | 1.2% | 109.2hPa | 0V | 00:00:00 | 00:00:00 | 00:00:00 | |
| KRY50SP | 2026-09-03 12:05:50 | 52.22321 | 21.49049 | 94° | 33km/h | 15893m | 6.3m/s | -51.4°C | 1.2% | 109.3hPa | 0V | 00:00:00 | 00:00:00 | 00:00:00 | |
| KRY50SP | 2026-09-03 12:05:45 | 52.22325 | 21.48977 | 95° | 27km/h | 15863m | 4.6m/s | -51.2°C | 1.2% | 109.8hPa | 0V | 00:00:00 | 00:00:00 | 00:00:00 | |
| SP4MAZ | 2026-09-03 12:05:44 | 52.22326 | 21.48965 | 98° | 27km/h | 15858m | 6.3m/s | -51.2°C | 1.2% | 109.9hPa | 0V | 00:00:00 | 00:00:00 | 00:00:00 | |
| KRY50SP | 2026-09-03 12:05:39 | 52.22331 | 21.48919 | 101° | 26km/h | 15837m | 4.2m/s | -51.1°C | 1.2% | 110.3hPa | 0V | 00:00:00 | 00:00:00 | 00:00:00 | |
| KRY50SP | 2026-09-03 12:05:34 | 52.22338 | 21.48861 | 102° | 26km/h | 15808m | 4.2m/s | -51.2°C | 1.2% | 110.8hPa | 0V | 00:00:00 | 00:00:00 | 00:00:00 | |
| KRY50SP | 2026-09-03 12:05:27 | 52.22349 | 21.48801 | 119° | 26km/h | 15776m | 5.7m/s | -51.1°C | 1.2% | 111.3hPa | 0V | 00:00:00 | 00:00:00 | 00:00:00 | |
| KRY50SP | 2026-09-03 12:05:22 | 52.22362 | 21.48757 | 125° | 20km/h | 15745m | 4.2m/s | -51.0°C | 1.2% | 111.8hPa | 0V | 00:00:00 | 00:00:00 | 00:00:00 | |
| SP4MAZ | 2026-09-03 12:05:20 | 52.22365 | 21.48750 | 119° | 22km/h | 15740m | 5.5m/s | -51.0°C | 1.2% | 111.9hPa | 0V | 00:00:00 | 00:00:00 | 00:00:00 | |
| KRY50SP | 2026-09-03 12:05:16 | 52.22379 | 21.48701 | 117° | 27km/h | 15714m | 3.6m/s | -50.9°C | 1.2% | 112.4hPa | 0V | 00:00:00 | 00:00:00 | 00:00:00 | |
| KRY50SP | 2026-09-03 12:05:10 | 52.22398 | 21.48653 | 126° | 20km/h | 15686m | 4.3m/s | -50.9°C | 1.2% | 112.9hPa | 0V | 00:00:00 | 00:00:00 | 00:00:00 | |
| KRY50SP | 2026-09-03 12:05:03 | 52.22414 | 21.48603 | 124° | 27km/h | 15658m | 3.8m/s | -51.2°C | 1.2% | 113.4hPa | 0V | 00:00:00 | 00:00:00 | 00:00:00 | |
| SP3WXH-11 | 2026-09-03 12:04:51 | 52.22477 | 21.48428 | 124° | 38km/h | 15585m | 5.0m/s | -51.2°C | 1.2% | 114.7hPa | 0V | 00:00:00 | 00:00:00 | 00:00:00 | |
| KRY50SP | 2026-09-03 12:04:47 | 52.22488 | 21.48401 | 125° | 40km/h | 15573m | 5.9m/s | -51.1°C | 1.2% | 114.8hPa | 0V | 00:00:00 | 00:00:00 | 00:00:00 | |
| KRY50SP | 2026-09-03 12:04:42 | 52.22518 | 21.48336 | 122° | 38km/h | 15550m | 5.4m/s | -51.2°C | 1.2% | 115.2hPa | 0V | 00:00:00 | 00:00:00 | 00:00:00 | |
| SP4MAZ | 2026-09-03 12:04:39 | 52.22532 | 21.48290 | 119° | 42km/h | 15534m | 5.3m/s | -51.3°C | 1.2% | 115.6hPa | 0V | 00:00:00 | 00:00:00 | 00:00:00 | |
| KRY50SP | 2026-09-03 12:04:37 | 52.22549 | 21.48242 | 119° | 47km/h | 15520m | 6.0m/s | -51.4°C | 1.2% | 115.8hPa | 0V | 00:00:00 | 00:00:00 | 00:00:00 | |
| KRY50SP | 2026-09-03 12:04:30 | 52.22584 | 21.48140 | 116° | 51km/h | 15488m | 4.1m/s | -51.5°C | 1.2% | 116.4hPa | 0V | 00:00:00 | 00:00:00 | 00:00:00 | |
| KRY50SP | 2026-09-03 12:04:24 | 52.22616 | 21.48023 | 116° | 53km/h | 15457m | 5.8m/s | -51.7°C | 1.3% | 117.0hPa | 0V | 00:00:00 | 00:00:00 | 00:00:00 | |
| SP4MAZ | 2026-09-03 12:04:19 | 52.22645 | 21.47904 | 109° | 53km/h | 15426m | 4.7m/s | -51.6°C | 1.3% | 117.5hPa | 0V | 00:00:00 | 00:00:00 | 00:00:00 | |
| KRY50SP | 2026-09-03 12:04:14 | 52.22664 | 21.47796 | 108° | 57km/h | 15400m | 4.0m/s | -51.4°C | 1.2% | 118.0hPa | 0V | 00:00:00 | 00:00:00 | 00:00:00 | |
| KRY50SP | 2026-09-03 12:04:09 | 52.22679 | 21.47694 | 104° | 42km/h | 15376m | 3.8m/s | -51.2°C | 1.3% | 118.5hPa | 0V | 00:00:00 | 00:00:00 | 00:00:00 | |
| KRY50SP | 2026-09-03 12:04:03 | 52.22691 | 21.47604 | 102° | 46km/h | 15352m | 5.4m/s | -51.0°C | 1.2% | 118.9hPa | 0V | 00:00:00 | 00:00:00 | 00:00:00 | |
| SP3WXH-11 | 2026-09-03 12:03:49 | 52.22736 | 21.47293 | 104° | 46km/h | 15267m | 4.7m/s | -50.7°C | 1.2% | 120.4hPa | 0V | 00:00:00 | 00:00:00 | 00:00:00 | |
| KRY50SP | 2026-09-03 12:03:46 | 52.22739 | 21.47274 | 106° | 46km/h | 15263m | 5.4m/s | -50.7°C | 1.2% | 120.5hPa | 0V | 00:00:00 | 00:00:00 | 00:00:00 | |
| KRY50SP | 2026-09-03 12:03:40 | 52.22751 | 21.47169 | 100° | 44km/h | 15231m | 6.4m/s | -50.6°C | 1.2% | 121.1hPa | 0V | 00:00:00 | 00:00:00 | 00:00:00 | |
| SP4MAZ | 2026-09-03 12:03:35 | 52.22764 | 21.47057 | 106° | 47km/h | 15198m | 4.7m/s | -50.5°C | 1.2% | 121.7hPa | 0V | 00:00:00 | 00:00:00 | 00:00:00 | |
| KRY50SP | 2026-09-03 12:03:30 | 52.22776 | 21.46965 | 103° | 46km/h | 15174m | 6.0m/s | -50.5°C | 1.2% | 122.1hPa | 0V | 00:00:00 | 00:00:00 | 00:00:00 | |
| KRY50SP | 2026-09-03 12:03:23 | 52.22788 | 21.46861 | 101° | 42km/h | 15144m | 5.2m/s | -50.3°C | 1.2% | 122.7hPa | 0V | 00:00:00 | 00:00:00 | 00:00:00 | |
| KRY50SP | 2026-09-03 12:03:18 | 52.22800 | 21.46746 | 103° | 46km/h | 15111m | 5.9m/s | -50.4°C | 1.2% | 123.3hPa | 0V | 00:00:00 | 00:00:00 | 00:00:00 | |
| SP3WXH-11 | 2026-09-03 12:03:17 | 52.22803 | 21.46728 | 99° | 44km/h | 15105m | 4.7m/s | -50.3°C | 1.2% | 123.4hPa | 0V | 00:00:00 | 00:00:00 | 00:00:00 | |
| KRY50SP | 2026-09-03 12:03:11 | 52.22812 | 21.46645 | 99° | 42km/h | 15078m | 4.8m/s | -50.3°C | 1.2% | 123.9hPa | 0V | 00:00:00 | 00:00:00 | 00:00:00 | |
| KRY50SP | 2026-09-03 12:03:05 | 52.22824 | 21.46529 | 106° | 51km/h | 15048m | 6.1m/s | -50.1°C | 1.2% | 124.5hPa | 0V | 00:00:00 | 00:00:00 | 00:00:00 | |
| SP3WXH-11 | 2026-09-03 12:02:46 | 52.22875 | 21.46146 | 103° | 46km/h | 14943m | 5.1m/s | -49.5°C | 1.2% | 126.6hPa | 0V | 00:00:00 | 00:00:00 | 00:00:00 | |
| KRY50SP | 2026-09-03 12:02:42 | 52.22884 | 21.46088 | 102° | 49km/h | 14929m | 4.3m/s | -49.4°C | 1.2% | 126.9hPa | 0V | 00:00:00 | 00:00:00 | 00:00:00 | |
| KRY50SP | 2026-09-03 12:02:38 | 52.22893 | 21.45991 | 94° | 51km/h | 14903m | 4.3m/s | -49.4°C | 1.2% | 127.3hPa | 0V | 00:00:00 | 00:00:00 | 00:00:00 | |
| SP4MAZ | 2026-09-03 12:02:34 | 52.22899 | 21.45932 | 107° | 46km/h | 14887m | 4.4m/s | -49.3°C | 1.1% | 127.6hPa | 0V | 00:00:00 | 00:00:00 | 00:00:00 | |
| KRY50SP | 2026-09-03 12:02:32 | 52.22911 | 21.45878 | 111° | 49km/h | 14871m | 5.3m/s | -49.4°C | 1.2% | 128.0hPa | 0V | 00:00:00 | 00:00:00 | 00:00:00 | |
| KRY50SP | 2026-09-03 12:02:25 | 52.22930 | 21.45766 | 101° | 49km/h | 14839m | 6.5m/s | -49.6°C | 1.2% | 128.6hPa | 0V | 00:00:00 | 00:00:00 | 00:00:00 | |
| KRY50SP | 2026-09-03 12:02:20 | 52.22948 | 21.45663 | 113° | 53km/h | 14812m | 6.7m/s | -49.6°C | 1.2% | 129.1hPa | 0V | 00:00:00 | 00:00:00 | 00:00:00 | |
| SP3WXH-11 | 2026-09-03 12:02:15 | 52.22976 | 21.45537 | 108° | 51km/h | 14781m | 4.7m/s | -49.5°C | 1.2% | 129.7hPa | 0V | 00:00:00 | 00:00:00 | 00:00:00 | |
| SP4MAZ | 2026-09-03 12:02:14 | 52.22976 | 21.45537 | 109° | 51km/h | 14781m | 4.7m/s | -49.5°C | 1.2% | 129.7hPa | 0V | 00:00:00 | 00:00:00 | 00:00:00 | |
| KRY50SP | 2026-09-03 12:02:09 | 52.23000 | 21.45418 | 113° | 51km/h | 14750m | 5.0m/s | -50.0°C | 1.2% | 130.3hPa | 0V | 00:00:00 | 00:00:00 | 00:00:00 | |
| KRY50SP | 2026-09-03 12:02:03 | 52.23035 | 21.45291 | 116° | 60km/h | 14716m | 6.2m/s | -49.9°C | 1.2% | 131.0hPa | 0V | 00:00:00 | 00:00:00 | 00:00:00 | |
| KRY50SP | 2026-09-03 12:01:58 | 52.23064 | 21.45185 | 114° | 55km/h | 14693m | 4.9m/s | -50.1°C | 1.3% | 131.5hPa | 0V | 00:00:00 | 00:00:00 | 00:00:00 | |
| KRY50SP | 2026-09-03 12:01:52 | 52.23089 | 21.45057 | 106° | 55km/h | 14664m | 5.5m/s | -50.1°C | 1.3% | 132.1hPa | 0V | 00:00:00 | 00:00:00 | 00:00:00 | |
| KRY50SP | 2026-09-03 12:01:46 | 52.23112 | 21.44925 | 110° | 55km/h | 14632m | 4.1m/s | -50.1°C | 1.3% | 132.7hPa | 0V | 00:00:00 | 00:00:00 | 00:00:00 | |
| SP4MAZ | 2026-09-03 12:01:44 | 52.23121 | 21.44885 | 111° | 49km/h | 14621m | 4.9m/s | -50.0°C | 1.3% | 132.9hPa | 0V | 00:00:00 | 00:00:00 | 00:00:00 | |
| KRY50SP | 2026-09-03 12:01:39 | 52.23143 | 21.44802 | 116° | 60km/h | 14601m | 5.4m/s | -50.0°C | 1.2% | 133.3hPa | 0V | 00:00:00 | 00:00:00 | 00:00:00 | |
| KRY50SP | 2026-09-03 12:01:34 | 52.23179 | 21.44689 | 122° | 66km/h | 14574m | 4.4m/s | -49.8°C | 1.3% | 133.9hPa | 0V | 00:00:00 | 00:00:00 | 00:00:00 | |
| KRY50SP | 2026-09-03 12:01:28 | 52.23223 | 21.44554 | 117° | 62km/h | 14546m | 4.5m/s | -49.7°C | 1.3% | 134.4hPa | 0V | 00:00:00 | 00:00:00 | 00:00:00 | |
| SP4MAZ | 2026-09-03 12:01:23 | 52.23254 | 21.44440 | 115° | 60km/h | 14523m | 5.6m/s | -49.6°C | 1.3% | 135.0hPa | 0V | 00:00:00 | 00:00:00 | 00:00:00 | |
| KRY50SP | 2026-09-03 12:01:22 | 52.23260 | 21.44418 | 118° | 60km/h | 14517m | 4.7m/s | -49.6°C | 1.3% | 135.0hPa | 0V | 00:00:00 | 00:00:00 | 00:00:00 | |
| KRY50SP | 2026-09-03 12:01:18 | 52.23295 | 21.44303 | 116° | 62km/h | 14493m | 4.2m/s | -49.5°C | 1.3% | 135.6hPa | 0V | 00:00:00 | 00:00:00 | 00:00:00 | |
| SP3WXH-11 | 2026-09-03 12:01:13 | 52.23326 | 21.44179 | 112° | 62km/h | 14469m | 5.5m/s | -49.5°C | 1.3% | 136.1hPa | 0V | 00:00:00 | 00:00:00 | 00:00:00 | |
| KRY50SP | 2026-09-03 12:01:06 | 52.23364 | 21.44034 | 112° | 64km/h | 14439m | 5.0m/s | -49.5°C | 1.3% | 136.7hPa | 0V | 00:00:00 | 00:00:00 | 00:00:00 | |
| SP4MAZ | 2026-09-03 12:01:03 | 52.23386 | 21.43932 | 108° | 66km/h | 14419m | 4.7m/s | -49.7°C | 1.3% | 137.1hPa | 0V | 00:00:00 | 00:00:00 | 00:00:00 | |
| KRY50SP | 2026-09-03 12:01:00 | 52.23393 | 21.43880 | 104° | 64km/h | 14409m | 5.1m/s | -49.7°C | 1.3% | 137.3hPa | 0V | 00:00:00 | 00:00:00 | 00:00:00 | |
| KRY50SP | 2026-09-03 12:00:54 | 52.23418 | 21.43732 | 106° | 66km/h | 14380m | 4.0m/s | -49.5°C | 1.3% | 137.9hPa | 0V | 00:00:00 | 00:00:00 | 00:00:00 | |
| KRY50SP | 2026-09-03 12:00:49 | 52.23441 | 21.43610 | 106° | 55km/h | 14355m | 4.7m/s | -49.5°C | 1.3% | 138.5hPa | 0V | 00:00:00 | 00:00:00 | 00:00:00 | |
| KRY50SP | 2026-09-03 12:00:43 | 52.23464 | 21.43478 | 107° | 58km/h | 14323m | 6.2m/s | -49.5°C | 1.3% | 139.1hPa | 0V | 00:00:00 | 00:00:00 | 00:00:00 | |
| SP3WXH-11 | 2026-09-03 12:00:42 | 52.23473 | 21.43430 | 105° | 62km/h | 14313m | 6.1m/s | -49.5°C | 1.3% | 139.3hPa | 0V | 00:00:00 | 00:00:00 | 00:00:00 | |
| SP4MAZ | 2026-09-03 12:00:39 | 52.23487 | 21.43358 | 108° | 58km/h | 14298m | 3.8m/s | -49.6°C | 1.3% | 139.7hPa | 0V | 00:00:00 | 00:00:00 | 00:00:00 | |
| KRY50SP | 2026-09-03 12:00:38 | 52.23491 | 21.43335 | 107° | 57km/h | 14294m | 4.1m/s | -49.6°C | 1.3% | 139.7hPa | 0V | 00:00:00 | 00:00:00 | 00:00:00 | |
| KRY50SP | 2026-09-03 12:00:31 | 52.23506 | 21.43201 | 99° | 53km/h | 14266m | 3.7m/s | -49.9°C | 1.3% | 140.3hPa | 0V | 00:00:00 | 00:00:00 | 00:00:00 | |
| KRY50SP | 2026-09-03 12:00:25 | 52.23513 | 21.43063 | 95° | 57km/h | 14238m | 6.0m/s | -49.9°C | 1.3% | 141.0hPa | 0V | 00:00:00 | 00:00:00 | 00:00:00 | |
| KRY50SP | 2026-09-03 12:00:20 | 52.23519 | 21.42941 | 94° | 57km/h | 14213m | 6.2m/s | -49.9°C | 1.4% | 141.5hPa | 0V | 00:00:00 | 00:00:00 | 00:00:00 | |
| SP4MAZ | 2026-09-03 12:00:19 | 52.23521 | 21.42896 | 97° | 53km/h | 14203m | 4.7m/s | -49.9°C | 1.4% | 141.7hPa | 0V | 00:00:00 | 00:00:00 | 00:00:00 | |
| KRY50SP | 2026-09-03 12:00:14 | 52.23525 | 21.42814 | 95° | 49km/h | 14184m | 3.6m/s | -49.7°C | 1.3% | 142.1hPa | 0V | 00:00:00 | 00:00:00 | 00:00:00 | |
| SP3WXH-11 | 2026-09-03 12:00:11 | 52.23533 | 21.42731 | 98° | 53km/h | 14163m | 6.6m/s | -49.6°C | 1.4% | 142.6hPa | 0V | 00:00:00 | 00:00:00 | 00:00:00 | |
| KRY50SP | 2026-09-03 12:00:09 | 52.23538 | 21.42686 | 104° | 57km/h | 14153m | 5.0m/s | -49.6°C | 1.4% | 142.8hPa | 0V | 00:00:00 | 00:00:00 | 00:00:00 | |
| KRY50SP | 2026-09-03 11:59:57 | 52.23571 | 21.42456 | 107° | 49km/h | 14094m | 3.4m/s | -49.6°C | 1.3% | 144.1hPa | 0V | 00:00:00 | 00:00:00 | 00:00:00 | |
| KRY50SP | 2026-09-03 11:59:51 | 52.23596 | 21.42330 | 113° | 57km/h | 14063m | 5.0m/s | -49.5°C | 1.4% | 144.7hPa | 0V | 00:00:00 | 00:00:00 | 00:00:00 | |
| SP4MAZ | 2026-09-03 11:59:49 | 52.23605 | 21.42285 | 108° | 58km/h | 14053m | 3.5m/s | -49.4°C | 1.4% | 145.0hPa | 0V | 00:00:00 | 00:00:00 | 00:00:00 | |
| KRY50SP | 2026-09-03 11:59:46 | 52.23619 | 21.42217 | 113° | 58km/h | 14039m | 4.5m/s | -49.3°C | 1.3% | 145.3hPa | 0V | 00:00:00 | 00:00:00 | 00:00:00 | |
| KRY50SP | 2026-09-03 11:59:41 | 52.23653 | 21.42084 | 114° | 58km/h | 14010m | 5.8m/s | -49.3°C | 1.3% | 145.9hPa | 0V | 00:00:00 | 00:00:00 | 00:00:00 | |
| SP3WXH-11 | 2026-09-03 11:59:40 | 52.23658 | 21.42062 | 110° | 55km/h | 14005m | 4.4m/s | -49.3°C | 1.3% | 146.0hPa | 0V | 00:00:00 | 00:00:00 | 00:00:00 | |
| KRY50SP | 2026-09-03 11:59:29 | 52.23721 | 21.41813 | 114° | 64km/h | 13949m | 4.5m/s | -49.3°C | 1.4% | 147.3hPa | 0V | 00:00:00 | 00:00:00 | 00:00:00 | |
| SP4MAZ | 2026-09-03 11:59:28 | 52.23721 | 21.41813 | 114° | 64km/h | 13949m | 4.5m/s | -49.3°C | 1.4% | 147.3hPa | 0V | 00:00:00 | 00:00:00 | 00:00:00 | |
| KRY50SP | 2026-09-03 11:59:23 | 52.23748 | 21.41697 | 112° | 58km/h | 13924m | 4.1m/s | -49.3°C | 1.4% | 147.9hPa | 0V | 00:00:00 | 00:00:00 | 00:00:00 | |
| KRY50SP | 2026-09-03 11:59:18 | 52.23776 | 21.41578 | 111° | 66km/h | 13898m | 4.8m/s | -49.5°C | 1.4% | 148.5hPa | 0V | 00:00:00 | 00:00:00 | 00:00:00 | |
| SP3WXH-11 | 2026-09-03 11:59:09 | 52.23839 | 21.41313 | 111° | 68km/h | 13849m | 5.7m/s | -49.6°C | 1.4% | 149.6hPa | 0V | 00:00:00 | 00:00:00 | 00:00:00 | |
| KRY50SP | 2026-09-03 11:59:07 | 52.23851 | 21.41262 | 113° | 64km/h | 13839m | 5.1m/s | -49.6°C | 1.4% | 149.8hPa | 0V | 00:00:00 | 00:00:00 | 00:00:00 | |
| KRY50SP | 2026-09-03 11:59:01 | 52.23884 | 21.41142 | 118° | 64km/h | 13814m | 5.8m/s | -49.7°C | 1.4% | 150.4hPa | 0V | 00:00:00 | 00:00:00 | 00:00:00 | |
| KRY50SP | 2026-09-03 11:58:55 | 52.23921 | 21.41008 | 111° | 55km/h | 13783m | 4.5m/s | -49.8°C | 1.4% | 151.1hPa | 0V | 00:00:00 | 00:00:00 | 00:00:00 | |
| SP4MAZ | 2026-09-03 11:58:52 | 52.23935 | 21.40942 | 110° | 58km/h | 13768m | 4.2m/s | -49.7°C | 1.4% | 151.4hPa | 0V | 00:00:00 | 00:00:00 | 00:00:00 | |
| KRY50SP | 2026-09-03 11:58:49 | 52.23951 | 21.40874 | 112° | 60km/h | 13753m | 6.0m/s | -49.6°C | 1.4% | 151.8hPa | 0V | 00:00:00 | 00:00:00 | 00:00:00 | |
| KRY50SP | 2026-09-03 11:58:44 | 52.23977 | 21.40764 | 111° | 58km/h | 13726m | 4.4m/s | -49.6°C | 1.4% | 152.4hPa | 0V | 00:00:00 | 00:00:00 | 00:00:00 | |
| SP3WXH-11 | 2026-09-03 11:58:38 | 52.24008 | 21.40609 | 108° | 57km/h | 13691m | 4.9m/s | -49.7°C | 1.4% | 153.2hPa | 0V | 00:00:00 | 00:00:00 | 00:00:00 | |
| KRY50SP | 2026-09-03 11:58:33 | 52.24031 | 21.40510 | 113° | 49km/h | 13667m | 6.3m/s | -49.7°C | 1.4% | 153.7hPa | 0V | 00:00:00 | 00:00:00 | 00:00:00 | |
| SP4MAZ | 2026-09-03 11:58:32 | 52.24031 | 21.40510 | 113° | 49km/h | 13667m | 6.3m/s | -49.7°C | 1.4% | 153.7hPa | 0V | 00:00:00 | 00:00:00 | 00:00:00 | |
| KRY50SP | 2026-09-03 11:58:27 | 52.24054 | 21.40415 | 113° | 51km/h | 13641m | 6.1m/s | -49.6°C | 1.5% | 154.4hPa | 0V | 00:00:00 | 00:00:00 | 00:00:00 | |
| KRY50SP | 2026-09-03 11:58:22 | 52.24086 | 21.40286 | 113° | 58km/h | 13610m | 4.1m/s | -49.4°C | 1.5% | 155.1hPa | 0V | 00:00:00 | 00:00:00 | 00:00:00 | |
| KRY50SP | 2026-09-03 11:58:16 | 52.24121 | 21.40171 | 121° | 49km/h | 13579m | 5.6m/s | -49.3°C | 1.4% | 155.8hPa | 0V | 00:00:00 | 00:00:00 | 00:00:00 | |
| KRY50SP | 2026-09-03 11:58:11 | 52.24154 | 21.40079 | 122° | 55km/h | 13553m | 6.1m/s | -49.3°C | 1.4% | 156.4hPa | 0V | 00:00:00 | 00:00:00 | 00:00:00 | |
| SP4MAZ | 2026-09-03 11:58:08 | 52.24168 | 21.40040 | 122° | 55km/h | 13542m | 5.1m/s | -49.3°C | 1.5% | 156.7hPa | 0V | 00:00:00 | 00:00:00 | 00:00:00 | |
| SP3WXH-11 | 2026-09-03 11:58:07 | 52.24183 | 21.40002 | 121° | 51km/h | 13532m | 3.5m/s | -49.2°C | 1.4% | 156.9hPa | 0V | 00:00:00 | 00:00:00 | 00:00:00 | |
| KRY50SP | 2026-09-03 11:58:05 | 52.24190 | 21.39984 | 121° | 51km/h | 13527m | 6.4m/s | -49.3°C | 1.4% | 157.1hPa | 0V | 00:00:00 | 00:00:00 | 00:00:00 | |
| KRY50SP | 2026-09-03 11:57:59 | 52.24227 | 21.39882 | 124° | 55km/h | 13498m | 5.2m/s | -49.2°C | 1.5% | 157.7hPa | 0V | 00:00:00 | 00:00:00 | 00:00:00 | |
| KRY50SP | 2026-09-03 11:57:49 | 52.24308 | 21.39682 | 123° | 55km/h | 13445m | 5.2m/s | -49.2°C | 1.5% | 159.0hPa | 0V | 00:00:00 | 00:00:00 | 00:00:00 | |
| KRY50SP | 2026-09-03 11:57:43 | 52.24358 | 21.39571 | 127° | 55km/h | 13417m | 5.2m/s | -49.3°C | 1.5% | 159.7hPa | 0V | 00:00:00 | 00:00:00 | 00:00:00 | |
| KRY50SP | 2026-09-03 11:57:37 | 52.24407 | 21.39458 | 122° | 57km/h | 13389m | 3.9m/s | -49.1°C | 1.5% | 160.4hPa | 0V | 00:00:00 | 00:00:00 | 00:00:00 | |
| KRY50SP | 2026-09-03 11:57:31 | 52.24443 | 21.39353 | 121° | 62km/h | 13363m | 5.3m/s | -49.2°C | 1.5% | 161.1hPa | 0V | 00:00:00 | 00:00:00 | 00:00:00 | |
| KRY50SP | 2026-09-03 11:57:25 | 52.24493 | 21.39218 | 123° | 66km/h | 13334m | 5.0m/s | -49.2°C | 1.6% | 161.8hPa | 0V | 00:00:00 | 00:00:00 | 00:00:00 | |
| KRY50SP | 2026-09-03 11:57:20 | 52.24537 | 21.39101 | 123° | 68km/h | 13308m | 5.2m/s | -49.3°C | 1.5% | 162.4hPa | 0V | 00:00:00 | 00:00:00 | 00:00:00 | |
| KRY50SP | 2026-09-03 11:57:14 | 52.24586 | 21.38970 | 121° | 64km/h | 13279m | 4.9m/s | -49.4°C | 1.6% | 163.1hPa | 0V | 00:00:00 | 00:00:00 | 00:00:00 | |
| KRY50SP | 2026-09-03 11:57:08 | 52.24640 | 21.38823 | 121° | 73km/h | 13248m | 4.8m/s | -49.5°C | 1.6% | 163.9hPa | 0V | 00:00:00 | 00:00:00 | 00:00:00 | |
| SP3WXH-11 | 2026-09-03 11:57:05 | 52.24675 | 21.38719 | 113° | 69km/h | 13227m | 5.6m/s | -49.4°C | 1.6% | 164.5hPa | 0V | 00:00:00 | 00:00:00 | 00:00:00 | |
| KRY50SP | 2026-09-03 11:57:03 | 52.24682 | 21.38692 | 115° | 71km/h | 13222m | 5.5m/s | -49.4°C | 1.6% | 164.6hPa | 0V | 00:00:00 | 00:00:00 | 00:00:00 | |
| KRY50SP | 2026-09-03 11:56:57 | 52.24725 | 21.38522 | 114° | 73km/h | 13191m | 4.4m/s | -49.2°C | 1.5% | 165.4hPa | 0V | 00:00:00 | 00:00:00 | 00:00:00 | |
| KRY50SP | 2026-09-03 11:56:51 | 52.24772 | 21.38358 | 117° | 75km/h | 13159m | 6.9m/s | -49.2°C | 1.5% | 166.2hPa | 0V | 00:00:00 | 00:00:00 | 00:00:00 | |
| SP4MAZ | 2026-09-03 11:56:49 | 52.24788 | 21.38304 | 116° | 69km/h | 13148m | 6.4m/s | -49.2°C | 1.5% | 166.5hPa | 0V | 00:00:00 | 00:00:00 | 00:00:00 | |
| KRY50SP | 2026-09-03 11:56:45 | 52.24816 | 21.38202 | 118° | 66km/h | 13127m | 4.9m/s | -49.3°C | 1.5% | 167.0hPa | 0V | 00:00:00 | 00:00:00 | 00:00:00 | |
| KRY50SP | 2026-09-03 11:56:39 | 52.24862 | 21.38055 | 117° | 68km/h | 13096m | 4.2m/s | -49.6°C | 1.5% | 167.8hPa | 0V | 00:00:00 | 00:00:00 | 00:00:00 | |
| SP3WXH-11 | 2026-09-03 11:56:34 | 52.24906 | 21.37891 | 108° | 73km/h | 13067m | 6.4m/s | -49.8°C | 1.5% | 168.5hPa | 0V | 00:00:00 | 00:00:00 | 00:00:00 | |
| KRY50SP | 2026-09-03 11:56:33 | 52.24905 | 21.37891 | 110° | 75km/h | 13067m | 6.4m/s | -49.8°C | 1.5% | 168.5hPa | 0V | 00:00:00 | 00:00:00 | 00:00:00 | |
| KRY50SP | 2026-09-03 11:56:29 | 52.24933 | 21.37752 | 111° | 69km/h | 13042m | 7.2m/s | -49.6°C | 1.5% | 169.2hPa | 0V | 00:00:00 | 00:00:00 | 00:00:00 | |
| SP4MAZ | 2026-09-03 11:56:26 | 52.24950 | 21.37674 | 112° | 64km/h | 13021m | 8.5m/s | -49.4°C | 1.5% | 169.8hPa | 0V | 00:00:00 | 00:00:00 | 00:00:00 | |
| KRY50SP | 2026-09-03 11:56:23 | 52.24970 | 21.37606 | 117° | 62km/h | 13004m | 6.1m/s | -49.3°C | 1.5% | 170.2hPa | 0V | 00:00:00 | 00:00:00 | 00:00:00 | |
| KRY50SP | 2026-09-03 11:56:16 | 52.25011 | 21.37465 | 116° | 64km/h | 12969m | 6.2m/s | -49.0°C | 1.4% | 171.0hPa | 0V | 00:00:00 | 00:00:00 | 00:00:00 | |
| KRY50SP | 2026-09-03 11:56:11 | 52.25045 | 21.37351 | 115° | 62km/h | 12943m | 5.6m/s | -49.4°C | 1.5% | 171.7hPa | 0V | 00:00:00 | 00:00:00 | 00:00:00 | |
| KRY50SP | 2026-09-03 11:56:06 | 52.25084 | 21.37218 | 116° | 58km/h | 12913m | 3.4m/s | -49.4°C | 1.5% | 172.5hPa | 0V | 00:00:00 | 00:00:00 | 00:00:00 | |
| SP4MAZ | 2026-09-03 11:56:05 | 52.25084 | 21.37218 | 116° | 58km/h | 12913m | 3.4m/s | -49.4°C | 1.5% | 172.5hPa | 0V | 00:00:00 | 00:00:00 | 00:00:00 | |
| SP3WXH-11 | 2026-09-03 11:56:03 | 52.25104 | 21.37150 | 116° | 62km/h | 12899m | 3.8m/s | -49.3°C | 1.5% | 172.9hPa | 0V | 00:00:00 | 00:00:00 | 00:00:00 | |
| KRY50SP | 2026-09-03 11:56:00 | 52.25127 | 21.37081 | 122° | 64km/h | 12885m | 5.8m/s | -49.2°C | 1.5% | 173.3hPa | 0V | 00:00:00 | 00:00:00 | 00:00:00 | |
| KRY50SP | 2026-09-03 11:55:54 | 52.25177 | 21.36946 | 120° | 64km/h | 12855m | 4.4m/s | -49.0°C | 1.5% | 174.1hPa | 0V | 00:00:00 | 00:00:00 | 00:00:00 | |
| KRY50SP | 2026-09-03 11:55:48 | 52.25224 | 21.36803 | 122° | 66km/h | 12827m | 3.9m/s | -49.2°C | 1.6% | 174.8hPa | 0V | 00:00:00 | 00:00:00 | 00:00:00 | |
| KRY50SP | 2026-09-03 11:55:42 | 52.25269 | 21.36690 | 122° | 66km/h | 12804m | 3.7m/s | -49.3°C | 1.6% | 175.4hPa | 0V | 00:00:00 | 00:00:00 | 00:00:00 | |
| KRY50SP | 2026-09-03 11:55:36 | 52.25323 | 21.36545 | 125° | 71km/h | 12776m | 5.3m/s | -49.5°C | 1.7% | 176.2hPa | 0V | 00:00:00 | 00:00:00 | 00:00:00 | |
| SP3WXH-11 | 2026-09-03 11:55:32 | 52.25377 | 21.36417 | 124° | 78km/h | 12753m | 5.1m/s | -49.5°C | 1.7% | 176.8hPa | 0V | 00:00:00 | 00:00:00 | 00:00:00 | |
| KRY50SP | 2026-09-03 11:55:30 | 52.25389 | 21.36390 | 126° | 80km/h | 12749m | 3.6m/s | -49.5°C | 1.7% | 177.0hPa | 0V | 00:00:00 | 00:00:00 | 00:00:00 | |
| KRY50SP | 2026-09-03 11:55:25 | 52.25441 | 21.36260 | 120° | 77km/h | 12724m | 4.4m/s | -49.8°C | 1.9% | 177.6hPa | 0V | 00:00:00 | 00:00:00 | 00:00:00 | |
| KRY50SP | 2026-09-03 11:55:21 | 52.25488 | 21.36124 | 117° | 77km/h | 12701m | 4.7m/s | -49.6°C | 1.8% | 178.3hPa | 0V | 00:00:00 | 00:00:00 | 00:00:00 | |
| SP4MAZ | 2026-09-03 11:55:15 | 52.25539 | 21.35967 | 118° | 68km/h | 12672m | 4.3m/s | -49.4°C | 1.9% | 179.0hPa | 0V | 00:00:00 | 00:00:00 | 00:00:00 | |
| KRY50SP | 2026-09-03 11:55:14 | 52.25539 | 21.35967 | 118° | 68km/h | 12672m | 4.3m/s | -49.4°C | 1.9% | 179.0hPa | 0V | 00:00:00 | 00:00:00 | 00:00:00 | |
| KRY50SP | 2026-09-03 11:55:08 | 52.25592 | 21.35817 | 121° | 69km/h | 12643m | 5.6m/s | -49.4°C | 1.9% | 179.8hPa | 0V | 00:00:00 | 00:00:00 | 00:00:00 | |
| KRY50SP | 2026-09-03 11:55:03 | 52.25629 | 21.35703 | 118° | 60km/h | 12621m | 5.3m/s | -49.6°C | 2.0% | 180.4hPa | 0V | 00:00:00 | 00:00:00 | 00:00:00 | |
| SP3WXH-11 | 2026-09-03 11:55:01 | 52.25658 | 21.35610 | 117° | 64km/h | 12603m | 4.7m/s | -49.9°C | 2.1% | 180.9hPa | 0V | 00:00:00 | 00:00:00 | 00:00:00 | |
| KRY50SP | 2026-09-03 11:54:58 | 52.25675 | 21.35564 | 124° | 66km/h | 12593m | 3.9m/s | -50.2°C | 2.2% | 181.2hPa | 0V | 00:00:00 | 00:00:00 | 00:00:00 | |
| KRY50SP | 2026-09-03 11:54:52 | 52.25725 | 21.35419 | 116° | 68km/h | 12568m | 4.8m/s | -50.5°C | 2.2% | 181.9hPa | 0V | 00:00:00 | 00:00:00 | 00:00:00 | |
| SP4MAZ | 2026-09-03 11:54:47 | 52.25762 | 21.35286 | 118° | 73km/h | 12547m | 4.1m/s | -50.7°C | 2.2% | 182.5hPa | 0V | 00:00:00 | 00:00:00 | 00:00:00 | |
| KRY50SP | 2026-09-03 11:54:45 | 52.25771 | 21.35260 | 118° | 69km/h | 12542m | 6.0m/s | -50.8°C | 2.3% | 182.6hPa | 0V | 00:00:00 | 00:00:00 | 00:00:00 | |
| KRY50SP | 2026-09-03 11:54:41 | 52.25811 | 21.35136 | 118° | 68km/h | 12518m | 5.2m/s | -50.9°C | 2.4% | 183.3hPa | 0V | 00:00:00 | 00:00:00 | 00:00:00 | |
| KRY50SP | 2026-09-03 11:54:35 | 52.25856 | 21.35003 | 120° | 75km/h | 12494m | 4.8m/s | -50.9°C | 2.4% | 184.0hPa | 0V | 00:00:00 | 00:00:00 | 00:00:00 | |
| KRY50SP | 2026-09-03 11:54:29 | 52.25910 | 21.34849 | 120° | 69km/h | 12468m | 3.2m/s | -50.9°C | 2.5% | 184.8hPa | 0V | 00:00:00 | 00:00:00 | 00:00:00 | |
| KRY50SP | 2026-09-03 11:54:24 | 52.25960 | 21.34715 | 122° | 80km/h | 12445m | 3.9m/s | -51.2°C | 2.7% | 185.4hPa | 0V | 00:00:00 | 00:00:00 | 00:00:00 | |
| KRY50SP | 2026-09-03 11:54:19 | 52.26023 | 21.34556 | 122° | 77km/h | 12418m | 3.9m/s | -51.1°C | 2.8% | 186.1hPa | 0V | 00:00:00 | 00:00:00 | 00:00:00 | |
| SP4MAZ | 2026-09-03 11:54:17 | 52.26043 | 21.34503 | 123° | 73km/h | 12410m | 4.6m/s | -51.1°C | 2.9% | 186.4hPa | 0V | 00:00:00 | 00:00:00 | 00:00:00 | |
| KRY50SP | 2026-09-03 11:54:13 | 52.26084 | 21.34401 | 127° | 73km/h | 12390m | 5.7m/s | -50.9°C | 2.9% | 186.9hPa | 0V | 00:00:00 | 00:00:00 | 00:00:00 | |
| KRY50SP | 2026-09-03 11:54:07 | 52.26149 | 21.34258 | 127° | 68km/h | 12361m | 4.5m/s | -50.9°C | 3.1% | 187.8hPa | 0V | 00:00:00 | 00:00:00 | 00:00:00 | |
| SP3WXH-11 | 2026-09-03 11:53:59 | 52.26248 | 21.34032 | 127° | 77km/h | 12317m | 5.7m/s | -50.5°C | 3.3% | 189.1hPa | 0V | 00:00:00 | 00:00:00 | 00:00:00 | |
| KRY50SP | 2026-09-03 11:53:56 | 52.26273 | 21.33983 | 133° | 78km/h | 12308m | 5.2m/s | -50.5°C | 3.3% | 189.3hPa | 0V | 00:00:00 | 00:00:00 | 00:00:00 | |
| KRY50SP | 2026-09-03 11:53:50 | 52.26338 | 21.33859 | 127° | 77km/h | 12282m | 4.8m/s | -50.4°C | 3.4% | 190.1hPa | 0V | 00:00:00 | 00:00:00 | 00:00:00 | |
| SP4MAZ | 2026-09-03 11:53:40 | 52.26469 | 21.33554 | 125° | 88km/h | 12222m | 6.3m/s | -50.6°C | 3.8% | 191.8hPa | 0V | 00:00:00 | 00:00:00 | 00:00:00 | |
| KRY50SP | 2026-09-03 11:53:38 | 52.26481 | 21.33524 | 125° | 86km/h | 12218m | 3.7m/s | -50.7°C | 3.9% | 191.9hPa | 0V | 00:00:00 | 00:00:00 | 00:00:00 | |
| KRY50SP | 2026-09-03 11:53:33 | 52.26550 | 21.33354 | 125° | 82km/h | 12188m | 5.2m/s | -51.0°C | 4.0% | 192.8hPa | 0V | 00:00:00 | 00:00:00 | 00:00:00 | |
| KRY50SP | 2026-09-03 11:53:27 | 52.26604 | 21.33209 | 121° | 82km/h | 12162m | 6.4m/s | -51.4°C | 4.1% | 193.6hPa | 0V | 00:00:00 | 00:00:00 | 00:00:00 | |
| KRY50SP | 2026-09-03 11:53:22 | 52.26668 | 21.33022 | 118° | 89km/h | 12130m | 4.4m/s | -51.3°C | 4.1% | 194.5hPa | 0V | 00:00:00 | 00:00:00 | 00:00:00 | |
| SP4MAZ | 2026-09-03 11:53:17 | 52.26710 | 21.32897 | 121° | 82km/h | 12110m | 5.6m/s | -51.4°C | 4.3% | 195.2hPa | 0V | 00:00:00 | 00:00:00 | 00:00:00 | |
| KRY50SP | 2026-09-03 11:53:15 | 52.26730 | 21.32840 | 121° | 78km/h | 12101m | 3.9m/s | -51.4°C | 4.3% | 195.4hPa | 0V | 00:00:00 | 00:00:00 | 00:00:00 | |
| KRY50SP | 2026-09-03 11:53:11 | 52.26782 | 21.32700 | 120° | 78km/h | 12075m | 4.6m/s | -51.5°C | 4.4% | 196.2hPa | 0V | 00:00:00 | 00:00:00 | 00:00:00 | |
| KRY50SP | 2026-09-03 11:53:04 | 52.26835 | 21.32534 | 121° | 71km/h | 12043m | 6.3m/s | -51.5°C | 4.7% | 197.2hPa | 0V | 00:00:00 | 00:00:00 | 00:00:00 | |
| SP3WXH-11 | 2026-09-03 11:52:57 | 52.26917 | 21.32316 | 119° | 71km/h | 11998m | 4.0m/s | -51.5°C | 4.6% | 198.6hPa | 0V | 00:00:00 | 00:00:00 | 00:00:00 | |
| KRY50SP | 2026-09-03 11:52:54 | 52.26935 | 21.32263 | 119° | 73km/h | 11987m | 6.9m/s | -51.4°C | 4.6% | 198.9hPa | 0V | 00:00:00 | 00:00:00 | 00:00:00 | |
| KRY50SP | 2026-09-03 11:52:47 | 52.26989 | 21.32117 | 123° | 68km/h | 11957m | 4.5m/s | -51.2°C | 4.6% | 199.8hPa | 0V | 00:00:00 | 00:00:00 | 00:00:00 | |
| KRY50SP | 2026-09-03 11:52:42 | 52.27037 | 21.32003 | 127° | 68km/h | 11931m | 6.1m/s | -51.2°C | 4.7% | 200.6hPa | 0V | 00:00:00 | 00:00:00 | 00:00:00 | |
| KRY50SP | 2026-09-03 11:52:37 | 52.27095 | 21.31868 | 126° | 68km/h | 11900m | 4.9m/s | -51.5°C | 5.0% | 201.6hPa | 0V | 00:00:00 | 00:00:00 | 00:00:00 | |
| SP4MAZ | 2026-09-03 11:52:36 | 52.27095 | 21.31868 | 126° | 68km/h | 11900m | 4.9m/s | -51.5°C | 5.0% | 201.6hPa | 0V | 00:00:00 | 00:00:00 | 00:00:00 | |
| KRY50SP | 2026-09-03 11:52:30 | 52.27160 | 21.31735 | 132° | 66km/h | 11868m | 4.9m/s | -51.8°C | 5.1% | 202.6hPa | 0V | 00:00:00 | 00:00:00 | 00:00:00 | |
| KRY50SP | 2026-09-03 11:52:25 | 52.27213 | 21.31631 | 129° | 64km/h | 11843m | 4.0m/s | -51.6°C | 5.2% | 203.4hPa | 0V | 00:00:00 | 00:00:00 | 00:00:00 | |
| KRY50SP | 2026-09-03 11:52:19 | 52.27277 | 21.31503 | 128° | 68km/h | 11810m | 4.5m/s | -51.9°C | 5.5% | 204.4hPa | 0V | 00:00:00 | 00:00:00 | 00:00:00 | |
| SP4MAZ | 2026-09-03 11:52:16 | 52.27319 | 21.31406 | 125° | 71km/h | 11788m | 6.8m/s | -52.0°C | 5.8% | 205.1hPa | 0V | 00:00:00 | 00:00:00 | 00:00:00 | |
| KRY50SP | 2026-09-03 11:52:13 | 52.27340 | 21.31358 | 127° | 73km/h | 11778m | 5.4m/s | -52.0°C | 5.9% | 205.4hPa | 0V | 00:00:00 | 00:00:00 | 00:00:00 | |
| KRY50SP | 2026-09-03 11:52:09 | 52.27396 | 21.31240 | 129° | 71km/h | 11753m | 5.8m/s | -52.6°C | 6.6% | 206.2hPa | 0V | 00:00:00 | 00:00:00 | 00:00:00 | |
| KRY50SP | 2026-09-03 11:52:02 | 52.27469 | 21.31096 | 131° | 78km/h | 11722m | 5.3m/s | -52.9°C | 7.3% | 207.2hPa | 0V | 00:00:00 | 00:00:00 | 00:00:00 | |
| SP3WXH-11 | 2026-09-03 11:51:55 | 52.27579 | 21.30872 | 126° | 77km/h | 11677m | 5.4m/s | -53.1°C | 7.9% | 208.6hPa | 0V | 00:00:00 | 00:00:00 | 00:00:00 | |
| KRY50SP | 2026-09-03 11:51:51 | 52.27614 | 21.30795 | 128° | 78km/h | 11661m | 4.6m/s | -53.1°C | 8.2% | 209.1hPa | 0V | 00:00:00 | 00:00:00 | 00:00:00 | |
| KRY50SP | 2026-09-03 11:51:44 | 52.27690 | 21.30632 | 127° | 88km/h | 11630m | 5.8m/s | -53.0°C | 8.6% | 210.2hPa | 0V | 00:00:00 | 00:00:00 | 00:00:00 | |
| SP4MAZ | 2026-09-03 11:51:43 | 52.27703 | 21.30603 | 126° | 86km/h | 11625m | 3.9m/s | -52.9°C | 8.8% | 210.4hPa | 0V | 00:00:00 | 00:00:00 | 00:00:00 | |
| KRY50SP | 2026-09-03 11:51:40 | 52.27753 | 21.30488 | 126° | 88km/h | 11606m | 4.8m/s | -52.9°C | 9.0% | 210.9hPa | 0V | 00:00:00 | 00:00:00 | 00:00:00 | |
| KRY50SP | 2026-09-03 11:51:34 | 52.27816 | 21.30346 | 124° | 84km/h | 11581m | 4.7m/s | -53.4°C | 10.2% | 211.8hPa | 0V | 00:00:00 | 00:00:00 | 00:00:00 | |
| KRY50SP | 2026-09-03 11:51:29 | 52.27878 | 21.30179 | 121° | 80km/h | 11553m | 3.6m/s | -53.8°C | 11.7% | 212.7hPa | 0V | 00:00:00 | 00:00:00 | 00:00:00 | |
| SP3WXH-11 | 2026-09-03 11:51:24 | 52.27945 | 21.30010 | 125° | 78km/h | 11523m | 6.1m/s | -54.1°C | 13.5% | 213.7hPa | 0V | 00:00:00 | 00:00:00 | 00:00:00 | |
| KRY50SP | 2026-09-03 11:51:22 | 52.27945 | 21.30010 | 126° | 78km/h | 11523m | 6.1m/s | -54.1°C | 13.5% | 213.6hPa | 0V | 00:00:00 | 00:00:00 | 00:00:00 | |
| SP4MAZ | 2026-09-03 11:51:20 | 52.27968 | 21.29959 | 127° | 75km/h | 11513m | 5.7m/s | -54.2°C | 14.1% | 214.0hPa | 0V | 00:00:00 | 00:00:00 | 00:00:00 | |
| KRY50SP | 2026-09-03 11:51:17 | 52.28001 | 21.29885 | 128° | 71km/h | 11498m | 5.7m/s | -54.6°C | 15.3% | 214.5hPa | 0V | 00:00:00 | 00:00:00 | 00:00:00 | |
| KRY50SP | 2026-09-03 11:51:11 | 52.28064 | 21.29734 | 123° | 78km/h | 11467m | 6.1m/s | -55.1°C | 16.9% | 215.6hPa | 0V | 00:00:00 | 00:00:00 | 00:00:00 | |
| KRY50SP | 2026-09-03 11:51:06 | 52.28132 | 21.29581 | 130° | 75km/h | 11438m | 5.9m/s | -55.6°C | 18.7% | 216.5hPa | 0V | 00:00:00 | 00:00:00 | 00:00:00 | |
| SP3WXH-11 | 2026-09-03 11:50:53 | 52.28290 | 21.29232 | 128° | 77km/h | 11370m | 5.7m/s | -55.7°C | 20.3% | 218.8hPa | 0V | 00:00:00 | 00:00:00 | 00:00:00 | |
| KRY50SP | 2026-09-03 11:50:43 | 52.28395 | 21.29002 | 129° | 78km/h | 11327m | 3.4m/s | -55.9°C | 22.1% | 220.3hPa | 0V | 00:00:00 | 00:00:00 | 00:00:00 | |
| SP4MAZ | 2026-09-03 11:50:39 | 52.28435 | 21.28928 | 132° | 80km/h | 11313m | 5.7m/s | -55.9°C | 22.7% | 220.8hPa | 0V | 00:00:00 | 00:00:00 | 00:00:00 | |
| KRY50SP | 2026-09-03 11:50:36 | 52.28473 | 21.28849 | 126° | 80km/h | 11297m | 3.6m/s | -55.8°C | 23.2% | 221.4hPa | 0V | 00:00:00 | 00:00:00 | 00:00:00 | |
| KRY50SP | 2026-09-03 11:50:31 | 52.28547 | 21.28691 | 132° | 82km/h | 11271m | 4.7m/s | -56.0°C | 24.7% | 222.3hPa | 0V | 00:00:00 | 00:00:00 | 00:00:00 | |
| KRY50SP | 2026-09-03 11:50:26 | 52.28613 | 21.28563 | 131° | 77km/h | 11248m | 5.5m/s | -56.1°C | 26.1% | 223.1hPa | 0V | 00:00:00 | 00:00:00 | 00:00:00 | |
| KRY50SP | 2026-09-03 11:50:19 | 52.28687 | 21.28421 | 132° | 75km/h | 11222m | 5.3m/s | -56.3°C | 27.4% | 224.0hPa | 0V | 00:00:00 | 00:00:00 | 00:00:00 | |
| KRY50SP | 2026-09-03 11:50:14 | 52.28749 | 21.28311 | 137° | 71km/h | 11198m | 5.6m/s | -56.6°C | 29.0% | 224.9hPa | 0V | 00:00:00 | 00:00:00 | 00:00:00 | |
| KRY50SP | 2026-09-03 11:50:09 | 52.28830 | 21.28180 | 134° | 73km/h | 11171m | 3.9m/s | -56.7°C | 29.8% | 225.8hPa | 0V | 00:00:00 | 00:00:00 | 00:00:00 | |
| KRY50SP | 2026-09-03 11:50:04 | 52.28895 | 21.28068 | 134° | 75km/h | 11150m | 4.9m/s | -56.6°C | 29.9% | 226.6hPa | 0V | 00:00:00 | 00:00:00 | 00:00:00 | |
| SP3WXH-11 | 2026-09-03 11:49:51 | 52.29069 | 21.27719 | 127° | 75km/h | 11085m | 4.8m/s | -56.5°C | 29.9% | 228.9hPa | 0V | 00:00:00 | 00:00:00 | 00:00:00 | |
| SP4MAZ | 2026-09-03 11:49:48 | 52.29081 | 21.27694 | 129° | 77km/h | 11080m | 4.3m/s | -56.4°C | 30.2% | 229.1hPa | 0V | 00:00:00 | 00:00:00 | 00:00:00 | |
| KRY50SP | 2026-09-03 11:49:47 | 52.29105 | 21.27646 | 132° | 73km/h | 11072m | 4.5m/s | -56.4°C | 30.6% | 229.5hPa | 0V | 00:00:00 | 00:00:00 | 00:00:00 | |
| KRY50SP | 2026-09-03 11:49:40 | 52.29179 | 21.27502 | 130° | 75km/h | 11047m | 3.3m/s | -56.3°C | 31.1% | 230.4hPa | 0V | 00:00:00 | 00:00:00 | 00:00:00 | |
| KRY50SP | 2026-09-03 11:49:35 | 52.29248 | 21.27366 | 135° | 68km/h | 11020m | 5.9m/s | -56.3°C | 32.2% | 231.3hPa | 0V | 00:00:00 | 00:00:00 | 00:00:00 | |
| KRY50SP | 2026-09-03 11:49:28 | 52.29318 | 21.27229 | 126° | 75km/h | 10994m | 4.3m/s | -56.3°C | 33.8% | 232.3hPa | 0V | 00:00:00 | 00:00:00 | 00:00:00 | |
| SP4MAZ | 2026-09-03 11:49:27 | 52.29330 | 21.27204 | 130° | 77km/h | 10989m | 5.4m/s | -56.3°C | 33.9% | 232.4hPa | 0V | 00:00:00 | 00:00:00 | 00:00:00 | |
| KRY50SP | 2026-09-03 11:49:23 | 52.29387 | 21.27113 | 139° | 78km/h | 10969m | 6.4m/s | -56.3°C | 35.5% | 233.2hPa | 0V | 00:00:00 | 00:00:00 | 00:00:00 | |
| SP3WXH-11 | 2026-09-03 11:49:20 | 52.29457 | 21.27008 | 133° | 71km/h | 10943m | 4.7m/s | -56.1°C | 37.0% | 234.2hPa | 0V | 00:00:00 | 00:00:00 | 00:00:00 | |
| KRY50SP | 2026-09-03 11:49:19 | 52.29457 | 21.27008 | 135° | 73km/h | 10943m | 4.7m/s | -56.1°C | 37.1% | 234.2hPa | 0V | 00:00:00 | 00:00:00 | 00:00:00 | |
| KRY50SP | 2026-09-03 11:49:12 | 52.29537 | 21.26873 | 138° | 78km/h | 10907m | 7.5m/s | -55.8°C | 38.9% | 235.4hPa | 0V | 00:00:00 | 00:00:00 | 00:00:00 | |
| KRY50SP | 2026-09-03 11:49:07 | 52.29603 | 21.26758 | 129° | 75km/h | 10881m | 4.6m/s | -55.9°C | 42.7% | 236.4hPa | 0V | 00:00:00 | 00:00:00 | 00:00:00 | |
| SP4MAZ | 2026-09-03 11:49:05 | 52.29627 | 21.26708 | 128° | 78km/h | 10870m | 4.4m/s | -55.9°C | 44.0% | 236.8hPa | 0V | 00:00:00 | 00:00:00 | 00:00:00 | |
| SP3WXH-11 | 2026-09-03 11:48:49 | 52.29858 | 21.26293 | 134° | 77km/h | 10783m | 4.2m/s | -56.0°C | 52.3% | 240.0hPa | 0V | 00:00:00 | 00:00:00 | 00:00:00 | |
| KRY50SP | 2026-09-03 11:48:45 | 52.29897 | 21.26224 | 131° | 78km/h | 10768m | 3.7m/s | -55.9°C | 52.4% | 240.5hPa | 0V | 00:00:00 | 00:00:00 | 00:00:00 | |
| KRY50SP | 2026-09-03 11:48:39 | 52.29978 | 21.26063 | 132° | 86km/h | 10744m | 4.7m/s | -55.6°C | 52.2% | 241.5hPa | 0V | 00:00:00 | 00:00:00 | 00:00:00 | |
| KRY50SP | 2026-09-03 11:48:33 | 52.30061 | 21.25903 | 130° | 82km/h | 10717m | 4.5m/s | -55.4°C | 50.4% | 242.5hPa | 0V | 00:00:00 | 00:00:00 | 00:00:00 | |
| KRY50SP | 2026-09-03 11:48:26 | 52.30140 | 21.25749 | 132° | 78km/h | 10688m | 4.7m/s | -55.2°C | 50.5% | 243.6hPa | 0V | 00:00:00 | 00:00:00 | 00:00:00 | |
| KRY50SP | 2026-09-03 11:48:21 | 52.30207 | 21.25627 | 132° | 80km/h | 10665m | 4.8m/s | -55.0°C | 50.7% | 244.5hPa | 0V | 00:00:00 | 00:00:00 | 00:00:00 | |
| SP3WXH-11 | 2026-09-03 11:48:17 | 52.30272 | 21.25507 | 131° | 77km/h | 10642m | 4.0m/s | -54.9°C | 51.7% | 245.4hPa | 0V | 00:00:00 | 00:00:00 | 00:00:00 | |
| KRY50SP | 2026-09-03 11:48:15 | 52.30285 | 21.25484 | 134° | 78km/h | 10638m | 5.9m/s | -54.9°C | 52.3% | 245.6hPa | 0V | 00:00:00 | 00:00:00 | 00:00:00 | |
| SP4MAZ | 2026-09-03 11:48:14 | 52.30299 | 21.25460 | 136° | 78km/h | 10633m | 3.6m/s | -54.8°C | 0% | 245.8hPa | 0V | 00:00:00 | 00:00:00 | 00:00:00 | |
| KRY50SP | 2026-09-03 11:48:09 | 52.30363 | 21.25343 | 130° | 78km/h | 10610m | 4.6m/s | -54.7°C | 53.1% | 246.7hPa | 0V | 00:00:00 | 00:00:00 | 00:00:00 | |
| KRY50SP | 2026-09-03 11:48:03 | 52.30448 | 21.25192 | 131° | 84km/h | 10584m | 4.1m/s | -54.5°C | 54.3% | 247.6hPa | 0V | 00:00:00 | 00:00:00 | 00:00:00 | |
| SP3WXH-11 | 2026-09-03 11:47:47 | 52.30685 | 21.24729 | 128° | 78km/h | 10502m | 4.9m/s | -54.1°C | 58.0% | 250.8hPa | 0V | 00:00:00 | 00:00:00 | 00:00:00 | |
| KRY50SP | 2026-09-03 11:47:41 | 52.30746 | 21.24594 | 125° | 82km/h | 10476m | 4.4m/s | -53.9°C | 55.1% | 251.9hPa | 0V | 00:00:00 | 00:00:00 | 00:00:00 | |
| KRY50SP | 2026-09-03 11:47:35 | 52.30813 | 21.24462 | 133° | 84km/h | 10449m | 6.1m/s | -53.8°C | 54.8% | 252.9hPa | 0V | 00:00:00 | 00:00:00 | 00:00:00 | |
| KRY50SP | 2026-09-03 11:47:30 | 52.30898 | 21.24298 | 129° | 88km/h | 10421m | 3.8m/s | -53.6°C | 55.0% | 253.9hPa | 0V | 00:00:00 | 00:00:00 | 00:00:00 | |
| KRY50SP | 2026-09-03 11:47:24 | 52.30967 | 21.24150 | 130° | 93km/h | 10397m | 4.7m/s | -53.5°C | 54.9% | 254.9hPa | 0V | 00:00:00 | 00:00:00 | 00:00:00 | |
| KRY50SP | 2026-09-03 11:47:18 | 52.31055 | 21.23982 | 129° | 88km/h | 10371m | 4.6m/s | -53.3°C | 56.3% | 255.9hPa | 0V | 00:00:00 | 00:00:00 | 00:00:00 | |
| SP3WXH-11 | 2026-09-03 11:47:16 | 52.31110 | 21.23868 | 127° | 86km/h | 10353m | 3.3m/s | -53.2°C | 55.4% | 256.6hPa | 0V | 00:00:00 | 00:00:00 | 00:00:00 | |
| KRY50SP | 2026-09-03 11:47:13 | 52.31123 | 21.23838 | 127° | 88km/h | 10348m | 6.0m/s | -53.3°C | 55.2% | 256.8hPa | 0V | 00:00:00 | 00:00:00 | 00:00:00 | |
| SP4MAZ | 2026-09-03 11:47:10 | 52.31163 | 21.23753 | 132° | 88km/h | 10333m | 4.4m/s | 0°C | 0% | 257.4hPa | 0V | 00:00:00 | 00:00:00 | 00:00:00 | |
| KRY50SP | 2026-09-03 11:47:07 | 52.31209 | 21.23668 | 132° | 91km/h | 10321m | 2.7m/s | -53.1°C | 56.2% | 257.9hPa | 0V | 00:00:00 | 00:00:00 | 00:00:00 | |
| KRY50SP | 2026-09-03 11:47:01 | 52.31298 | 21.23497 | 129° | 89km/h | 10293m | 6.9m/s | -52.8°C | 55.2% | 259.0hPa | 0V | 00:00:00 | 00:00:00 | 00:00:00 | |
| KRY50SP | 2026-09-03 11:46:56 | 52.31381 | 21.23324 | 131° | 84km/h | 10264m | 4.1m/s | -52.7°C | 57.2% | 260.2hPa | 0V | 00:00:00 | 00:00:00 | 00:00:00 | |
| KRY50SP | 2026-09-03 11:46:50 | 52.31452 | 21.23194 | 133° | 89km/h | 10238m | 5.4m/s | -52.6°C | 58.4% | 261.3hPa | 0V | 00:00:00 | 00:00:00 | 00:00:00 | |
| SP3WXH-11 | 2026-09-03 11:46:44 | 52.31552 | 21.22994 | 133° | 86km/h | 10202m | 3.9m/s | -52.2°C | 57.0% | 262.8hPa | 0V | 00:00:00 | 00:00:00 | 00:00:00 | |
| SP4MAZ | 2026-09-03 11:46:39 | 52.31627 | 21.22878 | 132° | 84km/h | 10178m | 3.2m/s | -52.0°C | 0% | 263.8hPa | 0V | 00:00:00 | 00:00:00 | 00:00:00 | |
| KRY50SP | 2026-09-03 11:46:38 | 52.31641 | 21.22851 | 129° | 88km/h | 10174m | 5.6m/s | -52.0°C | 59.8% | 264.0hPa | 0V | 00:00:00 | 00:00:00 | 00:00:00 | |
| KRY50SP | 2026-09-03 11:46:32 | 52.31721 | 21.22680 | 137° | 84km/h | 10138m | 6.7m/s | -51.7°C | 58.0% | 265.5hPa | 0V | 00:00:00 | 00:00:00 | 00:00:00 | |
| KRY50SP | 2026-09-03 11:46:26 | 52.31810 | 21.22526 | 135° | 86km/h | 10100m | 6.9m/s | -51.4°C | 57.5% | 266.9hPa | 0V | 00:00:00 | 00:00:00 | 00:00:00 | |
| KRY50SP | 2026-09-03 11:46:20 | 52.31900 | 21.22376 | 134° | 84km/h | 10065m | 6.5m/s | -51.1°C | 60.3% | 268.3hPa | 0V | 00:00:00 | 00:00:00 | 00:00:00 | |
| SP4MAZ | 2026-09-03 11:46:18 | 52.31914 | 21.22351 | 133° | 82km/h | 10060m | 3.3m/s | -51.0°C | 0% | 268.6hPa | 0V | 00:00:00 | 00:00:00 | 00:00:00 | |
| SP3WXH-11 | 2026-09-03 11:46:14 | 52.31980 | 21.22191 | 125° | 69km/h | 10036m | 3.8m/s | -50.7°C | 59.0% | 269.5hPa | 0V | 00:00:00 | 00:00:00 | 00:00:00 | |
| KRY50SP | 2026-09-03 11:46:05 | 52.32083 | 21.22022 | 135° | 88km/h | 9990m | 5.2m/s | -50.5°C | 57.1% | 271.5hPa | 0V | 00:00:00 | 00:00:00 | 00:00:00 | |
| KRY50SP | 2026-09-03 11:46:00 | 52.32167 | 21.21864 | 129° | 86km/h | 9961m | 4.5m/s | -50.2°C | 57.5% | 272.7hPa | 0V | 00:00:00 | 00:00:00 | 00:00:00 | |
| SP4MAZ | 2026-09-03 11:45:58 | 52.32193 | 21.21811 | 132° | 82km/h | 9951m | 3.8m/s | -50.1°C | 0% | 273.2hPa | 0V | 00:00:00 | 00:00:00 | 00:00:00 | |
| KRY50SP | 2026-09-03 11:45:53 | 52.32253 | 21.21708 | 133° | 89km/h | 9931m | 4.8m/s | -50.0°C | 58.0% | 274.0hPa | 0V | 00:00:00 | 00:00:00 | 00:00:00 | |
| KRY50SP | 2026-09-03 11:45:46 | 52.32342 | 21.21525 | 131° | 80km/h | 9897m | 5.8m/s | -49.8°C | 57.2% | 275.5hPa | 0V | 00:00:00 | 00:00:00 | 00:00:00 | |
| SP3WXH-11 | 2026-09-03 11:45:42 | 52.32409 | 21.21401 | 135° | 82km/h | 9865m | 3.8m/s | -49.5°C | 57.3% | 276.8hPa | 0V | 00:00:00 | 00:00:00 | 00:00:00 | |
| KRY50SP | 2026-09-03 11:45:40 | 52.32424 | 21.21377 | 136° | 86km/h | 9861m | 5.8m/s | -49.5°C | 56.7% | 277.0hPa | 0V | 00:00:00 | 00:00:00 | 00:00:00 | |
| KRY50SP | 2026-09-03 11:45:36 | 52.32497 | 21.21245 | 136° | 82km/h | 9836m | 5.6m/s | -49.3°C | 56.8% | 278.1hPa | 0V | 00:00:00 | 00:00:00 | 00:00:00 | |
| SP4MAZ | 2026-09-03 11:45:34 | 52.32525 | 21.21198 | 135° | 78km/h | 9825m | 7.7m/s | 0°C | 0% | 278.6hPa | 0V | 00:00:00 | 00:00:00 | 00:00:00 | |
| KRY50SP | 2026-09-03 11:45:30 | 52.32576 | 21.21105 | 135° | 77km/h | 9800m | 7.3m/s | -49.1°C | 54.8% | 279.5hPa | 0V | 00:00:00 | 00:00:00 | 00:00:00 | |
| KRY50SP | 2026-09-03 11:45:22 | 52.32674 | 21.20934 | 133° | 78km/h | 9766m | 3.3m/s | -48.9°C | 55.3% | 281.0hPa | 0V | 00:00:00 | 00:00:00 | 00:00:00 | |
| KRY50SP | 2026-09-03 11:45:17 | 52.32756 | 21.20781 | 133° | 80km/h | 9740m | 4.5m/s | -48.7°C | 55.7% | 282.1hPa | 0V | 00:00:00 | 00:00:00 | 00:00:00 | |
| SP4MAZ | 2026-09-03 11:45:13 | 52.32795 | 21.20709 | 133° | 75km/h | 9727m | 5.0m/s | 0°C | 0% | 282.7hPa | 0V | 00:00:00 | 00:00:00 | 00:00:00 | |
| KRY50SP | 2026-09-03 11:45:11 | 52.32832 | 21.20641 | 131° | 71km/h | 9712m | 4.4m/s | -48.4°C | 55.7% | 283.3hPa | 0V | 00:00:00 | 00:00:00 | 00:00:00 | |
| KRY50SP | 2026-09-03 11:45:04 | 52.32909 | 21.20496 | 129° | 82km/h | 9683m | 3.7m/s | -48.2°C | 54.7% | 284.6hPa | 0V | 00:00:00 | 00:00:00 | 00:00:00 | |
| KRY50SP | 2026-09-03 11:44:56 | 52.33015 | 21.20304 | 131° | 82km/h | 9639m | 3.6m/s | -47.9°C | 58.1% | 286.4hPa | 0V | 00:00:00 | 00:00:00 | 00:00:00 | |
| SP4MAZ | 2026-09-03 11:44:53 | 52.33051 | 21.20227 | 126° | 75km/h | 9626m | 3.9m/s | 0°C | 0% | 287.0hPa | 0V | 00:00:00 | 00:00:00 | 00:00:00 | |
| KRY50SP | 2026-09-03 11:44:51 | 52.33086 | 21.20152 | 130° | 78km/h | 9612m | 4.6m/s | -47.7°C | 58.3% | 287.6hPa | 0V | 00:00:00 | 00:00:00 | 00:00:00 | |
| KRY50SP | 2026-09-03 11:44:45 | 52.33145 | 21.20019 | 130° | 80km/h | 9585m | 4.5m/s | -47.5°C | 58.8% | 288.9hPa | 0V | 00:00:00 | 00:00:00 | 00:00:00 | |
| SP3WXH-11 | 2026-09-03 11:44:40 | 52.33223 | 21.19869 | 131° | 77km/h | 9555m | 3.2m/s | -47.2°C | 60.3% | 290.2hPa | 0V | 00:00:00 | 00:00:00 | 00:00:00 | |
| KRY50SP | 2026-09-03 11:44:34 | 52.33282 | 21.19737 | 127° | 80km/h | 9533m | 5.5m/s | -47.0°C | 58.7% | 291.3hPa | 0V | 00:00:00 | 00:00:00 | 00:00:00 | |
| KRY50SP | 2026-09-03 11:44:28 | 52.33358 | 21.19580 | 134° | 78km/h | 9503m | 3.2m/s | -46.8°C | 61.3% | 292.5hPa | 0V | 00:00:00 | 00:00:00 | 00:00:00 | |
| KRY50SP | 2026-09-03 11:44:23 | 52.33438 | 21.19430 | 131° | 77km/h | 9472m | 7.7m/s | -46.6°C | 58.0% | 293.9hPa | 0V | 00:00:00 | 00:00:00 | 00:00:00 | |
| KRY50SP | 2026-09-03 11:44:17 | 52.33511 | 21.19281 | 132° | 77km/h | 9431m | 6.6m/s | -46.2°C | 57.9% | 295.7hPa | 0V | 00:00:00 | 00:00:00 | 00:00:00 | |
| KRY50SP | 2026-09-03 11:44:10 | 52.33584 | 21.19130 | 129° | 78km/h | 9394m | 4.0m/s | -45.9°C | 59.0% | 297.4hPa | 0V | 00:00:00 | 00:00:00 | 00:00:00 | |
| SP3WXH-11 | 2026-09-03 11:44:09 | 52.33608 | 21.19077 | 124° | 82km/h | 9382m | 6.8m/s | -45.8°C | 58.0% | 297.9hPa | 0V | 00:00:00 | 00:00:00 | 00:00:00 | |
| KRY50SP | 2026-09-03 11:44:05 | 52.33641 | 21.18993 | 123° | 75km/h | 9364m | 7.0m/s | -45.6°C | 56.5% | 298.6hPa | 0V | 00:00:00 | 00:00:00 | 00:00:00 | |
| SP4MAZ | 2026-09-03 11:44:03 | 52.33661 | 21.18942 | 124° | 75km/h | 9352m | 7.0m/s | -45.5°C | 0% | 299.1hPa | 0V | 00:00:00 | 00:00:00 | 00:00:00 | |
| KRY50SP | 2026-09-03 11:44:00 | 52.33695 | 21.18861 | 129° | 84km/h | 9333m | 5.7m/s | -45.4°C | 55.7% | 299.9hPa | 0V | 00:00:00 | 00:00:00 | 00:00:00 | |
| KRY50SP | 2026-09-03 11:43:55 | 52.33769 | 21.18694 | 120° | 88km/h | 9304m | 1.4m/s | -45.1°C | 55.3% | 301.3hPa | 0V | 00:00:00 | 00:00:00 | 00:00:00 | |
| KRY50SP | 2026-09-03 11:43:49 | 52.33847 | 21.18536 | 141° | 78km/h | 9270m | 6.9m/s | -44.8°C | 54.1% | 302.8hPa | 0V | 00:00:00 | 00:00:00 | 00:00:00 | |
| SP4MAZ | 2026-09-03 11:43:44 | 52.33905 | 21.18415 | 122° | 77km/h | 9235m | 7.7m/s | -44.5°C | 0% | 304.4hPa | 0V | 00:00:00 | 00:00:00 | 00:00:00 | |
| KRY50SP | 2026-09-03 11:43:43 | 52.33905 | 21.18415 | 122° | 77km/h | 9235m | 7.7m/s | -44.5°C | 54.9% | 304.4hPa | 0V | 00:00:00 | 00:00:00 | 00:00:00 | |
| SP3WXH-11 | 2026-09-03 11:43:38 | 52.33988 | 21.18272 | 137° | 80km/h | 9193m | 5.1m/s | 0°C | -1.0% | 306.1hPa | 0V | 00:00:00 | 00:00:00 | 00:00:00 | |
| KRY50SP | 2026-09-03 11:43:37 | 52.33988 | 21.18272 | 139° | 82km/h | 9193m | 5.1m/s | -44.1°C | 56.1% | 306.1hPa | 0V | 00:00:00 | 00:00:00 | 00:00:00 | |
| KRY50SP | 2026-09-03 11:43:31 | 52.34067 | 21.18116 | 129° | 78km/h | 9159m | 5.0m/s | -43.8°C | 0% | 308.0hPa | 0V | 00:00:00 | 00:00:00 | 00:00:00 | |
| KRY50SP | 2026-09-03 11:43:26 | 52.34121 | 21.17995 | 126° | 71km/h | 9129m | 7.9m/s | -43.5°C | 0% | 309.4hPa | 0V | 00:00:00 | 00:00:00 | 00:00:00 | |
| SP4MAZ | 2026-09-03 11:43:21 | 52.34187 | 21.17875 | 138° | 80km/h | 9095m | 7.1m/s | 0°C | 0% | 310.9hPa | 0V | 00:00:00 | 00:00:00 | 00:00:00 | |
| KRY50SP | 2026-09-03 11:43:20 | 52.34201 | 21.17852 | 137° | 78km/h | 9088m | 6.4m/s | -43.2°C | 0% | 311.1hPa | 0V | 00:00:00 | 00:00:00 | 00:00:00 | |
| KRY50SP | 2026-09-03 11:43:10 | 52.34346 | 21.17564 | 132° | 91km/h | 9033m | 5.4m/s | -42.7°C | 0% | 313.6hPa | 0V | 00:00:00 | 00:00:00 | 00:00:00 | |
| KRY50SP | 2026-09-03 11:43:04 | 52.34426 | 21.17420 | 134° | 77km/h | 8992m | 7.3m/s | -42.5°C | 0% | 315.5hPa | 0V | 00:00:00 | 00:00:00 | 00:00:00 | |
| SP4MAZ | 2026-09-03 11:43:01 | 52.34452 | 21.17370 | 129° | 82km/h | 8978m | 7.0m/s | 0°C | 0% | 316.1hPa | 0V | 00:00:00 | 00:00:00 | 00:00:00 | |
| KRY50SP | 2026-09-03 11:42:58 | 52.34504 | 21.17264 | 131° | 80km/h | 8948m | 4.3m/s | -42.3°C | 0% | 317.4hPa | 0V | 00:00:00 | 00:00:00 | 00:00:00 | |
| KRY50SP | 2026-09-03 11:42:52 | 52.34564 | 21.17138 | 132° | 75km/h | 8919m | 5.4m/s | 0°C | 0% | 318.9hPa | 0V | 00:00:00 | 00:00:00 | 00:00:00 | |
| KRY50SP | 2026-09-03 11:42:46 | 52.34630 | 21.17000 | 131° | 64km/h | 8887m | 4.0m/s | 0°C | 0% | 320.3hPa | 0V | 00:00:00 | 00:00:00 | 00:00:00 | |
| KRY50SP | 2026-09-03 11:42:39 | 52.34707 | 21.16865 | 143° | 64km/h | 8845m | 4.7m/s | 0°C | 0% | 322.3hPa | 0V | 00:00:00 | 00:00:00 | 00:00:00 | |
| KRY50SP | 2026-09-03 11:42:33 | 52.34778 | 21.16760 | 134° | 60km/h | 8805m | 8.2m/s | 0°C | 0% | 0hPa | 0V | 00:00:00 | 00:00:00 | 00:00:00 | |
| KRY50SP | 2026-09-03 11:42:28 | 52.34836 | 21.16625 | 129° | 75km/h | 8765m | 4.1m/s | 0°C | 0% | 0hPa | 0V | 00:00:00 | 00:00:00 | 00:00:00 | |
| KRY50SP | 2026-09-03 11:42:23 | 52.34887 | 21.16520 | 128° | 57km/h | 8739m | 4.5m/s | 0°C | 0% | 0hPa | 0V | 00:00:00 | 00:00:00 | 00:00:00 | |
| KRY50SP | 2026-09-03 11:42:18 | 52.34930 | 21.16406 | 121° | 66km/h | 8710m | 8.5m/s | 0°C | 0% | 0hPa | 0V | 00:00:00 | 00:00:00 | 00:00:00 | |
| KRY50SP | 2026-09-03 11:42:12 | 52.34986 | 21.16297 | 138° | 64km/h | 8674m | 5.2m/s | 0°C | 0% | 0hPa | 0V | 00:00:00 | 00:00:00 | 00:00:00 | |
| KRY50SP | 2026-09-03 11:42:06 | 52.35049 | 21.16169 | 129° | 60km/h | 8645m | 6.0m/s | 0°C | 0% | 0hPa | 0V | 00:00:00 | 00:00:00 | 00:00:00 | |
| SP4MAZ | 2026-09-03 11:41:43 | 52.35270 | 21.15734 | 128° | 60km/h | 8534m | 5.3m/s | 0°C | 0% | 337.5hPa | 0V | 00:00:00 | 00:00:00 | 00:00:00 | |
| SP4MAZ | 2026-09-03 11:41:23 | 52.35453 | 21.15332 | 133° | 64km/h | 8409m | 8.0m/s | 0°C | 0% | 343.8hPa | 0V | 00:00:00 | 00:00:00 | 00:00:00 | |
| SP4MAZ | 2026-09-03 11:40:53 | 52.35778 | 21.14757 | 134° | 60km/h | 8216m | 6.8m/s | 0°C | 0% | 0hPa | 0V | 00:00:00 | 00:00:00 | 00:00:00 | |
| SP4MAZ | 2026-09-03 11:40:32 | 52.36000 | 21.14425 | 139° | 73km/h | 8095m | 6.1m/s | 0°C | 0% | 0hPa | 0V | 00:00:00 | 00:00:00 | 00:00:00 | |
| SP4MAZ | 2026-09-03 11:40:09 | 52.36266 | 21.14044 | 123° | 71km/h | 7955m | 3.9m/s | 0°C | 0% | 366.9hPa | 0V | 00:00:00 | 00:00:00 | 00:00:00 | |
| SP4MAZ | 2026-09-03 11:39:49 | 52.36475 | 21.13726 | 140° | 57km/h | 7835m | 4.9m/s | 0°C | 0% | 373.2hPa | 0V | 00:00:00 | 00:00:00 | 00:00:00 | |
| SP4MAZ | 2026-09-03 11:39:18 | 52.36782 | 21.13165 | 136° | 60km/h | 7675m | 5.4m/s | 0°C | 0% | 0hPa | 0V | 00:00:00 | 00:00:00 | 00:00:00 | |
| SP4MAZ | 2026-09-03 11:38:56 | 52.36973 | 21.12770 | 131° | 57km/h | 7552m | 6.8m/s | 0°C | 0% | 388.7hPa | 0V | 00:00:00 | 00:00:00 | 00:00:00 | |
| SP4MAZ | 2026-09-03 11:38:36 | 52.37162 | 21.12430 | 136° | 69km/h | 7434m | 3.9m/s | 0°C | 0% | 395.0hPa | 0V | 00:00:00 | 00:00:00 | 00:00:00 | |
| SP4MAZ | 2026-09-03 11:38:15 | 52.37367 | 21.12084 | 125° | 44km/h | 7308m | 5.9m/s | 0°C | 0% | 402.0hPa | 0V | 00:00:00 | 00:00:00 | 00:00:00 | |
| SP4MAZ | 2026-09-03 11:37:54 | 52.37529 | 21.11733 | 130° | 55km/h | 7197m | 6.0m/s | 0°C | 0% | 408.3hPa | 0V | 00:00:00 | 00:00:00 | 00:00:00 | |
| SP4MAZ | 2026-09-03 11:37:24 | 52.37719 | 21.11203 | 119° | 55km/h | 7033m | 5.4m/s | 0°C | 0% | 0hPa | 0V | 00:00:00 | 00:00:00 | 00:00:00 | |
| SP4MAZ | 2026-09-03 11:37:01 | 52.37910 | 21.10781 | 128° | 47km/h | 6896m | 6.2m/s | 0°C | 0% | 425.7hPa | 0V | 00:00:00 | 00:00:00 | 00:00:00 | |
| SP4MAZ | 2026-09-03 11:36:30 | 52.38155 | 21.10234 | 136° | 69km/h | 6721m | 4.9m/s | 0°C | 0% | 0hPa | 0V | 00:00:00 | 00:00:00 | 00:00:00 | |
| SP4MAZ | 2026-09-03 11:36:10 | 52.38316 | 21.09839 | 129° | 49km/h | 6601m | 8.8m/s | 0°C | 0% | 0hPa | 0V | 00:00:00 | 00:00:00 | 00:00:00 | |
| SP4MAZ | 2026-09-03 11:35:51 | 52.38492 | 21.09462 | 114° | 49km/h | 6475m | 6.9m/s | 0°C | 0% | 0hPa | 0V | 00:00:00 | 00:00:00 | 00:00:00 | |
| SP4MAZ | 2026-09-03 11:35:05 | 52.38806 | 21.08718 | 141° | 53km/h | 6221m | 6.9m/s | 0°C | 0% | 466.7hPa | 0V | 00:00:00 | 00:00:00 | 00:00:00 | |
| SP4MAZ | 2026-09-03 11:34:35 | 52.39045 | 21.08198 | 129° | 40km/h | 6049m | 6.6m/s | 0°C | 0% | 0hPa | 0V | 00:00:00 | 00:00:00 | 00:00:00 | |
| SP4MAZ | 2026-09-03 11:34:15 | 52.39204 | 21.07866 | 120° | 60km/h | 5936m | 5.7m/s | 0°C | 0% | 0hPa | 0V | 00:00:00 | 00:00:00 | 00:00:00 | |
| SP4MAZ | 2026-09-03 11:33:52 | 52.39369 | 21.07546 | 117° | 44km/h | 5809m | 4.9m/s | 0°C | 0% | 493.2hPa | 0V | 00:00:00 | 00:00:00 | 00:00:00 | |
| SP4MAZ | 2026-09-03 11:33:20 | 52.39519 | 21.06992 | 110° | 46km/h | 5626m | 3.8m/s | 0°C | 0% | 0hPa | 0V | 00:00:00 | 00:00:00 | 00:00:00 | |
| SP4MAZ | 2026-09-03 11:32:59 | 52.39602 | 21.06693 | 116° | 42km/h | 5516m | 3.9m/s | 0°C | 0% | 0hPa | 0V | 00:00:00 | 00:00:00 | 00:00:00 | |
| SP4MAZ | 2026-09-03 11:32:36 | 52.39691 | 21.06273 | 124° | 49km/h | 5397m | 4.9m/s | 0°C | 0% | 0hPa | 0V | 00:00:00 | 00:00:00 | 00:00:00 | |
| SP4MAZ | 2026-09-03 11:32:15 | 52.39771 | 21.05998 | 104° | 49km/h | 5293m | 6.2m/s | 0°C | 0% | 0hPa | 0V | 00:00:00 | 00:00:00 | 00:00:00 | |
| SP4MAZ | 2026-09-03 11:31:46 | 52.39865 | 21.05618 | 114° | 38km/h | 5127m | 4.9m/s | 0°C | 0% | 0hPa | 0V | 00:00:00 | 00:00:00 | 00:00:00 | |
| SP4MAZ | 2026-09-03 11:31:26 | 52.39917 | 21.05444 | 103° | 29km/h | 5031m | 5.7m/s | 0°C | 0% | 0hPa | 0V | 00:00:00 | 00:00:00 | 00:00:00 | |
| SP4MAZ | 2026-09-03 11:31:04 | 52.39956 | 21.05272 | 83° | 20km/h | 4919m | 3.6m/s | 0°C | 0% | 0hPa | 0V | 00:00:00 | 00:00:00 | 00:00:00 | |
| SP4MAZ | 2026-09-03 11:30:44 | 52.39959 | 21.05018 | 77° | 27km/h | 4818m | 6.1m/s | 0°C | 0% | 0hPa | 0V | 00:00:00 | 00:00:00 | 00:00:00 | |
| SP4MAZ | 2026-09-03 11:30:14 | 52.40023 | 21.04706 | 120° | 31km/h | 4657m | 4.7m/s | 0°C | 0% | 0hPa | 0V | 00:00:00 | 00:00:00 | 00:00:00 | |
| SP4MAZ | 2026-09-03 11:29:53 | 52.40053 | 21.04448 | 97° | 37km/h | 4541m | 5.2m/s | 0°C | 0% | 0hPa | 0V | 00:00:00 | 00:00:00 | 00:00:00 | |
| SP4MAZ | 2026-09-03 11:29:32 | 52.40074 | 21.04201 | 108° | 26km/h | 4427m | 5.7m/s | 0°C | 0% | 0hPa | 0V | 00:00:00 | 00:00:00 | 00:00:00 | |
| SP4MAZ | 2026-09-03 11:29:11 | 52.40087 | 21.03892 | 105° | 38km/h | 4309m | 5.5m/s | 0°C | 0% | 0hPa | 0V | 00:00:00 | 00:00:00 | 00:00:00 | |
| SP4MAZ | 2026-09-03 11:28:48 | 52.40129 | 21.03543 | 110° | 49km/h | 4182m | 6.5m/s | 0°C | 0% | 0hPa | 0V | 00:00:00 | 00:00:00 | 00:00:00 | |
| SP4MAZ | 2026-09-03 11:28:28 | 52.40198 | 21.03160 | 118° | 55km/h | 4075m | 5.3m/s | 0°C | 0% | 0hPa | 0V | 00:00:00 | 00:00:00 | 00:00:00 | |
| SP4MAZ | 2026-09-03 11:27:58 | 52.40290 | 21.02646 | 108° | 40km/h | 3920m | 5.9m/s | 0°C | 0% | 0hPa | 0V | 00:00:00 | 00:00:00 | 00:00:00 | |
| SP4MAZ | 2026-09-03 11:27:35 | 52.40388 | 21.02290 | 127° | 37km/h | 3797m | 4.1m/s | 0°C | 0% | 0hPa | 0V | 00:00:00 | 00:00:00 | 00:00:00 | |
| SP4MAZ | 2026-09-03 11:27:14 | 52.40458 | 21.02018 | 107° | 18km/h | 3686m | 4.8m/s | 0°C | 0% | 0hPa | 0V | 00:00:00 | 00:00:00 | 00:00:00 | |
| SP4MAZ | 2026-09-03 11:26:51 | 52.40527 | 21.01798 | 124° | 35km/h | 3565m | 5.0m/s | 0°C | 0% | 0hPa | 0V | 00:00:00 | 00:00:00 | 00:00:00 | |
| SP4MAZ | 2026-09-03 11:26:18 | 52.40606 | 21.01428 | 116° | 15km/h | 3397m | 5.1m/s | 0°C | 0% | 0hPa | 0V | 00:00:00 | 00:00:00 | 00:00:00 | |
| SP4MAZ | 2026-09-03 11:25:03 | 52.40673 | 21.00753 | 123° | 7km/h | 3014m | 4.1m/s | 0°C | 0% | 0hPa | 0V | 00:00:00 | 00:00:00 | 00:00:00 |